<?xml version="1.0" encoding="UTF-8" standalone="no" ?>
<gpx xmlns="http://www.topografix.com/GPX/1/1" xmlns:xsi="http://www.w3.org/2001/XMLSchema-instance" xsi:schemaLocation="http://www.topografix.com/GPX/1/1 http://www.topografix.com/GPX/1/1/gpx.xsd" version="1.1" creator="VisuGPX - https://www.visugpx.com">
  <metadata>
    <name>Du Gapençais au caturige</name>
    <desc><![CDATA[Un circuit champêtre émaillé de nombreux raidillons]]></desc>
  </metadata>
  <trk>
    <name><![CDATA[ACTIVE LOG 002]]></name>
    <trkseg>
      <trkpt lat="44.55877" lon="6.07485">
        <ele>702.380371</ele>
        <time>2011-03-18T09:09:06Z</time>
      </trkpt>
      <trkpt lat="44.55881" lon="6.07474">
        <ele>705.745117</ele>
        <time>2011-03-18T09:09:17Z</time>
      </trkpt>
      <trkpt lat="44.55882" lon="6.07469">
        <ele>710.551514</ele>
        <time>2011-03-18T09:09:25Z</time>
      </trkpt>
      <trkpt lat="44.55881" lon="6.07471">
        <ele>712.474121</ele>
        <time>2011-03-18T09:09:32Z</time>
      </trkpt>
      <trkpt lat="44.55881" lon="6.07471">
        <ele>715.358154</ele>
        <time>2011-03-18T09:09:53Z</time>
      </trkpt>
      <trkpt lat="44.55876" lon="6.07472">
        <ele>716.31958</ele>
        <time>2011-03-18T09:09:56Z</time>
      </trkpt>
      <trkpt lat="44.5586" lon="6.07458">
        <ele>718.242188</ele>
        <time>2011-03-18T09:10:02Z</time>
      </trkpt>
      <trkpt lat="44.5584" lon="6.07457">
        <ele>718.7229</ele>
        <time>2011-03-18T09:10:06Z</time>
      </trkpt>
      <trkpt lat="44.55836" lon="6.07454">
        <ele>718.7229</ele>
        <time>2011-03-18T09:10:07Z</time>
      </trkpt>
      <trkpt lat="44.55827" lon="6.07445">
        <ele>718.7229</ele>
        <time>2011-03-18T09:10:10Z</time>
      </trkpt>
      <trkpt lat="44.5581" lon="6.07443">
        <ele>717.761475</ele>
        <time>2011-03-18T09:10:14Z</time>
      </trkpt>
      <trkpt lat="44.55772" lon="6.07457">
        <ele>718.7229</ele>
        <time>2011-03-18T09:10:22Z</time>
      </trkpt>
      <trkpt lat="44.55755" lon="6.07468">
        <ele>717.281006</ele>
        <time>2011-03-18T09:10:27Z</time>
      </trkpt>
      <trkpt lat="44.55711" lon="6.07549">
        <ele>717.281006</ele>
        <time>2011-03-18T09:10:41Z</time>
      </trkpt>
      <trkpt lat="44.55669" lon="6.0763">
        <ele>715.358154</ele>
        <time>2011-03-18T09:10:53Z</time>
      </trkpt>
      <trkpt lat="44.5563" lon="6.0764">
        <ele>715.838867</ele>
        <time>2011-03-18T09:11:00Z</time>
      </trkpt>
      <trkpt lat="44.55624" lon="6.07632">
        <ele>715.838867</ele>
        <time>2011-03-18T09:11:02Z</time>
      </trkpt>
      <trkpt lat="44.55561" lon="6.07555">
        <ele>715.838867</ele>
        <time>2011-03-18T09:11:20Z</time>
      </trkpt>
      <trkpt lat="44.55539" lon="6.07528">
        <ele>716.800293</ele>
        <time>2011-03-18T09:11:27Z</time>
      </trkpt>
      <trkpt lat="44.55523" lon="6.07523">
        <ele>719.203613</ele>
        <time>2011-03-18T09:11:34Z</time>
      </trkpt>
      <trkpt lat="44.55504" lon="6.07489">
        <ele>717.281006</ele>
        <time>2011-03-18T09:11:39Z</time>
      </trkpt>
      <trkpt lat="44.55501" lon="6.07487">
        <ele>717.281006</ele>
        <time>2011-03-18T09:11:40Z</time>
      </trkpt>
      <trkpt lat="44.55482" lon="6.07506">
        <ele>716.800293</ele>
        <time>2011-03-18T09:11:47Z</time>
      </trkpt>
      <trkpt lat="44.55484" lon="6.07519">
        <ele>717.281006</ele>
        <time>2011-03-18T09:11:49Z</time>
      </trkpt>
      <trkpt lat="44.55505" lon="6.07593">
        <ele>715.358154</ele>
        <time>2011-03-18T09:12:01Z</time>
      </trkpt>
      <trkpt lat="44.55525" lon="6.07682">
        <ele>713.916016</ele>
        <time>2011-03-18T09:12:14Z</time>
      </trkpt>
      <trkpt lat="44.55529" lon="6.07699">
        <ele>711.512939</ele>
        <time>2011-03-18T09:12:16Z</time>
      </trkpt>
      <trkpt lat="44.55533" lon="6.07715">
        <ele>712.954834</ele>
        <time>2011-03-18T09:12:18Z</time>
      </trkpt>
      <trkpt lat="44.55567" lon="6.07815">
        <ele>713.916016</ele>
        <time>2011-03-18T09:12:35Z</time>
      </trkpt>
      <trkpt lat="44.55578" lon="6.07874">
        <ele>714.396729</ele>
        <time>2011-03-18T09:12:48Z</time>
      </trkpt>
      <trkpt lat="44.55568" lon="6.07887">
        <ele>714.396729</ele>
        <time>2011-03-18T09:12:58Z</time>
      </trkpt>
      <trkpt lat="44.55553" lon="6.07904">
        <ele>713.916016</ele>
        <time>2011-03-18T09:14:21Z</time>
      </trkpt>
      <trkpt lat="44.55505" lon="6.07906">
        <ele>714.396729</ele>
        <time>2011-03-18T09:14:34Z</time>
      </trkpt>
      <trkpt lat="44.55427" lon="6.07887">
        <ele>716.800293</ele>
        <time>2011-03-18T09:14:57Z</time>
      </trkpt>
      <trkpt lat="44.55379" lon="6.07876">
        <ele>720.164795</ele>
        <time>2011-03-18T09:15:15Z</time>
      </trkpt>
      <trkpt lat="44.55332" lon="6.07874">
        <ele>723.048828</ele>
        <time>2011-03-18T09:15:32Z</time>
      </trkpt>
      <trkpt lat="44.55279" lon="6.07884">
        <ele>725.451904</ele>
        <time>2011-03-18T09:15:52Z</time>
      </trkpt>
      <trkpt lat="44.55237" lon="6.07875">
        <ele>728.81665</ele>
        <time>2011-03-18T09:16:08Z</time>
      </trkpt>
      <trkpt lat="44.55192" lon="6.07859">
        <ele>732.662109</ele>
        <time>2011-03-18T09:16:27Z</time>
      </trkpt>
      <trkpt lat="44.55146" lon="6.07864">
        <ele>735.545898</ele>
        <time>2011-03-18T09:16:46Z</time>
      </trkpt>
      <trkpt lat="44.55097" lon="6.07861">
        <ele>738.910645</ele>
        <time>2011-03-18T09:17:05Z</time>
      </trkpt>
      <trkpt lat="44.55056" lon="6.07853">
        <ele>741.794434</ele>
        <time>2011-03-18T09:17:22Z</time>
      </trkpt>
      <trkpt lat="44.55009" lon="6.07839">
        <ele>745.158936</ele>
        <time>2011-03-18T09:17:41Z</time>
      </trkpt>
      <trkpt lat="44.54963" lon="6.07823">
        <ele>748.523682</ele>
        <time>2011-03-18T09:18:00Z</time>
      </trkpt>
      <trkpt lat="44.54922" lon="6.07821">
        <ele>751.407715</ele>
        <time>2011-03-18T09:18:19Z</time>
      </trkpt>
      <trkpt lat="44.54885" lon="6.0786">
        <ele>754.772217</ele>
        <time>2011-03-18T09:18:38Z</time>
      </trkpt>
      <trkpt lat="44.54842" lon="6.07866">
        <ele>757.65625</ele>
        <time>2011-03-18T09:18:54Z</time>
      </trkpt>
      <trkpt lat="44.54801" lon="6.07839">
        <ele>760.540039</ele>
        <time>2011-03-18T09:19:12Z</time>
      </trkpt>
      <trkpt lat="44.54761" lon="6.07808">
        <ele>763.904541</ele>
        <time>2011-03-18T09:19:30Z</time>
      </trkpt>
      <trkpt lat="44.54727" lon="6.07791">
        <ele>766.308105</ele>
        <time>2011-03-18T09:19:45Z</time>
      </trkpt>
      <trkpt lat="44.54678" lon="6.07773">
        <ele>769.192139</ele>
        <time>2011-03-18T09:20:06Z</time>
      </trkpt>
      <trkpt lat="44.54635" lon="6.07754">
        <ele>772.556641</ele>
        <time>2011-03-18T09:20:25Z</time>
      </trkpt>
      <trkpt lat="44.54596" lon="6.07744">
        <ele>775.44043</ele>
        <time>2011-03-18T09:20:42Z</time>
      </trkpt>
      <trkpt lat="44.54558" lon="6.07766">
        <ele>778.324463</ele>
        <time>2011-03-18T09:20:59Z</time>
      </trkpt>
      <trkpt lat="44.54518" lon="6.07795">
        <ele>781.20874</ele>
        <time>2011-03-18T09:21:18Z</time>
      </trkpt>
      <trkpt lat="44.54497" lon="6.07842">
        <ele>784.092529</ele>
        <time>2011-03-18T09:21:36Z</time>
      </trkpt>
      <trkpt lat="44.54506" lon="6.07912">
        <ele>786.976318</ele>
        <time>2011-03-18T09:21:57Z</time>
      </trkpt>
      <trkpt lat="44.54534" lon="6.08008">
        <ele>785.053955</ele>
        <time>2011-03-18T09:22:16Z</time>
      </trkpt>
      <trkpt lat="44.54536" lon="6.08014">
        <ele>784.573242</ele>
        <time>2011-03-18T09:22:17Z</time>
      </trkpt>
      <trkpt lat="44.54542" lon="6.08039">
        <ele>784.573242</ele>
        <time>2011-03-18T09:22:21Z</time>
      </trkpt>
      <trkpt lat="44.5455" lon="6.08122">
        <ele>782.169922</ele>
        <time>2011-03-18T09:22:32Z</time>
      </trkpt>
      <trkpt lat="44.54564" lon="6.082">
        <ele>778.324463</ele>
        <time>2011-03-18T09:22:40Z</time>
      </trkpt>
      <trkpt lat="44.54568" lon="6.0822">
        <ele>777.84375</ele>
        <time>2011-03-18T09:22:42Z</time>
      </trkpt>
      <trkpt lat="44.54582" lon="6.08288">
        <ele>774.479248</ele>
        <time>2011-03-18T09:22:48Z</time>
      </trkpt>
      <trkpt lat="44.54584" lon="6.08298">
        <ele>774.479248</ele>
        <time>2011-03-18T09:22:49Z</time>
      </trkpt>
      <trkpt lat="44.54596" lon="6.08366">
        <ele>770.634033</ele>
        <time>2011-03-18T09:22:55Z</time>
      </trkpt>
      <trkpt lat="44.54598" lon="6.08378">
        <ele>770.634033</ele>
        <time>2011-03-18T09:22:56Z</time>
      </trkpt>
      <trkpt lat="44.54612" lon="6.08445">
        <ele>766.788818</ele>
        <time>2011-03-18T09:23:02Z</time>
      </trkpt>
      <trkpt lat="44.54614" lon="6.08455">
        <ele>766.788818</ele>
        <time>2011-03-18T09:23:03Z</time>
      </trkpt>
      <trkpt lat="44.54619" lon="6.08486">
        <ele>766.308105</ele>
        <time>2011-03-18T09:23:06Z</time>
      </trkpt>
      <trkpt lat="44.54619" lon="6.08527">
        <ele>764.866211</ele>
        <time>2011-03-18T09:23:10Z</time>
      </trkpt>
      <trkpt lat="44.54619" lon="6.08537">
        <ele>763.904541</ele>
        <time>2011-03-18T09:23:11Z</time>
      </trkpt>
      <trkpt lat="44.54593" lon="6.08599">
        <ele>762.462646</ele>
        <time>2011-03-18T09:23:23Z</time>
      </trkpt>
      <trkpt lat="44.54565" lon="6.08643">
        <ele>763.904541</ele>
        <time>2011-03-18T09:23:36Z</time>
      </trkpt>
      <trkpt lat="44.54558" lon="6.08653">
        <ele>765.346924</ele>
        <time>2011-03-18T09:23:40Z</time>
      </trkpt>
      <trkpt lat="44.54537" lon="6.08688">
        <ele>768.230713</ele>
        <time>2011-03-18T09:23:53Z</time>
      </trkpt>
      <trkpt lat="44.54522" lon="6.08726">
        <ele>771.114746</ele>
        <time>2011-03-18T09:24:06Z</time>
      </trkpt>
      <trkpt lat="44.54521" lon="6.0873">
        <ele>771.114746</ele>
        <time>2011-03-18T09:24:07Z</time>
      </trkpt>
      <trkpt lat="44.54515" lon="6.08791">
        <ele>773.518066</ele>
        <time>2011-03-18T09:24:24Z</time>
      </trkpt>
      <trkpt lat="44.54505" lon="6.08857">
        <ele>774.959961</ele>
        <time>2011-03-18T09:24:42Z</time>
      </trkpt>
      <trkpt lat="44.54497" lon="6.08919">
        <ele>777.84375</ele>
        <time>2011-03-18T09:24:58Z</time>
      </trkpt>
      <trkpt lat="44.5451" lon="6.08947">
        <ele>778.805176</ele>
        <time>2011-03-18T09:25:07Z</time>
      </trkpt>
      <trkpt lat="44.54597" lon="6.08947">
        <ele>777.363281</ele>
        <time>2011-03-18T09:25:25Z</time>
      </trkpt>
      <trkpt lat="44.54621" lon="6.08946">
        <ele>776.882568</ele>
        <time>2011-03-18T09:25:30Z</time>
      </trkpt>
      <trkpt lat="44.5464" lon="6.08965">
        <ele>777.363281</ele>
        <time>2011-03-18T09:25:36Z</time>
      </trkpt>
      <trkpt lat="44.54662" lon="6.09075">
        <ele>778.805176</ele>
        <time>2011-03-18T09:25:58Z</time>
      </trkpt>
      <trkpt lat="44.54684" lon="6.09181">
        <ele>781.20874</ele>
        <time>2011-03-18T09:26:20Z</time>
      </trkpt>
      <trkpt lat="44.54671" lon="6.09271">
        <ele>781.689209</ele>
        <time>2011-03-18T09:26:39Z</time>
      </trkpt>
      <trkpt lat="44.54675" lon="6.09357">
        <ele>783.131104</ele>
        <time>2011-03-18T09:26:57Z</time>
      </trkpt>
      <trkpt lat="44.54697" lon="6.09457">
        <ele>784.573242</ele>
        <time>2011-03-18T09:27:18Z</time>
      </trkpt>
      <trkpt lat="44.54705" lon="6.09528">
        <ele>787.937744</ele>
        <time>2011-03-18T09:27:36Z</time>
      </trkpt>
      <trkpt lat="44.54701" lon="6.09605">
        <ele>790.821533</ele>
        <time>2011-03-18T09:27:56Z</time>
      </trkpt>
      <trkpt lat="44.54711" lon="6.09702">
        <ele>791.782959</ele>
        <time>2011-03-18T09:28:17Z</time>
      </trkpt>
      <trkpt lat="44.5474" lon="6.09794">
        <ele>793.705566</ele>
        <time>2011-03-18T09:28:38Z</time>
      </trkpt>
      <trkpt lat="44.54782" lon="6.09898">
        <ele>797.070313</ele>
        <time>2011-03-18T09:29:05Z</time>
      </trkpt>
      <trkpt lat="44.54775" lon="6.09978">
        <ele>798.512207</ele>
        <time>2011-03-18T09:29:24Z</time>
      </trkpt>
      <trkpt lat="44.54778" lon="6.10065">
        <ele>800.435059</ele>
        <time>2011-03-18T09:29:44Z</time>
      </trkpt>
      <trkpt lat="44.54767" lon="6.10079">
        <ele>801.39624</ele>
        <time>2011-03-18T09:29:46Z</time>
      </trkpt>
      <trkpt lat="44.54748" lon="6.10135">
        <ele>800.915527</ele>
        <time>2011-03-18T09:30:00Z</time>
      </trkpt>
      <trkpt lat="44.54744" lon="6.10212">
        <ele>798.99292</ele>
        <time>2011-03-18T09:30:14Z</time>
      </trkpt>
      <trkpt lat="44.54743" lon="6.10261">
        <ele>798.99292</ele>
        <time>2011-03-18T09:30:22Z</time>
      </trkpt>
      <trkpt lat="44.54751" lon="6.10296">
        <ele>801.39624</ele>
        <time>2011-03-18T09:30:29Z</time>
      </trkpt>
      <trkpt lat="44.54784" lon="6.10349">
        <ele>803.799561</ele>
        <time>2011-03-18T09:30:46Z</time>
      </trkpt>
      <trkpt lat="44.548" lon="6.10388">
        <ele>805.722168</ele>
        <time>2011-03-18T09:31:00Z</time>
      </trkpt>
      <trkpt lat="44.54816" lon="6.10454">
        <ele>809.08667</ele>
        <time>2011-03-18T09:31:22Z</time>
      </trkpt>
      <trkpt lat="44.54823" lon="6.10489">
        <ele>811.970703</ele>
        <time>2011-03-18T09:31:35Z</time>
      </trkpt>
      <trkpt lat="44.54833" lon="6.10485">
        <ele>813.412842</ele>
        <time>2011-03-18T09:31:43Z</time>
      </trkpt>
      <trkpt lat="44.54851" lon="6.10451">
        <ele>815.816162</ele>
        <time>2011-03-18T09:31:59Z</time>
      </trkpt>
      <trkpt lat="44.54875" lon="6.10484">
        <ele>818.699951</ele>
        <time>2011-03-18T09:32:16Z</time>
      </trkpt>
      <trkpt lat="44.5491" lon="6.10539">
        <ele>821.103271</ele>
        <time>2011-03-18T09:32:41Z</time>
      </trkpt>
      <trkpt lat="44.54921" lon="6.10545">
        <ele>820.622559</ele>
        <time>2011-03-18T09:32:45Z</time>
      </trkpt>
      <trkpt lat="44.54943" lon="6.10546">
        <ele>819.180664</ele>
        <time>2011-03-18T09:32:50Z</time>
      </trkpt>
      <trkpt lat="44.54966" lon="6.10564">
        <ele>820.141846</ele>
        <time>2011-03-18T09:32:57Z</time>
      </trkpt>
      <trkpt lat="44.54987" lon="6.10616">
        <ele>823.506592</ele>
        <time>2011-03-18T09:33:15Z</time>
      </trkpt>
      <trkpt lat="44.55006" lon="6.10682">
        <ele>820.622559</ele>
        <time>2011-03-18T09:33:26Z</time>
      </trkpt>
      <trkpt lat="44.55048" lon="6.1082">
        <ele>819.180664</ele>
        <time>2011-03-18T09:33:43Z</time>
      </trkpt>
      <trkpt lat="44.5506" lon="6.1087">
        <ele>819.661377</ele>
        <time>2011-03-18T09:33:51Z</time>
      </trkpt>
      <trkpt lat="44.55084" lon="6.1092">
        <ele>820.141846</ele>
        <time>2011-03-18T09:34:00Z</time>
      </trkpt>
      <trkpt lat="44.55094" lon="6.10962">
        <ele>819.661377</ele>
        <time>2011-03-18T09:34:06Z</time>
      </trkpt>
      <trkpt lat="44.55119" lon="6.11012">
        <ele>819.661377</ele>
        <time>2011-03-18T09:34:15Z</time>
      </trkpt>
      <trkpt lat="44.55137" lon="6.11029">
        <ele>820.141846</ele>
        <time>2011-03-18T09:34:20Z</time>
      </trkpt>
      <trkpt lat="44.55157" lon="6.11044">
        <ele>819.661377</ele>
        <time>2011-03-18T09:34:25Z</time>
      </trkpt>
      <trkpt lat="44.55203" lon="6.11106">
        <ele>822.545166</ele>
        <time>2011-03-18T09:34:44Z</time>
      </trkpt>
      <trkpt lat="44.55247" lon="6.11168">
        <ele>824.467773</ele>
        <time>2011-03-18T09:35:05Z</time>
      </trkpt>
      <trkpt lat="44.55289" lon="6.1123">
        <ele>826.390381</ele>
        <time>2011-03-18T09:35:25Z</time>
      </trkpt>
      <trkpt lat="44.55322" lon="6.11306">
        <ele>826.871094</ele>
        <time>2011-03-18T09:35:45Z</time>
      </trkpt>
      <trkpt lat="44.55354" lon="6.11382">
        <ele>827.832275</ele>
        <time>2011-03-18T09:36:04Z</time>
      </trkpt>
      <trkpt lat="44.55404" lon="6.1143">
        <ele>828.793945</ele>
        <time>2011-03-18T09:36:23Z</time>
      </trkpt>
      <trkpt lat="44.55439" lon="6.11419">
        <ele>829.755127</ele>
        <time>2011-03-18T09:36:36Z</time>
      </trkpt>
      <trkpt lat="44.55488" lon="6.11403">
        <ele>831.677734</ele>
        <time>2011-03-18T09:36:55Z</time>
      </trkpt>
      <trkpt lat="44.55509" lon="6.11438">
        <ele>834.561768</ele>
        <time>2011-03-18T09:37:08Z</time>
      </trkpt>
      <trkpt lat="44.55511" lon="6.11441">
        <ele>834.561768</ele>
        <time>2011-03-18T09:37:09Z</time>
      </trkpt>
      <trkpt lat="44.55533" lon="6.11507">
        <ele>835.04248</ele>
        <time>2011-03-18T09:37:27Z</time>
      </trkpt>
      <trkpt lat="44.55504" lon="6.11586">
        <ele>835.04248</ele>
        <time>2011-03-18T09:37:42Z</time>
      </trkpt>
      <trkpt lat="44.55462" lon="6.11674">
        <ele>831.197266</ele>
        <time>2011-03-18T09:37:57Z</time>
      </trkpt>
      <trkpt lat="44.55433" lon="6.11736">
        <ele>831.197266</ele>
        <time>2011-03-18T09:38:07Z</time>
      </trkpt>
      <trkpt lat="44.55423" lon="6.1177">
        <ele>831.197266</ele>
        <time>2011-03-18T09:38:12Z</time>
      </trkpt>
      <trkpt lat="44.55417" lon="6.11868">
        <ele>832.158447</ele>
        <time>2011-03-18T09:38:27Z</time>
      </trkpt>
      <trkpt lat="44.5542" lon="6.11894">
        <ele>832.63916</ele>
        <time>2011-03-18T09:38:32Z</time>
      </trkpt>
      <trkpt lat="44.55458" lon="6.11964">
        <ele>834.081055</ele>
        <time>2011-03-18T09:38:49Z</time>
      </trkpt>
      <trkpt lat="44.55468" lon="6.11978">
        <ele>836.484375</ele>
        <time>2011-03-18T09:38:53Z</time>
      </trkpt>
      <trkpt lat="44.55533" lon="6.12054">
        <ele>835.522949</ele>
        <time>2011-03-18T09:39:12Z</time>
      </trkpt>
      <trkpt lat="44.55602" lon="6.12105">
        <ele>837.92627</ele>
        <time>2011-03-18T09:39:32Z</time>
      </trkpt>
      <trkpt lat="44.55629" lon="6.12108">
        <ele>836.964844</ele>
        <time>2011-03-18T09:39:39Z</time>
      </trkpt>
      <trkpt lat="44.55651" lon="6.12107">
        <ele>835.522949</ele>
        <time>2011-03-18T09:39:43Z</time>
      </trkpt>
      <trkpt lat="44.55662" lon="6.12112">
        <ele>835.04248</ele>
        <time>2011-03-18T09:39:45Z</time>
      </trkpt>
      <trkpt lat="44.5568" lon="6.12147">
        <ele>832.63916</ele>
        <time>2011-03-18T09:39:52Z</time>
      </trkpt>
      <trkpt lat="44.55671" lon="6.12159">
        <ele>831.677734</ele>
        <time>2011-03-18T09:39:55Z</time>
      </trkpt>
      <trkpt lat="44.55597" lon="6.1225">
        <ele>834.081055</ele>
        <time>2011-03-18T09:40:21Z</time>
      </trkpt>
      <trkpt lat="44.55589" lon="6.1232">
        <ele>834.081055</ele>
        <time>2011-03-18T09:40:36Z</time>
      </trkpt>
      <trkpt lat="44.55548" lon="6.12377">
        <ele>835.522949</ele>
        <time>2011-03-18T09:40:52Z</time>
      </trkpt>
      <trkpt lat="44.55501" lon="6.12433">
        <ele>834.561768</ele>
        <time>2011-03-18T09:41:09Z</time>
      </trkpt>
      <trkpt lat="44.55481" lon="6.12473">
        <ele>836.964844</ele>
        <time>2011-03-18T09:41:18Z</time>
      </trkpt>
      <trkpt lat="44.5543" lon="6.12563">
        <ele>838.887695</ele>
        <time>2011-03-18T09:41:39Z</time>
      </trkpt>
      <trkpt lat="44.55363" lon="6.12596">
        <ele>839.848877</ele>
        <time>2011-03-18T09:41:58Z</time>
      </trkpt>
      <trkpt lat="44.55315" lon="6.12553">
        <ele>840.32959</ele>
        <time>2011-03-18T09:42:14Z</time>
      </trkpt>
      <trkpt lat="44.55274" lon="6.12551">
        <ele>842.252197</ele>
        <time>2011-03-18T09:42:29Z</time>
      </trkpt>
      <trkpt lat="44.55213" lon="6.12578">
        <ele>842.252197</ele>
        <time>2011-03-18T09:42:51Z</time>
      </trkpt>
      <trkpt lat="44.55136" lon="6.12611">
        <ele>843.694092</ele>
        <time>2011-03-18T09:43:18Z</time>
      </trkpt>
      <trkpt lat="44.55061" lon="6.12649">
        <ele>846.578369</ele>
        <time>2011-03-18T09:43:45Z</time>
      </trkpt>
      <trkpt lat="44.55005" lon="6.12692">
        <ele>847.058838</ele>
        <time>2011-03-18T09:44:07Z</time>
      </trkpt>
      <trkpt lat="44.54966" lon="6.12751">
        <ele>849.462158</ele>
        <time>2011-03-18T09:44:27Z</time>
      </trkpt>
      <trkpt lat="44.54919" lon="6.12803">
        <ele>851.384766</ele>
        <time>2011-03-18T09:44:48Z</time>
      </trkpt>
      <trkpt lat="44.54855" lon="6.12836">
        <ele>854.268799</ele>
        <time>2011-03-18T09:45:14Z</time>
      </trkpt>
      <trkpt lat="44.5482" lon="6.12869">
        <ele>858.114014</ele>
        <time>2011-03-18T09:45:34Z</time>
      </trkpt>
      <trkpt lat="44.54793" lon="6.12849">
        <ele>861.47876</ele>
        <time>2011-03-18T09:45:49Z</time>
      </trkpt>
      <trkpt lat="44.54792" lon="6.12847">
        <ele>861.47876</ele>
        <time>2011-03-18T09:45:50Z</time>
      </trkpt>
      <trkpt lat="44.54767" lon="6.12819">
        <ele>863.881836</ele>
        <time>2011-03-18T09:46:09Z</time>
      </trkpt>
      <trkpt lat="44.54768" lon="6.12847">
        <ele>865.323975</ele>
        <time>2011-03-18T09:46:20Z</time>
      </trkpt>
      <trkpt lat="44.54777" lon="6.1289">
        <ele>868.688477</ele>
        <time>2011-03-18T09:46:36Z</time>
      </trkpt>
      <trkpt lat="44.54784" lon="6.12956">
        <ele>871.572266</ele>
        <time>2011-03-18T09:47:00Z</time>
      </trkpt>
      <trkpt lat="44.5478" lon="6.13009">
        <ele>874.937012</ele>
        <time>2011-03-18T09:47:18Z</time>
      </trkpt>
      <trkpt lat="44.54759" lon="6.1305">
        <ele>878.301758</ele>
        <time>2011-03-18T09:47:35Z</time>
      </trkpt>
      <trkpt lat="44.54739" lon="6.13085">
        <ele>881.185791</ele>
        <time>2011-03-18T09:47:51Z</time>
      </trkpt>
      <trkpt lat="44.54722" lon="6.1313">
        <ele>885.031006</ele>
        <time>2011-03-18T09:48:10Z</time>
      </trkpt>
      <trkpt lat="44.5472" lon="6.13185">
        <ele>887.434082</ele>
        <time>2011-03-18T09:48:31Z</time>
      </trkpt>
      <trkpt lat="44.54728" lon="6.13212">
        <ele>888.876221</ele>
        <time>2011-03-18T09:48:42Z</time>
      </trkpt>
      <trkpt lat="44.54712" lon="6.13214">
        <ele>890.318115</ele>
        <time>2011-03-18T09:48:48Z</time>
      </trkpt>
      <trkpt lat="44.547" lon="6.13166">
        <ele>892.72168</ele>
        <time>2011-03-18T09:49:05Z</time>
      </trkpt>
      <trkpt lat="44.54687" lon="6.13114">
        <ele>896.566895</ele>
        <time>2011-03-18T09:49:24Z</time>
      </trkpt>
      <trkpt lat="44.54696" lon="6.1306">
        <ele>899.931396</ele>
        <time>2011-03-18T09:49:45Z</time>
      </trkpt>
      <trkpt lat="44.54679" lon="6.1302">
        <ele>902.815186</ele>
        <time>2011-03-18T09:50:02Z</time>
      </trkpt>
      <trkpt lat="44.54671" lon="6.12974">
        <ele>906.179688</ele>
        <time>2011-03-18T09:50:19Z</time>
      </trkpt>
      <trkpt lat="44.54669" lon="6.12932">
        <ele>908.583252</ele>
        <time>2011-03-18T09:50:35Z</time>
      </trkpt>
      <trkpt lat="44.54652" lon="6.12935">
        <ele>910.986572</ele>
        <time>2011-03-18T09:50:47Z</time>
      </trkpt>
      <trkpt lat="44.54648" lon="6.12988">
        <ele>914.351074</ele>
        <time>2011-03-18T09:51:07Z</time>
      </trkpt>
      <trkpt lat="44.54656" lon="6.13032">
        <ele>917.235107</ele>
        <time>2011-03-18T09:51:25Z</time>
      </trkpt>
      <trkpt lat="44.5465" lon="6.13071">
        <ele>920.118896</ele>
        <time>2011-03-18T09:51:39Z</time>
      </trkpt>
      <trkpt lat="44.54621" lon="6.13095">
        <ele>923.483643</ele>
        <time>2011-03-18T09:51:56Z</time>
      </trkpt>
      <trkpt lat="44.54596" lon="6.13127">
        <ele>926.367676</ele>
        <time>2011-03-18T09:52:15Z</time>
      </trkpt>
      <trkpt lat="44.54577" lon="6.13171">
        <ele>929.732178</ele>
        <time>2011-03-18T09:52:34Z</time>
      </trkpt>
      <trkpt lat="44.54567" lon="6.13191">
        <ele>931.174316</ele>
        <time>2011-03-18T09:52:43Z</time>
      </trkpt>
      <trkpt lat="44.54552" lon="6.1321">
        <ele>933.09668</ele>
        <time>2011-03-18T09:52:54Z</time>
      </trkpt>
      <trkpt lat="44.54529" lon="6.13225">
        <ele>936.461426</ele>
        <time>2011-03-18T09:53:09Z</time>
      </trkpt>
      <trkpt lat="44.54503" lon="6.13217">
        <ele>936.461426</ele>
        <time>2011-03-18T09:53:24Z</time>
      </trkpt>
      <trkpt lat="44.54486" lon="6.13238">
        <ele>935.980713</ele>
        <time>2011-03-18T09:53:29Z</time>
      </trkpt>
      <trkpt lat="44.54452" lon="6.13243">
        <ele>934.538818</ele>
        <time>2011-03-18T09:53:37Z</time>
      </trkpt>
      <trkpt lat="44.54393" lon="6.13219">
        <ele>935.019531</ele>
        <time>2011-03-18T09:53:54Z</time>
      </trkpt>
      <trkpt lat="44.54336" lon="6.13215">
        <ele>936.461426</ele>
        <time>2011-03-18T09:54:12Z</time>
      </trkpt>
      <trkpt lat="44.5429" lon="6.13248">
        <ele>937.90332</ele>
        <time>2011-03-18T09:54:31Z</time>
      </trkpt>
      <trkpt lat="44.54257" lon="6.133">
        <ele>938.864746</ele>
        <time>2011-03-18T09:54:49Z</time>
      </trkpt>
      <trkpt lat="44.54223" lon="6.13354">
        <ele>941.268066</ele>
        <time>2011-03-18T09:55:10Z</time>
      </trkpt>
      <trkpt lat="44.54203" lon="6.13423">
        <ele>941.748779</ele>
        <time>2011-03-18T09:55:29Z</time>
      </trkpt>
      <trkpt lat="44.54205" lon="6.13483">
        <ele>942.710205</ele>
        <time>2011-03-18T09:55:44Z</time>
      </trkpt>
      <trkpt lat="44.54205" lon="6.13546">
        <ele>943.190674</ele>
        <time>2011-03-18T09:55:58Z</time>
      </trkpt>
      <trkpt lat="44.54223" lon="6.13575">
        <ele>944.1521</ele>
        <time>2011-03-18T09:56:07Z</time>
      </trkpt>
      <trkpt lat="44.5428" lon="6.13596">
        <ele>946.55542</ele>
        <time>2011-03-18T09:56:29Z</time>
      </trkpt>
      <trkpt lat="44.5433" lon="6.13633">
        <ele>948.477783</ele>
        <time>2011-03-18T09:56:49Z</time>
      </trkpt>
      <trkpt lat="44.54385" lon="6.13677">
        <ele>948.958496</ele>
        <time>2011-03-18T09:57:10Z</time>
      </trkpt>
      <trkpt lat="44.54438" lon="6.13714">
        <ele>948.958496</ele>
        <time>2011-03-18T09:57:29Z</time>
      </trkpt>
      <trkpt lat="44.54463" lon="6.13773">
        <ele>950.400635</ele>
        <time>2011-03-18T09:57:46Z</time>
      </trkpt>
      <trkpt lat="44.54468" lon="6.13851">
        <ele>948.958496</ele>
        <time>2011-03-18T09:58:02Z</time>
      </trkpt>
      <trkpt lat="44.54464" lon="6.13926">
        <ele>947.516602</ele>
        <time>2011-03-18T09:58:14Z</time>
      </trkpt>
      <trkpt lat="44.54437" lon="6.14027">
        <ele>945.593994</ele>
        <time>2011-03-18T09:58:29Z</time>
      </trkpt>
      <trkpt lat="44.54435" lon="6.14113">
        <ele>944.632568</ele>
        <time>2011-03-18T09:58:40Z</time>
      </trkpt>
      <trkpt lat="44.54403" lon="6.14204">
        <ele>943.671387</ele>
        <time>2011-03-18T09:58:53Z</time>
      </trkpt>
      <trkpt lat="44.54394" lon="6.14233">
        <ele>944.1521</ele>
        <time>2011-03-18T09:58:58Z</time>
      </trkpt>
      <trkpt lat="44.54392" lon="6.14263">
        <ele>945.113281</ele>
        <time>2011-03-18T09:59:03Z</time>
      </trkpt>
      <trkpt lat="44.54395" lon="6.14285">
        <ele>945.113281</ele>
        <time>2011-03-18T09:59:07Z</time>
      </trkpt>
      <trkpt lat="44.54434" lon="6.14372">
        <ele>946.074707</ele>
        <time>2011-03-18T09:59:25Z</time>
      </trkpt>
      <trkpt lat="44.54462" lon="6.14435">
        <ele>946.55542</ele>
        <time>2011-03-18T09:59:39Z</time>
      </trkpt>
      <trkpt lat="44.54465" lon="6.14452">
        <ele>946.55542</ele>
        <time>2011-03-18T09:59:42Z</time>
      </trkpt>
      <trkpt lat="44.54476" lon="6.14539">
        <ele>946.074707</ele>
        <time>2011-03-18T09:59:57Z</time>
      </trkpt>
      <trkpt lat="44.54499" lon="6.1461">
        <ele>947.035889</ele>
        <time>2011-03-18T10:00:12Z</time>
      </trkpt>
      <trkpt lat="44.54511" lon="6.14665">
        <ele>948.958496</ele>
        <time>2011-03-18T10:00:27Z</time>
      </trkpt>
      <trkpt lat="44.54537" lon="6.14705">
        <ele>950.400635</ele>
        <time>2011-03-18T10:00:41Z</time>
      </trkpt>
      <trkpt lat="44.54552" lon="6.14739">
        <ele>952.322998</ele>
        <time>2011-03-18T10:00:51Z</time>
      </trkpt>
      <trkpt lat="44.54565" lon="6.14805">
        <ele>954.726318</ele>
        <time>2011-03-18T10:01:08Z</time>
      </trkpt>
      <trkpt lat="44.54566" lon="6.14869">
        <ele>956.168457</ele>
        <time>2011-03-18T10:01:25Z</time>
      </trkpt>
      <trkpt lat="44.54586" lon="6.14917">
        <ele>958.571777</ele>
        <time>2011-03-18T10:01:40Z</time>
      </trkpt>
      <trkpt lat="44.54624" lon="6.14948">
        <ele>960.494385</ele>
        <time>2011-03-18T10:01:55Z</time>
      </trkpt>
      <trkpt lat="44.54647" lon="6.15015">
        <ele>962.416992</ele>
        <time>2011-03-18T10:02:14Z</time>
      </trkpt>
      <trkpt lat="44.5465" lon="6.15092">
        <ele>963.378418</ele>
        <time>2011-03-18T10:02:31Z</time>
      </trkpt>
      <trkpt lat="44.54681" lon="6.15097">
        <ele>965.301025</ele>
        <time>2011-03-18T10:02:42Z</time>
      </trkpt>
      <trkpt lat="44.54703" lon="6.15065">
        <ele>968.184814</ele>
        <time>2011-03-18T10:02:56Z</time>
      </trkpt>
      <trkpt lat="44.54742" lon="6.15104">
        <ele>970.107422</ele>
        <time>2011-03-18T10:03:13Z</time>
      </trkpt>
      <trkpt lat="44.54785" lon="6.15131">
        <ele>972.030273</ele>
        <time>2011-03-18T10:03:31Z</time>
      </trkpt>
      <trkpt lat="44.54821" lon="6.15185">
        <ele>973.952881</ele>
        <time>2011-03-18T10:03:49Z</time>
      </trkpt>
      <trkpt lat="44.54844" lon="6.15241">
        <ele>974.914307</ele>
        <time>2011-03-18T10:04:05Z</time>
      </trkpt>
      <trkpt lat="44.54871" lon="6.15304">
        <ele>977.317627</ele>
        <time>2011-03-18T10:04:24Z</time>
      </trkpt>
      <trkpt lat="44.54898" lon="6.15391">
        <ele>979.720703</ele>
        <time>2011-03-18T10:04:47Z</time>
      </trkpt>
      <trkpt lat="44.54934" lon="6.15433">
        <ele>981.162842</ele>
        <time>2011-03-18T10:05:03Z</time>
      </trkpt>
      <trkpt lat="44.54986" lon="6.15451">
        <ele>982.604736</ele>
        <time>2011-03-18T10:05:20Z</time>
      </trkpt>
      <trkpt lat="44.55044" lon="6.1546">
        <ele>983.565918</ele>
        <time>2011-03-18T10:05:38Z</time>
      </trkpt>
      <trkpt lat="44.5509" lon="6.15433">
        <ele>984.046631</ele>
        <time>2011-03-18T10:05:54Z</time>
      </trkpt>
      <trkpt lat="44.55144" lon="6.15423">
        <ele>984.046631</ele>
        <time>2011-03-18T10:06:11Z</time>
      </trkpt>
      <trkpt lat="44.55198" lon="6.15449">
        <ele>987.411133</ele>
        <time>2011-03-18T10:06:30Z</time>
      </trkpt>
      <trkpt lat="44.55201" lon="6.15451">
        <ele>987.411133</ele>
        <time>2011-03-18T10:06:31Z</time>
      </trkpt>
      <trkpt lat="44.5525" lon="6.15495">
        <ele>988.372803</ele>
        <time>2011-03-18T10:06:50Z</time>
      </trkpt>
      <trkpt lat="44.55297" lon="6.15548">
        <ele>989.814697</ele>
        <time>2011-03-18T10:07:10Z</time>
      </trkpt>
      <trkpt lat="44.55326" lon="6.15599">
        <ele>990.29541</ele>
        <time>2011-03-18T10:07:26Z</time>
      </trkpt>
      <trkpt lat="44.55372" lon="6.15652">
        <ele>992.69873</ele>
        <time>2011-03-18T10:07:46Z</time>
      </trkpt>
      <trkpt lat="44.5542" lon="6.15712">
        <ele>995.58252</ele>
        <time>2011-03-18T10:08:08Z</time>
      </trkpt>
      <trkpt lat="44.55433" lon="6.15734">
        <ele>996.063232</ele>
        <time>2011-03-18T10:08:15Z</time>
      </trkpt>
      <trkpt lat="44.55451" lon="6.15764">
        <ele>994.140625</ele>
        <time>2011-03-18T10:08:25Z</time>
      </trkpt>
      <trkpt lat="44.55453" lon="6.15773">
        <ele>996.063232</ele>
        <time>2011-03-18T10:08:27Z</time>
      </trkpt>
      <trkpt lat="44.55457" lon="6.1579">
        <ele>994.621094</ele>
        <time>2011-03-18T10:08:31Z</time>
      </trkpt>
      <trkpt lat="44.55496" lon="6.1585">
        <ele>996.543945</ele>
        <time>2011-03-18T10:08:50Z</time>
      </trkpt>
      <trkpt lat="44.55527" lon="6.15879">
        <ele>997.505127</ele>
        <time>2011-03-18T10:09:01Z</time>
      </trkpt>
      <trkpt lat="44.55531" lon="6.15886">
        <ele>996.063232</ele>
        <time>2011-03-18T10:09:03Z</time>
      </trkpt>
      <trkpt lat="44.55526" lon="6.15933">
        <ele>995.101807</ele>
        <time>2011-03-18T10:09:15Z</time>
      </trkpt>
      <trkpt lat="44.55525" lon="6.15943">
        <ele>996.543945</ele>
        <time>2011-03-18T10:09:18Z</time>
      </trkpt>
      <trkpt lat="44.55542" lon="6.15978">
        <ele>997.98584</ele>
        <time>2011-03-18T10:09:31Z</time>
      </trkpt>
      <trkpt lat="44.55538" lon="6.15988">
        <ele>999.908447</ele>
        <time>2011-03-18T10:09:37Z</time>
      </trkpt>
      <trkpt lat="44.55533" lon="6.15988">
        <ele>1001.350342</ele>
        <time>2011-03-18T10:09:39Z</time>
      </trkpt>
      <trkpt lat="44.55499" lon="6.1599">
        <ele>1004.715088</ele>
        <time>2011-03-18T10:09:54Z</time>
      </trkpt>
      <trkpt lat="44.55465" lon="6.16015">
        <ele>1007.599121</ele>
        <time>2011-03-18T10:10:11Z</time>
      </trkpt>
      <trkpt lat="44.55438" lon="6.1605">
        <ele>1009.041016</ele>
        <time>2011-03-18T10:10:25Z</time>
      </trkpt>
      <trkpt lat="44.5542" lon="6.16103">
        <ele>1009.521729</ele>
        <time>2011-03-18T10:10:41Z</time>
      </trkpt>
      <trkpt lat="44.55418" lon="6.16114">
        <ele>1009.041016</ele>
        <time>2011-03-18T10:10:43Z</time>
      </trkpt>
      <trkpt lat="44.55417" lon="6.16132">
        <ele>1008.560303</ele>
        <time>2011-03-18T10:10:46Z</time>
      </trkpt>
      <trkpt lat="44.55408" lon="6.16189">
        <ele>1007.599121</ele>
        <time>2011-03-18T10:10:58Z</time>
      </trkpt>
      <trkpt lat="44.55389" lon="6.1613">
        <ele>1005.676514</ele>
        <time>2011-03-18T10:11:05Z</time>
      </trkpt>
      <trkpt lat="44.55379" lon="6.16128">
        <ele>1003.272949</ele>
        <time>2011-03-18T10:11:07Z</time>
      </trkpt>
      <trkpt lat="44.55362" lon="6.16124">
        <ele>1001.831055</ele>
        <time>2011-03-18T10:11:10Z</time>
      </trkpt>
      <trkpt lat="44.55346" lon="6.16121">
        <ele>1001.350342</ele>
        <time>2011-03-18T10:11:13Z</time>
      </trkpt>
      <trkpt lat="44.55325" lon="6.16118">
        <ele>999.908447</ele>
        <time>2011-03-18T10:11:16Z</time>
      </trkpt>
      <trkpt lat="44.55313" lon="6.16118">
        <ele>999.427734</ele>
        <time>2011-03-18T10:11:18Z</time>
      </trkpt>
      <trkpt lat="44.55276" lon="6.16279">
        <ele>998.466309</ele>
        <time>2011-03-18T10:11:24Z</time>
      </trkpt>
      <trkpt lat="44.55265" lon="6.1627">
        <ele>999.908447</ele>
        <time>2011-03-18T10:11:28Z</time>
      </trkpt>
      <trkpt lat="44.55257" lon="6.16264">
        <ele>999.908447</ele>
        <time>2011-03-18T10:11:31Z</time>
      </trkpt>
      <trkpt lat="44.55224" lon="6.16246">
        <ele>1000.869629</ele>
        <time>2011-03-18T10:11:49Z</time>
      </trkpt>
      <trkpt lat="44.55187" lon="6.16263">
        <ele>1002.792236</ele>
        <time>2011-03-18T10:12:08Z</time>
      </trkpt>
      <trkpt lat="44.55168" lon="6.1629">
        <ele>1006.156982</ele>
        <time>2011-03-18T10:12:20Z</time>
      </trkpt>
      <trkpt lat="44.55143" lon="6.1633">
        <ele>1009.041016</ele>
        <time>2011-03-18T10:12:37Z</time>
      </trkpt>
      <trkpt lat="44.55112" lon="6.16386">
        <ele>1011.444336</ele>
        <time>2011-03-18T10:13:01Z</time>
      </trkpt>
      <trkpt lat="44.55083" lon="6.16439">
        <ele>1014.328125</ele>
        <time>2011-03-18T10:13:24Z</time>
      </trkpt>
      <trkpt lat="44.55062" lon="6.16475">
        <ele>1017.212158</ele>
        <time>2011-03-18T10:13:41Z</time>
      </trkpt>
      <trkpt lat="44.55046" lon="6.16516">
        <ele>1020.096191</ele>
        <time>2011-03-18T10:13:58Z</time>
      </trkpt>
      <trkpt lat="44.55025" lon="6.16563">
        <ele>1022.980225</ele>
        <time>2011-03-18T10:14:17Z</time>
      </trkpt>
      <trkpt lat="44.54993" lon="6.16606">
        <ele>1026.344727</ele>
        <time>2011-03-18T10:14:37Z</time>
      </trkpt>
      <trkpt lat="44.54954" lon="6.16627">
        <ele>1029.228516</ele>
        <time>2011-03-18T10:14:56Z</time>
      </trkpt>
      <trkpt lat="44.54926" lon="6.16642">
        <ele>1032.112549</ele>
        <time>2011-03-18T10:15:11Z</time>
      </trkpt>
      <trkpt lat="44.54884" lon="6.16659">
        <ele>1034.035156</ele>
        <time>2011-03-18T10:15:31Z</time>
      </trkpt>
      <trkpt lat="44.54846" lon="6.16675">
        <ele>1035.957764</ele>
        <time>2011-03-18T10:15:49Z</time>
      </trkpt>
      <trkpt lat="44.54788" lon="6.16699">
        <ele>1036.438721</ele>
        <time>2011-03-18T10:16:11Z</time>
      </trkpt>
      <trkpt lat="44.5477" lon="6.16702">
        <ele>1034.996582</ele>
        <time>2011-03-18T10:16:14Z</time>
      </trkpt>
      <trkpt lat="44.5474" lon="6.16708">
        <ele>1032.593262</ele>
        <time>2011-03-18T10:16:18Z</time>
      </trkpt>
      <trkpt lat="44.54714" lon="6.16712">
        <ele>1030.189941</ele>
        <time>2011-03-18T10:16:21Z</time>
      </trkpt>
      <trkpt lat="44.54686" lon="6.16717">
        <ele>1028.748047</ele>
        <time>2011-03-18T10:16:24Z</time>
      </trkpt>
      <trkpt lat="44.54631" lon="6.16731">
        <ele>1027.786621</ele>
        <time>2011-03-18T10:16:30Z</time>
      </trkpt>
      <trkpt lat="44.54537" lon="6.16762">
        <ele>1029.228516</ele>
        <time>2011-03-18T10:16:43Z</time>
      </trkpt>
      <trkpt lat="44.54486" lon="6.16793">
        <ele>1031.151367</ele>
        <time>2011-03-18T10:16:56Z</time>
      </trkpt>
      <trkpt lat="44.54457" lon="6.16842">
        <ele>1029.709229</ele>
        <time>2011-03-18T10:17:07Z</time>
      </trkpt>
      <trkpt lat="44.54452" lon="6.16858">
        <ele>1028.748047</ele>
        <time>2011-03-18T10:17:10Z</time>
      </trkpt>
      <trkpt lat="44.54443" lon="6.16949">
        <ele>1028.267334</ele>
        <time>2011-03-18T10:17:24Z</time>
      </trkpt>
      <trkpt lat="44.54437" lon="6.17057">
        <ele>1024.422119</ele>
        <time>2011-03-18T10:17:38Z</time>
      </trkpt>
      <trkpt lat="44.54437" lon="6.17065">
        <ele>1024.422119</ele>
        <time>2011-03-18T10:17:39Z</time>
      </trkpt>
      <trkpt lat="44.54456" lon="6.17186">
        <ele>1024.902832</ele>
        <time>2011-03-18T10:17:54Z</time>
      </trkpt>
      <trkpt lat="44.54473" lon="6.17282">
        <ele>1022.018799</ele>
        <time>2011-03-18T10:18:07Z</time>
      </trkpt>
      <trkpt lat="44.54472" lon="6.17315">
        <ele>1020.576904</ele>
        <time>2011-03-18T10:18:11Z</time>
      </trkpt>
      <trkpt lat="44.54458" lon="6.17383">
        <ele>1017.212158</ele>
        <time>2011-03-18T10:18:18Z</time>
      </trkpt>
      <trkpt lat="44.54457" lon="6.17394">
        <ele>1017.212158</ele>
        <time>2011-03-18T10:18:19Z</time>
      </trkpt>
      <trkpt lat="44.54455" lon="6.17415">
        <ele>1015.770264</ele>
        <time>2011-03-18T10:18:21Z</time>
      </trkpt>
      <trkpt lat="44.54454" lon="6.17436">
        <ele>1014.328125</ele>
        <time>2011-03-18T10:18:23Z</time>
      </trkpt>
      <trkpt lat="44.54454" lon="6.17458">
        <ele>1010.963623</ele>
        <time>2011-03-18T10:18:25Z</time>
      </trkpt>
      <trkpt lat="44.54454" lon="6.17468">
        <ele>1010.963623</ele>
        <time>2011-03-18T10:18:26Z</time>
      </trkpt>
      <trkpt lat="44.54441" lon="6.17535">
        <ele>1007.118408</ele>
        <time>2011-03-18T10:18:33Z</time>
      </trkpt>
      <trkpt lat="44.54435" lon="6.17555">
        <ele>1004.715088</ele>
        <time>2011-03-18T10:18:35Z</time>
      </trkpt>
      <trkpt lat="44.54425" lon="6.17593">
        <ele>1003.753662</ele>
        <time>2011-03-18T10:18:39Z</time>
      </trkpt>
      <trkpt lat="44.54423" lon="6.17603">
        <ele>1003.272949</ele>
        <time>2011-03-18T10:18:40Z</time>
      </trkpt>
      <trkpt lat="44.5442" lon="6.17621">
        <ele>1001.350342</ele>
        <time>2011-03-18T10:18:42Z</time>
      </trkpt>
      <trkpt lat="44.54415" lon="6.17674">
        <ele>998.466309</ele>
        <time>2011-03-18T10:18:48Z</time>
      </trkpt>
      <trkpt lat="44.54405" lon="6.17702">
        <ele>997.024414</ele>
        <time>2011-03-18T10:18:53Z</time>
      </trkpt>
      <trkpt lat="44.5439" lon="6.17678">
        <ele>995.101807</ele>
        <time>2011-03-18T10:18:58Z</time>
      </trkpt>
      <trkpt lat="44.54389" lon="6.17671">
        <ele>994.621094</ele>
        <time>2011-03-18T10:18:59Z</time>
      </trkpt>
      <trkpt lat="44.54388" lon="6.17615">
        <ele>994.621094</ele>
        <time>2011-03-18T10:19:07Z</time>
      </trkpt>
      <trkpt lat="44.54387" lon="6.17607">
        <ele>994.621094</ele>
        <time>2011-03-18T10:19:08Z</time>
      </trkpt>
      <trkpt lat="44.54381" lon="6.17577">
        <ele>994.140625</ele>
        <time>2011-03-18T10:19:12Z</time>
      </trkpt>
      <trkpt lat="44.54364" lon="6.17536">
        <ele>992.69873</ele>
        <time>2011-03-18T10:19:17Z</time>
      </trkpt>
      <trkpt lat="44.54354" lon="6.17523">
        <ele>990.775879</ele>
        <time>2011-03-18T10:19:19Z</time>
      </trkpt>
      <trkpt lat="44.54342" lon="6.17513">
        <ele>988.853516</ele>
        <time>2011-03-18T10:19:21Z</time>
      </trkpt>
      <trkpt lat="44.54335" lon="6.17508">
        <ele>987.891846</ele>
        <time>2011-03-18T10:19:22Z</time>
      </trkpt>
      <trkpt lat="44.54311" lon="6.17496">
        <ele>983.565918</ele>
        <time>2011-03-18T10:19:25Z</time>
      </trkpt>
      <trkpt lat="44.54302" lon="6.17493">
        <ele>983.565918</ele>
        <time>2011-03-18T10:19:26Z</time>
      </trkpt>
      <trkpt lat="44.54227" lon="6.17483">
        <ele>979.23999</ele>
        <time>2011-03-18T10:19:36Z</time>
      </trkpt>
      <trkpt lat="44.54221" lon="6.1748">
        <ele>979.23999</ele>
        <time>2011-03-18T10:19:37Z</time>
      </trkpt>
      <trkpt lat="44.54216" lon="6.17478">
        <ele>978.759521</ele>
        <time>2011-03-18T10:19:38Z</time>
      </trkpt>
      <trkpt lat="44.54205" lon="6.17477">
        <ele>977.798096</ele>
        <time>2011-03-18T10:19:40Z</time>
      </trkpt>
      <trkpt lat="44.54194" lon="6.17503">
        <ele>976.356201</ele>
        <time>2011-03-18T10:19:46Z</time>
      </trkpt>
      <trkpt lat="44.54204" lon="6.17511">
        <ele>973.952881</ele>
        <time>2011-03-18T10:19:49Z</time>
      </trkpt>
      <trkpt lat="44.54216" lon="6.17515">
        <ele>972.510986</ele>
        <time>2011-03-18T10:19:51Z</time>
      </trkpt>
      <trkpt lat="44.54233" lon="6.17552">
        <ele>971.068848</ele>
        <time>2011-03-18T10:19:56Z</time>
      </trkpt>
      <trkpt lat="44.5423" lon="6.17594">
        <ele>967.704102</ele>
        <time>2011-03-18T10:20:00Z</time>
      </trkpt>
      <trkpt lat="44.54213" lon="6.17647">
        <ele>965.301025</ele>
        <time>2011-03-18T10:20:05Z</time>
      </trkpt>
      <trkpt lat="44.54205" lon="6.17669">
        <ele>963.858887</ele>
        <time>2011-03-18T10:20:07Z</time>
      </trkpt>
      <trkpt lat="44.54195" lon="6.17689">
        <ele>962.416992</ele>
        <time>2011-03-18T10:20:09Z</time>
      </trkpt>
      <trkpt lat="44.54183" lon="6.17718">
        <ele>961.936523</ele>
        <time>2011-03-18T10:20:12Z</time>
      </trkpt>
      <trkpt lat="44.54171" lon="6.17795">
        <ele>959.533203</ele>
        <time>2011-03-18T10:20:20Z</time>
      </trkpt>
      <trkpt lat="44.54174" lon="6.17825">
        <ele>958.091309</ele>
        <time>2011-03-18T10:20:23Z</time>
      </trkpt>
      <trkpt lat="44.54188" lon="6.17864">
        <ele>957.129883</ele>
        <time>2011-03-18T10:20:28Z</time>
      </trkpt>
      <trkpt lat="44.54195" lon="6.17877">
        <ele>957.129883</ele>
        <time>2011-03-18T10:20:30Z</time>
      </trkpt>
      <trkpt lat="44.54219" lon="6.17898">
        <ele>955.207031</ele>
        <time>2011-03-18T10:20:35Z</time>
      </trkpt>
      <trkpt lat="44.54225" lon="6.17899">
        <ele>955.207031</ele>
        <time>2011-03-18T10:20:36Z</time>
      </trkpt>
      <trkpt lat="44.54289" lon="6.17929">
        <ele>951.361816</ele>
        <time>2011-03-18T10:20:46Z</time>
      </trkpt>
      <trkpt lat="44.54352" lon="6.17959">
        <ele>947.516602</ele>
        <time>2011-03-18T10:20:55Z</time>
      </trkpt>
      <trkpt lat="44.54376" lon="6.17993">
        <ele>946.074707</ele>
        <time>2011-03-18T10:21:00Z</time>
      </trkpt>
      <trkpt lat="44.54383" lon="6.18012">
        <ele>944.1521</ele>
        <time>2011-03-18T10:21:02Z</time>
      </trkpt>
      <trkpt lat="44.54419" lon="6.18062">
        <ele>941.748779</ele>
        <time>2011-03-18T10:21:08Z</time>
      </trkpt>
      <trkpt lat="44.54455" lon="6.18104">
        <ele>940.787354</ele>
        <time>2011-03-18T10:21:14Z</time>
      </trkpt>
      <trkpt lat="44.54474" lon="6.18115">
        <ele>939.825928</ele>
        <time>2011-03-18T10:21:17Z</time>
      </trkpt>
      <trkpt lat="44.5449" lon="6.18117">
        <ele>938.864746</ele>
        <time>2011-03-18T10:21:19Z</time>
      </trkpt>
      <trkpt lat="44.5452" lon="6.18133">
        <ele>937.422607</ele>
        <time>2011-03-18T10:21:24Z</time>
      </trkpt>
      <trkpt lat="44.54544" lon="6.18159">
        <ele>935.019531</ele>
        <time>2011-03-18T10:21:28Z</time>
      </trkpt>
      <trkpt lat="44.54558" lon="6.18203">
        <ele>932.616211</ele>
        <time>2011-03-18T10:21:33Z</time>
      </trkpt>
      <trkpt lat="44.54578" lon="6.18234">
        <ele>929.732178</ele>
        <time>2011-03-18T10:21:37Z</time>
      </trkpt>
      <trkpt lat="44.54598" lon="6.18256">
        <ele>928.770996</ele>
        <time>2011-03-18T10:21:40Z</time>
      </trkpt>
      <trkpt lat="44.5462" lon="6.18291">
        <ele>926.848389</ele>
        <time>2011-03-18T10:21:44Z</time>
      </trkpt>
      <trkpt lat="44.54638" lon="6.18342">
        <ele>925.40625</ele>
        <time>2011-03-18T10:21:49Z</time>
      </trkpt>
      <trkpt lat="44.5465" lon="6.18376">
        <ele>923.00293</ele>
        <time>2011-03-18T10:21:52Z</time>
      </trkpt>
      <trkpt lat="44.54661" lon="6.18395">
        <ele>921.080322</ele>
        <time>2011-03-18T10:21:54Z</time>
      </trkpt>
      <trkpt lat="44.54672" lon="6.18421">
        <ele>920.118896</ele>
        <time>2011-03-18T10:21:57Z</time>
      </trkpt>
      <trkpt lat="44.54676" lon="6.1844">
        <ele>919.638428</ele>
        <time>2011-03-18T10:21:59Z</time>
      </trkpt>
      <trkpt lat="44.5468" lon="6.18456">
        <ele>919.157715</ele>
        <time>2011-03-18T10:22:01Z</time>
      </trkpt>
      <trkpt lat="44.54701" lon="6.18473">
        <ele>916.754395</ele>
        <time>2011-03-18T10:22:05Z</time>
      </trkpt>
      <trkpt lat="44.54721" lon="6.18478">
        <ele>915.793213</ele>
        <time>2011-03-18T10:22:08Z</time>
      </trkpt>
      <trkpt lat="44.54735" lon="6.18506">
        <ele>914.351074</ele>
        <time>2011-03-18T10:22:12Z</time>
      </trkpt>
      <trkpt lat="44.54734" lon="6.18522">
        <ele>913.870361</ele>
        <time>2011-03-18T10:22:14Z</time>
      </trkpt>
      <trkpt lat="44.54731" lon="6.18539">
        <ele>912.428467</ele>
        <time>2011-03-18T10:22:16Z</time>
      </trkpt>
      <trkpt lat="44.54745" lon="6.1857">
        <ele>910.505859</ele>
        <time>2011-03-18T10:22:22Z</time>
      </trkpt>
      <trkpt lat="44.54755" lon="6.18578">
        <ele>910.025146</ele>
        <time>2011-03-18T10:22:24Z</time>
      </trkpt>
      <trkpt lat="44.54772" lon="6.18609">
        <ele>906.179688</ele>
        <time>2011-03-18T10:22:28Z</time>
      </trkpt>
      <trkpt lat="44.54774" lon="6.1862">
        <ele>906.179688</ele>
        <time>2011-03-18T10:22:29Z</time>
      </trkpt>
      <trkpt lat="44.54779" lon="6.18628">
        <ele>905.699219</ele>
        <time>2011-03-18T10:22:30Z</time>
      </trkpt>
      <trkpt lat="44.54798" lon="6.18657">
        <ele>904.257324</ele>
        <time>2011-03-18T10:22:34Z</time>
      </trkpt>
      <trkpt lat="44.54813" lon="6.18668">
        <ele>903.295898</ele>
        <time>2011-03-18T10:22:36Z</time>
      </trkpt>
      <trkpt lat="44.5482" lon="6.18674">
        <ele>902.815186</ele>
        <time>2011-03-18T10:22:37Z</time>
      </trkpt>
      <trkpt lat="44.54838" lon="6.18697">
        <ele>901.373291</ele>
        <time>2011-03-18T10:22:40Z</time>
      </trkpt>
      <trkpt lat="44.54843" lon="6.18707">
        <ele>899.450684</ele>
        <time>2011-03-18T10:22:41Z</time>
      </trkpt>
      <trkpt lat="44.54853" lon="6.18727">
        <ele>898.008789</ele>
        <time>2011-03-18T10:22:43Z</time>
      </trkpt>
      <trkpt lat="44.54872" lon="6.18762">
        <ele>895.124756</ele>
        <time>2011-03-18T10:22:47Z</time>
      </trkpt>
      <trkpt lat="44.54887" lon="6.1879">
        <ele>893.202148</ele>
        <time>2011-03-18T10:22:50Z</time>
      </trkpt>
      <trkpt lat="44.54898" lon="6.18805">
        <ele>892.72168</ele>
        <time>2011-03-18T10:22:52Z</time>
      </trkpt>
      <trkpt lat="44.54948" lon="6.18838">
        <ele>889.837402</ele>
        <time>2011-03-18T10:22:59Z</time>
      </trkpt>
      <trkpt lat="44.54981" lon="6.18837">
        <ele>889.837402</ele>
        <time>2011-03-18T10:23:04Z</time>
      </trkpt>
      <trkpt lat="44.5499" lon="6.18831">
        <ele>889.356689</ele>
        <time>2011-03-18T10:23:06Z</time>
      </trkpt>
      <trkpt lat="44.55006" lon="6.18858">
        <ele>887.434082</ele>
        <time>2011-03-18T10:23:13Z</time>
      </trkpt>
      <trkpt lat="44.55003" lon="6.18885">
        <ele>886.4729</ele>
        <time>2011-03-18T10:23:16Z</time>
      </trkpt>
      <trkpt lat="44.55018" lon="6.18948">
        <ele>883.108154</ele>
        <time>2011-03-18T10:23:23Z</time>
      </trkpt>
      <trkpt lat="44.55049" lon="6.18984">
        <ele>881.185791</ele>
        <time>2011-03-18T10:23:29Z</time>
      </trkpt>
      <trkpt lat="44.55082" lon="6.18986">
        <ele>880.705078</ele>
        <time>2011-03-18T10:23:35Z</time>
      </trkpt>
      <trkpt lat="44.55092" lon="6.1898">
        <ele>880.705078</ele>
        <time>2011-03-18T10:23:37Z</time>
      </trkpt>
      <trkpt lat="44.55111" lon="6.1901">
        <ele>878.782471</ele>
        <time>2011-03-18T10:23:44Z</time>
      </trkpt>
      <trkpt lat="44.55108" lon="6.19033">
        <ele>877.821045</ele>
        <time>2011-03-18T10:23:47Z</time>
      </trkpt>
      <trkpt lat="44.55108" lon="6.19057">
        <ele>874.456299</ele>
        <time>2011-03-18T10:23:50Z</time>
      </trkpt>
      <trkpt lat="44.55124" lon="6.19102">
        <ele>873.014404</ele>
        <time>2011-03-18T10:23:55Z</time>
      </trkpt>
      <trkpt lat="44.55137" lon="6.19116">
        <ele>871.572266</ele>
        <time>2011-03-18T10:23:57Z</time>
      </trkpt>
      <trkpt lat="44.55178" lon="6.19162">
        <ele>869.169189</ele>
        <time>2011-03-18T10:24:04Z</time>
      </trkpt>
      <trkpt lat="44.55205" lon="6.19155">
        <ele>866.285156</ele>
        <time>2011-03-18T10:24:09Z</time>
      </trkpt>
      <trkpt lat="44.55212" lon="6.19143">
        <ele>866.765869</ele>
        <time>2011-03-18T10:24:11Z</time>
      </trkpt>
      <trkpt lat="44.55235" lon="6.19152">
        <ele>863.401367</ele>
        <time>2011-03-18T10:24:17Z</time>
      </trkpt>
      <trkpt lat="44.55235" lon="6.19158">
        <ele>863.401367</ele>
        <time>2011-03-18T10:24:18Z</time>
      </trkpt>
      <trkpt lat="44.55232" lon="6.19165">
        <ele>862.439941</ele>
        <time>2011-03-18T10:24:19Z</time>
      </trkpt>
      <trkpt lat="44.55229" lon="6.1918">
        <ele>861.959473</ele>
        <time>2011-03-18T10:24:21Z</time>
      </trkpt>
      <trkpt lat="44.55247" lon="6.19231">
        <ele>860.036621</ele>
        <time>2011-03-18T10:24:27Z</time>
      </trkpt>
      <trkpt lat="44.55279" lon="6.19286">
        <ele>857.152588</ele>
        <time>2011-03-18T10:24:34Z</time>
      </trkpt>
      <trkpt lat="44.55296" lon="6.19319">
        <ele>856.191162</ele>
        <time>2011-03-18T10:24:38Z</time>
      </trkpt>
      <trkpt lat="44.55351" lon="6.19384">
        <ele>852.345947</ele>
        <time>2011-03-18T10:24:47Z</time>
      </trkpt>
      <trkpt lat="44.55358" lon="6.19389">
        <ele>852.345947</ele>
        <time>2011-03-18T10:24:48Z</time>
      </trkpt>
      <trkpt lat="44.55427" lon="6.19437">
        <ele>849.462158</ele>
        <time>2011-03-18T10:24:57Z</time>
      </trkpt>
      <trkpt lat="44.5546" lon="6.19459">
        <ele>847.058838</ele>
        <time>2011-03-18T10:25:02Z</time>
      </trkpt>
      <trkpt lat="44.55498" lon="6.1945">
        <ele>846.097656</ele>
        <time>2011-03-18T10:25:09Z</time>
      </trkpt>
      <trkpt lat="44.55531" lon="6.19446">
        <ele>848.020264</ele>
        <time>2011-03-18T10:25:16Z</time>
      </trkpt>
      <trkpt lat="44.55538" lon="6.1945">
        <ele>848.981445</ele>
        <time>2011-03-18T10:25:18Z</time>
      </trkpt>
      <trkpt lat="44.55551" lon="6.19457">
        <ele>848.500732</ele>
        <time>2011-03-18T10:25:21Z</time>
      </trkpt>
      <trkpt lat="44.55565" lon="6.1945">
        <ele>846.578369</ele>
        <time>2011-03-18T10:25:25Z</time>
      </trkpt>
      <trkpt lat="44.55571" lon="6.19437">
        <ele>847.539551</ele>
        <time>2011-03-18T10:25:28Z</time>
      </trkpt>
      <trkpt lat="44.55574" lon="6.19428">
        <ele>847.539551</ele>
        <time>2011-03-18T10:25:30Z</time>
      </trkpt>
      <trkpt lat="44.55595" lon="6.19431">
        <ele>848.981445</ele>
        <time>2011-03-18T10:25:36Z</time>
      </trkpt>
      <trkpt lat="44.55629" lon="6.19484">
        <ele>850.423584</ele>
        <time>2011-03-18T10:25:53Z</time>
      </trkpt>
      <trkpt lat="44.55649" lon="6.19497">
        <ele>853.307373</ele>
        <time>2011-03-18T10:26:02Z</time>
      </trkpt>
      <trkpt lat="44.55695" lon="6.19515">
        <ele>853.307373</ele>
        <time>2011-03-18T10:26:19Z</time>
      </trkpt>
      <trkpt lat="44.55757" lon="6.19522">
        <ele>849.942871</ele>
        <time>2011-03-18T10:26:33Z</time>
      </trkpt>
      <trkpt lat="44.55792" lon="6.19519">
        <ele>845.616943</ele>
        <time>2011-03-18T10:26:40Z</time>
      </trkpt>
      <trkpt lat="44.55798" lon="6.19517">
        <ele>845.616943</ele>
        <time>2011-03-18T10:26:41Z</time>
      </trkpt>
      <trkpt lat="44.55835" lon="6.19508">
        <ele>845.616943</ele>
        <time>2011-03-18T10:26:47Z</time>
      </trkpt>
      <trkpt lat="44.55854" lon="6.19512">
        <ele>844.175049</ele>
        <time>2011-03-18T10:26:50Z</time>
      </trkpt>
      <trkpt lat="44.55858" lon="6.19518">
        <ele>844.175049</ele>
        <time>2011-03-18T10:26:51Z</time>
      </trkpt>
      <trkpt lat="44.55878" lon="6.1954">
        <ele>844.655518</ele>
        <time>2011-03-18T10:26:56Z</time>
      </trkpt>
      <trkpt lat="44.55927" lon="6.19573">
        <ele>848.500732</ele>
        <time>2011-03-18T10:27:12Z</time>
      </trkpt>
      <trkpt lat="44.55929" lon="6.19574">
        <ele>848.500732</ele>
        <time>2011-03-18T10:27:13Z</time>
      </trkpt>
      <trkpt lat="44.55952" lon="6.19591">
        <ele>850.423584</ele>
        <time>2011-03-18T10:27:23Z</time>
      </trkpt>
      <trkpt lat="44.56004" lon="6.19631">
        <ele>851.384766</ele>
        <time>2011-03-18T10:27:44Z</time>
      </trkpt>
      <trkpt lat="44.56062" lon="6.19671">
        <ele>853.307373</ele>
        <time>2011-03-18T10:28:05Z</time>
      </trkpt>
      <trkpt lat="44.56137" lon="6.19726">
        <ele>853.788086</ele>
        <time>2011-03-18T10:28:29Z</time>
      </trkpt>
      <trkpt lat="44.56143" lon="6.19733">
        <ele>853.788086</ele>
        <time>2011-03-18T10:28:31Z</time>
      </trkpt>
      <trkpt lat="44.56161" lon="6.19751">
        <ele>852.345947</ele>
        <time>2011-03-18T10:28:36Z</time>
      </trkpt>
      <trkpt lat="44.56172" lon="6.19764">
        <ele>850.904053</ele>
        <time>2011-03-18T10:28:39Z</time>
      </trkpt>
      <trkpt lat="44.56196" lon="6.19783">
        <ele>849.942871</ele>
        <time>2011-03-18T10:28:44Z</time>
      </trkpt>
      <trkpt lat="44.56229" lon="6.19807">
        <ele>850.904053</ele>
        <time>2011-03-18T10:28:55Z</time>
      </trkpt>
      <trkpt lat="44.56236" lon="6.19837">
        <ele>848.981445</ele>
        <time>2011-03-18T10:29:02Z</time>
      </trkpt>
      <trkpt lat="44.56225" lon="6.19855">
        <ele>848.500732</ele>
        <time>2011-03-18T10:29:07Z</time>
      </trkpt>
      <trkpt lat="44.56188" lon="6.19885">
        <ele>844.175049</ele>
        <time>2011-03-18T10:29:14Z</time>
      </trkpt>
      <trkpt lat="44.56181" lon="6.19891">
        <ele>844.175049</ele>
        <time>2011-03-18T10:29:15Z</time>
      </trkpt>
      <trkpt lat="44.56151" lon="6.19914">
        <ele>842.252197</ele>
        <time>2011-03-18T10:29:19Z</time>
      </trkpt>
      <trkpt lat="44.56134" lon="6.19926">
        <ele>838.887695</ele>
        <time>2011-03-18T10:29:21Z</time>
      </trkpt>
      <trkpt lat="44.56125" lon="6.19932">
        <ele>838.887695</ele>
        <time>2011-03-18T10:29:22Z</time>
      </trkpt>
      <trkpt lat="44.56106" lon="6.19942">
        <ele>836.484375</ele>
        <time>2011-03-18T10:29:24Z</time>
      </trkpt>
      <trkpt lat="44.56057" lon="6.19966">
        <ele>833.600342</ele>
        <time>2011-03-18T10:29:29Z</time>
      </trkpt>
      <trkpt lat="44.56039" lon="6.19975">
        <ele>831.197266</ele>
        <time>2011-03-18T10:29:31Z</time>
      </trkpt>
      <trkpt lat="44.56024" lon="6.19983">
        <ele>829.274414</ele>
        <time>2011-03-18T10:29:33Z</time>
      </trkpt>
      <trkpt lat="44.55997" lon="6.19989">
        <ele>826.390381</ele>
        <time>2011-03-18T10:29:36Z</time>
      </trkpt>
      <trkpt lat="44.55949" lon="6.1999">
        <ele>821.58374</ele>
        <time>2011-03-18T10:29:41Z</time>
      </trkpt>
      <trkpt lat="44.5594" lon="6.19988">
        <ele>821.58374</ele>
        <time>2011-03-18T10:29:42Z</time>
      </trkpt>
      <trkpt lat="44.55853" lon="6.19986">
        <ele>818.219238</ele>
        <time>2011-03-18T10:29:51Z</time>
      </trkpt>
      <trkpt lat="44.55844" lon="6.19988">
        <ele>818.219238</ele>
        <time>2011-03-18T10:29:52Z</time>
      </trkpt>
      <trkpt lat="44.55748" lon="6.20019">
        <ele>819.180664</ele>
        <time>2011-03-18T10:30:04Z</time>
      </trkpt>
      <trkpt lat="44.55728" lon="6.2002">
        <ele>819.180664</ele>
        <time>2011-03-18T10:30:07Z</time>
      </trkpt>
      <trkpt lat="44.55666" lon="6.19995">
        <ele>816.296631</ele>
        <time>2011-03-18T10:30:17Z</time>
      </trkpt>
      <trkpt lat="44.55659" lon="6.19992">
        <ele>815.816162</ele>
        <time>2011-03-18T10:30:18Z</time>
      </trkpt>
      <trkpt lat="44.55573" lon="6.19996">
        <ele>814.374023</ele>
        <time>2011-03-18T10:30:30Z</time>
      </trkpt>
      <trkpt lat="44.55555" lon="6.20002">
        <ele>811.970703</ele>
        <time>2011-03-18T10:30:33Z</time>
      </trkpt>
      <trkpt lat="44.5555" lon="6.20004">
        <ele>811.970703</ele>
        <time>2011-03-18T10:30:34Z</time>
      </trkpt>
      <trkpt lat="44.55527" lon="6.20019">
        <ele>810.047852</ele>
        <time>2011-03-18T10:30:38Z</time>
      </trkpt>
      <trkpt lat="44.55516" lon="6.20032">
        <ele>807.644775</ele>
        <time>2011-03-18T10:30:40Z</time>
      </trkpt>
      <trkpt lat="44.55486" lon="6.20064">
        <ele>806.202637</ele>
        <time>2011-03-18T10:30:45Z</time>
      </trkpt>
      <trkpt lat="44.55472" lon="6.20075">
        <ele>804.280273</ele>
        <time>2011-03-18T10:30:47Z</time>
      </trkpt>
      <trkpt lat="44.55452" lon="6.20086">
        <ele>802.357422</ele>
        <time>2011-03-18T10:30:50Z</time>
      </trkpt>
      <trkpt lat="44.55422" lon="6.20088">
        <ele>799.473633</ele>
        <time>2011-03-18T10:30:54Z</time>
      </trkpt>
      <trkpt lat="44.55395" lon="6.20083">
        <ele>797.551025</ele>
        <time>2011-03-18T10:30:57Z</time>
      </trkpt>
      <trkpt lat="44.55375" lon="6.20083">
        <ele>795.628174</ele>
        <time>2011-03-18T10:30:59Z</time>
      </trkpt>
      <trkpt lat="44.55331" lon="6.20091">
        <ele>792.744385</ele>
        <time>2011-03-18T10:31:03Z</time>
      </trkpt>
      <trkpt lat="44.5532" lon="6.20093">
        <ele>792.744385</ele>
        <time>2011-03-18T10:31:04Z</time>
      </trkpt>
      <trkpt lat="44.55279" lon="6.20105">
        <ele>791.302246</ele>
        <time>2011-03-18T10:31:08Z</time>
      </trkpt>
      <trkpt lat="44.55259" lon="6.2011">
        <ele>788.89917</ele>
        <time>2011-03-18T10:31:10Z</time>
      </trkpt>
      <trkpt lat="44.55229" lon="6.20121">
        <ele>786.49585</ele>
        <time>2011-03-18T10:31:13Z</time>
      </trkpt>
      <trkpt lat="44.55156" lon="6.20142">
        <ele>783.131104</ele>
        <time>2011-03-18T10:31:21Z</time>
      </trkpt>
      <trkpt lat="44.55106" lon="6.20157">
        <ele>782.650635</ele>
        <time>2011-03-18T10:31:29Z</time>
      </trkpt>
      <trkpt lat="44.55059" lon="6.20174">
        <ele>781.689209</ele>
        <time>2011-03-18T10:31:42Z</time>
      </trkpt>
      <trkpt lat="44.55025" lon="6.20192">
        <ele>780.247314</ele>
        <time>2011-03-18T10:31:57Z</time>
      </trkpt>
      <trkpt lat="44.55018" lon="6.202">
        <ele>780.728027</ele>
        <time>2011-03-18T10:32:50Z</time>
      </trkpt>
      <trkpt lat="44.55025" lon="6.20211">
        <ele>780.728027</ele>
        <time>2011-03-18T10:32:55Z</time>
      </trkpt>
      <trkpt lat="44.55057" lon="6.20265">
        <ele>781.20874</ele>
        <time>2011-03-18T10:33:09Z</time>
      </trkpt>
      <trkpt lat="44.55102" lon="6.20362">
        <ele>781.689209</ele>
        <time>2011-03-18T10:33:31Z</time>
      </trkpt>
      <trkpt lat="44.55143" lon="6.20449">
        <ele>782.650635</ele>
        <time>2011-03-18T10:33:51Z</time>
      </trkpt>
      <trkpt lat="44.55147" lon="6.20458">
        <ele>784.092529</ele>
        <time>2011-03-18T10:33:53Z</time>
      </trkpt>
      <trkpt lat="44.55178" lon="6.20524">
        <ele>786.976318</ele>
        <time>2011-03-18T10:34:09Z</time>
      </trkpt>
      <trkpt lat="44.55217" lon="6.2061">
        <ele>786.976318</ele>
        <time>2011-03-18T10:34:30Z</time>
      </trkpt>
      <trkpt lat="44.55225" lon="6.20631">
        <ele>789.379639</ele>
        <time>2011-03-18T10:34:35Z</time>
      </trkpt>
      <trkpt lat="44.55228" lon="6.20639">
        <ele>788.418457</ele>
        <time>2011-03-18T10:34:37Z</time>
      </trkpt>
      <trkpt lat="44.55237" lon="6.20663">
        <ele>789.379639</ele>
        <time>2011-03-18T10:34:43Z</time>
      </trkpt>
      <trkpt lat="44.55243" lon="6.20686">
        <ele>789.860352</ele>
        <time>2011-03-18T10:34:48Z</time>
      </trkpt>
      <trkpt lat="44.55231" lon="6.20694">
        <ele>790.341064</ele>
        <time>2011-03-18T10:34:52Z</time>
      </trkpt>
      <trkpt lat="44.55222" lon="6.20698">
        <ele>788.89917</ele>
        <time>2011-03-18T10:34:54Z</time>
      </trkpt>
      <trkpt lat="44.55197" lon="6.20708">
        <ele>787.457031</ele>
        <time>2011-03-18T10:34:59Z</time>
      </trkpt>
      <trkpt lat="44.55184" lon="6.20715">
        <ele>787.457031</ele>
        <time>2011-03-18T10:35:02Z</time>
      </trkpt>
      <trkpt lat="44.55163" lon="6.20717">
        <ele>786.49585</ele>
        <time>2011-03-18T10:35:06Z</time>
      </trkpt>
      <trkpt lat="44.55103" lon="6.20733">
        <ele>785.053955</ele>
        <time>2011-03-18T10:35:17Z</time>
      </trkpt>
      <trkpt lat="44.55091" lon="6.20739">
        <ele>783.611816</ele>
        <time>2011-03-18T10:35:19Z</time>
      </trkpt>
      <trkpt lat="44.55076" lon="6.20765">
        <ele>783.131104</ele>
        <time>2011-03-18T10:35:23Z</time>
      </trkpt>
      <trkpt lat="44.55054" lon="6.20784">
        <ele>783.131104</ele>
        <time>2011-03-18T10:35:27Z</time>
      </trkpt>
      <trkpt lat="44.55029" lon="6.20791">
        <ele>783.131104</ele>
        <time>2011-03-18T10:35:31Z</time>
      </trkpt>
      <trkpt lat="44.54991" lon="6.20826">
        <ele>781.20874</ele>
        <time>2011-03-18T10:35:38Z</time>
      </trkpt>
      <trkpt lat="44.54962" lon="6.20837">
        <ele>781.20874</ele>
        <time>2011-03-18T10:35:43Z</time>
      </trkpt>
      <trkpt lat="44.54919" lon="6.20837">
        <ele>781.689209</ele>
        <time>2011-03-18T10:35:50Z</time>
      </trkpt>
      <trkpt lat="44.5489" lon="6.2085">
        <ele>779.766357</ele>
        <time>2011-03-18T10:35:55Z</time>
      </trkpt>
      <trkpt lat="44.54857" lon="6.20853">
        <ele>780.247314</ele>
        <time>2011-03-18T10:36:00Z</time>
      </trkpt>
      <trkpt lat="44.54837" lon="6.20851">
        <ele>778.805176</ele>
        <time>2011-03-18T10:36:03Z</time>
      </trkpt>
      <trkpt lat="44.54768" lon="6.20868">
        <ele>776.401855</ele>
        <time>2011-03-18T10:36:13Z</time>
      </trkpt>
      <trkpt lat="44.54751" lon="6.20881">
        <ele>775.44043</ele>
        <time>2011-03-18T10:36:16Z</time>
      </trkpt>
      <trkpt lat="44.54703" lon="6.20887">
        <ele>774.959961</ele>
        <time>2011-03-18T10:36:23Z</time>
      </trkpt>
      <trkpt lat="44.5469" lon="6.2088">
        <ele>774.959961</ele>
        <time>2011-03-18T10:36:25Z</time>
      </trkpt>
      <trkpt lat="44.54676" lon="6.20878">
        <ele>773.518066</ele>
        <time>2011-03-18T10:36:27Z</time>
      </trkpt>
      <trkpt lat="44.54664" lon="6.20882">
        <ele>773.037354</ele>
        <time>2011-03-18T10:36:29Z</time>
      </trkpt>
      <trkpt lat="44.5459" lon="6.20894">
        <ele>772.075928</ele>
        <time>2011-03-18T10:36:41Z</time>
      </trkpt>
      <trkpt lat="44.54525" lon="6.20884">
        <ele>772.556641</ele>
        <time>2011-03-18T10:36:54Z</time>
      </trkpt>
      <trkpt lat="44.54482" lon="6.2088">
        <ele>773.518066</ele>
        <time>2011-03-18T10:37:08Z</time>
      </trkpt>
      <trkpt lat="44.54425" lon="6.20827">
        <ele>774.479248</ele>
        <time>2011-03-18T10:37:31Z</time>
      </trkpt>
      <trkpt lat="44.54378" lon="6.208">
        <ele>777.84375</ele>
        <time>2011-03-18T10:37:51Z</time>
      </trkpt>
      <trkpt lat="44.54366" lon="6.20826">
        <ele>779.285645</ele>
        <time>2011-03-18T10:38:01Z</time>
      </trkpt>
      <trkpt lat="44.54356" lon="6.20896">
        <ele>781.689209</ele>
        <time>2011-03-18T10:38:20Z</time>
      </trkpt>
      <trkpt lat="44.54321" lon="6.20946">
        <ele>783.131104</ele>
        <time>2011-03-18T10:38:41Z</time>
      </trkpt>
      <trkpt lat="44.54298" lon="6.20983">
        <ele>786.976318</ele>
        <time>2011-03-18T10:38:58Z</time>
      </trkpt>
      <trkpt lat="44.54297" lon="6.20985">
        <ele>786.976318</ele>
        <time>2011-03-18T10:38:59Z</time>
      </trkpt>
      <trkpt lat="44.54282" lon="6.21009">
        <ele>789.379639</ele>
        <time>2011-03-18T10:39:11Z</time>
      </trkpt>
      <trkpt lat="44.54256" lon="6.21054">
        <ele>790.821533</ele>
        <time>2011-03-18T10:39:31Z</time>
      </trkpt>
      <trkpt lat="44.54237" lon="6.21096">
        <ele>794.186279</ele>
        <time>2011-03-18T10:39:50Z</time>
      </trkpt>
      <trkpt lat="44.54223" lon="6.21119">
        <ele>797.070313</ele>
        <time>2011-03-18T10:40:03Z</time>
      </trkpt>
      <trkpt lat="44.54201" lon="6.21154">
        <ele>799.954346</ele>
        <time>2011-03-18T10:40:23Z</time>
      </trkpt>
      <trkpt lat="44.54199" lon="6.21159">
        <ele>800.435059</ele>
        <time>2011-03-18T10:40:26Z</time>
      </trkpt>
      <trkpt lat="44.54194" lon="6.21166">
        <ele>801.876953</ele>
        <time>2011-03-18T10:40:29Z</time>
      </trkpt>
      <trkpt lat="44.54177" lon="6.21177">
        <ele>805.241455</ele>
        <time>2011-03-18T10:40:41Z</time>
      </trkpt>
      <trkpt lat="44.54182" lon="6.21187">
        <ele>805.241455</ele>
        <time>2011-03-18T10:40:45Z</time>
      </trkpt>
      <trkpt lat="44.54191" lon="6.21184">
        <ele>805.722168</ele>
        <time>2011-03-18T10:40:50Z</time>
      </trkpt>
      <trkpt lat="44.54216" lon="6.21161">
        <ele>809.567383</ele>
        <time>2011-03-18T10:41:06Z</time>
      </trkpt>
      <trkpt lat="44.54225" lon="6.21153">
        <ele>811.009277</ele>
        <time>2011-03-18T10:41:12Z</time>
      </trkpt>
      <trkpt lat="44.54232" lon="6.2117">
        <ele>811.970703</ele>
        <time>2011-03-18T10:41:20Z</time>
      </trkpt>
      <trkpt lat="44.542" lon="6.21206">
        <ele>814.854736</ele>
        <time>2011-03-18T10:41:41Z</time>
      </trkpt>
      <trkpt lat="44.54196" lon="6.21239">
        <ele>815.816162</ele>
        <time>2011-03-18T10:41:53Z</time>
      </trkpt>
      <trkpt lat="44.54199" lon="6.21247">
        <ele>817.258057</ele>
        <time>2011-03-18T10:41:57Z</time>
      </trkpt>
      <trkpt lat="44.54219" lon="6.21282">
        <ele>820.141846</ele>
        <time>2011-03-18T10:42:15Z</time>
      </trkpt>
      <trkpt lat="44.5422" lon="6.21283">
        <ele>820.141846</ele>
        <time>2011-03-18T10:42:16Z</time>
      </trkpt>
      <trkpt lat="44.54223" lon="6.21286">
        <ele>818.699951</ele>
        <time>2011-03-18T10:42:18Z</time>
      </trkpt>
      <trkpt lat="44.54231" lon="6.21294">
        <ele>820.622559</ele>
        <time>2011-03-18T10:42:23Z</time>
      </trkpt>
      <trkpt lat="44.54243" lon="6.21314">
        <ele>822.545166</ele>
        <time>2011-03-18T10:42:34Z</time>
      </trkpt>
      <trkpt lat="44.54238" lon="6.21365">
        <ele>824.948486</ele>
        <time>2011-03-18T10:42:54Z</time>
      </trkpt>
      <trkpt lat="44.54217" lon="6.21386">
        <ele>827.832275</ele>
        <time>2011-03-18T10:43:10Z</time>
      </trkpt>
      <trkpt lat="44.5419" lon="6.21371">
        <ele>830.716553</ele>
        <time>2011-03-18T10:43:25Z</time>
      </trkpt>
      <trkpt lat="44.54174" lon="6.21369">
        <ele>832.158447</ele>
        <time>2011-03-18T10:43:34Z</time>
      </trkpt>
      <trkpt lat="44.54141" lon="6.21366">
        <ele>835.522949</ele>
        <time>2011-03-18T10:43:54Z</time>
      </trkpt>
      <trkpt lat="44.54118" lon="6.21377">
        <ele>837.92627</ele>
        <time>2011-03-18T10:44:09Z</time>
      </trkpt>
      <trkpt lat="44.54108" lon="6.21365">
        <ele>840.32959</ele>
        <time>2011-03-18T10:44:20Z</time>
      </trkpt>
      <trkpt lat="44.54103" lon="6.21329">
        <ele>843.213379</ele>
        <time>2011-03-18T10:44:36Z</time>
      </trkpt>
      <trkpt lat="44.54087" lon="6.21304">
        <ele>845.616943</ele>
        <time>2011-03-18T10:44:51Z</time>
      </trkpt>
      <trkpt lat="44.54072" lon="6.21297">
        <ele>847.539551</ele>
        <time>2011-03-18T10:45:01Z</time>
      </trkpt>
      <trkpt lat="44.54071" lon="6.21296">
        <ele>847.539551</ele>
        <time>2011-03-18T10:45:02Z</time>
      </trkpt>
      <trkpt lat="44.54052" lon="6.21289">
        <ele>850.904053</ele>
        <time>2011-03-18T10:45:14Z</time>
      </trkpt>
      <trkpt lat="44.54042" lon="6.21284">
        <ele>852.82666</ele>
        <time>2011-03-18T10:45:20Z</time>
      </trkpt>
      <trkpt lat="44.54033" lon="6.2128">
        <ele>854.268799</ele>
        <time>2011-03-18T10:45:26Z</time>
      </trkpt>
      <trkpt lat="44.54032" lon="6.21295">
        <ele>856.191162</ele>
        <time>2011-03-18T10:45:32Z</time>
      </trkpt>
      <trkpt lat="44.54035" lon="6.21298">
        <ele>857.633301</ele>
        <time>2011-03-18T10:45:34Z</time>
      </trkpt>
      <trkpt lat="44.5405" lon="6.21312">
        <ele>859.555908</ele>
        <time>2011-03-18T10:45:46Z</time>
      </trkpt>
      <trkpt lat="44.54054" lon="6.2132">
        <ele>860.998047</ele>
        <time>2011-03-18T10:45:51Z</time>
      </trkpt>
      <trkpt lat="44.54055" lon="6.21328">
        <ele>861.959473</ele>
        <time>2011-03-18T10:45:55Z</time>
      </trkpt>
      <trkpt lat="44.54042" lon="6.2136">
        <ele>865.323975</ele>
        <time>2011-03-18T10:46:13Z</time>
      </trkpt>
      <trkpt lat="44.54033" lon="6.21371">
        <ele>866.765869</ele>
        <time>2011-03-18T10:46:21Z</time>
      </trkpt>
      <trkpt lat="44.54016" lon="6.21388">
        <ele>869.169189</ele>
        <time>2011-03-18T10:46:35Z</time>
      </trkpt>
      <trkpt lat="44.54012" lon="6.21379">
        <ele>870.130371</ele>
        <time>2011-03-18T10:46:41Z</time>
      </trkpt>
      <trkpt lat="44.54012" lon="6.21369">
        <ele>871.572266</ele>
        <time>2011-03-18T10:46:46Z</time>
      </trkpt>
      <trkpt lat="44.53996" lon="6.21349">
        <ele>875.41748</ele>
        <time>2011-03-18T10:47:01Z</time>
      </trkpt>
      <trkpt lat="44.5399" lon="6.21346">
        <ele>875.898193</ele>
        <time>2011-03-18T10:47:05Z</time>
      </trkpt>
      <trkpt lat="44.5396" lon="6.21333">
        <ele>880.224365</ele>
        <time>2011-03-18T10:47:25Z</time>
      </trkpt>
      <trkpt lat="44.53959" lon="6.21332">
        <ele>880.224365</ele>
        <time>2011-03-18T10:47:26Z</time>
      </trkpt>
      <trkpt lat="44.53929" lon="6.21312">
        <ele>883.588867</ele>
        <time>2011-03-18T10:47:46Z</time>
      </trkpt>
      <trkpt lat="44.53907" lon="6.21298">
        <ele>885.511475</ele>
        <time>2011-03-18T10:48:02Z</time>
      </trkpt>
      <trkpt lat="44.53899" lon="6.21305">
        <ele>887.434082</ele>
        <time>2011-03-18T10:48:08Z</time>
      </trkpt>
      <trkpt lat="44.53894" lon="6.21337">
        <ele>890.798584</ele>
        <time>2011-03-18T10:48:24Z</time>
      </trkpt>
      <trkpt lat="44.53889" lon="6.21365">
        <ele>893.682861</ele>
        <time>2011-03-18T10:48:38Z</time>
      </trkpt>
      <trkpt lat="44.53879" lon="6.21396">
        <ele>896.566895</ele>
        <time>2011-03-18T10:48:54Z</time>
      </trkpt>
      <trkpt lat="44.53896" lon="6.21441">
        <ele>899.931396</ele>
        <time>2011-03-18T10:49:15Z</time>
      </trkpt>
      <trkpt lat="44.53899" lon="6.21486">
        <ele>903.295898</ele>
        <time>2011-03-18T10:49:35Z</time>
      </trkpt>
      <trkpt lat="44.53903" lon="6.21533">
        <ele>905.699219</ele>
        <time>2011-03-18T10:49:56Z</time>
      </trkpt>
      <trkpt lat="44.53913" lon="6.2157">
        <ele>909.063965</ele>
        <time>2011-03-18T10:50:13Z</time>
      </trkpt>
      <trkpt lat="44.53908" lon="6.21602">
        <ele>912.428467</ele>
        <time>2011-03-18T10:50:28Z</time>
      </trkpt>
      <trkpt lat="44.53897" lon="6.2165">
        <ele>914.351074</ele>
        <time>2011-03-18T10:50:51Z</time>
      </trkpt>
      <trkpt lat="44.53892" lon="6.21669">
        <ele>916.754395</ele>
        <time>2011-03-18T10:51:00Z</time>
      </trkpt>
      <trkpt lat="44.5388" lon="6.21673">
        <ele>919.157715</ele>
        <time>2011-03-18T10:51:09Z</time>
      </trkpt>
      <trkpt lat="44.53878" lon="6.21672">
        <ele>918.196289</ele>
        <time>2011-03-18T10:51:10Z</time>
      </trkpt>
      <trkpt lat="44.53862" lon="6.21679">
        <ele>921.560791</ele>
        <time>2011-03-18T10:51:23Z</time>
      </trkpt>
      <trkpt lat="44.53862" lon="6.21682">
        <ele>921.560791</ele>
        <time>2011-03-18T10:51:24Z</time>
      </trkpt>
      <trkpt lat="44.53863" lon="6.21712">
        <ele>924.445068</ele>
        <time>2011-03-18T10:51:37Z</time>
      </trkpt>
      <trkpt lat="44.53859" lon="6.21745">
        <ele>927.329102</ele>
        <time>2011-03-18T10:51:53Z</time>
      </trkpt>
      <trkpt lat="44.53852" lon="6.2179">
        <ele>929.732178</ele>
        <time>2011-03-18T10:52:12Z</time>
      </trkpt>
      <trkpt lat="44.53858" lon="6.21816">
        <ele>932.616211</ele>
        <time>2011-03-18T10:52:24Z</time>
      </trkpt>
      <trkpt lat="44.53863" lon="6.21845">
        <ele>935.5</ele>
        <time>2011-03-18T10:52:38Z</time>
      </trkpt>
      <trkpt lat="44.53864" lon="6.21849">
        <ele>935.980713</ele>
        <time>2011-03-18T10:52:40Z</time>
      </trkpt>
      <trkpt lat="44.53868" lon="6.2188">
        <ele>939.345215</ele>
        <time>2011-03-18T10:52:55Z</time>
      </trkpt>
      <trkpt lat="44.53865" lon="6.21926">
        <ele>941.748779</ele>
        <time>2011-03-18T10:53:15Z</time>
      </trkpt>
      <trkpt lat="44.5384" lon="6.21958">
        <ele>944.1521</ele>
        <time>2011-03-18T10:53:33Z</time>
      </trkpt>
      <trkpt lat="44.53703" lon="6.2211">
        <ele>926.848389</ele>
        <time>2011-03-18T10:54:25Z</time>
      </trkpt>
      <trkpt lat="44.53673" lon="6.22137">
        <ele>929.732178</ele>
        <time>2011-03-18T10:54:37Z</time>
      </trkpt>
      <trkpt lat="44.53665" lon="6.22147">
        <ele>933.09668</ele>
        <time>2011-03-18T10:54:41Z</time>
      </trkpt>
      <trkpt lat="44.53656" lon="6.22157">
        <ele>936.461426</ele>
        <time>2011-03-18T10:54:45Z</time>
      </trkpt>
      <trkpt lat="44.53649" lon="6.22166">
        <ele>939.825928</ele>
        <time>2011-03-18T10:54:49Z</time>
      </trkpt>
      <trkpt lat="44.53642" lon="6.2218">
        <ele>943.190674</ele>
        <time>2011-03-18T10:54:54Z</time>
      </trkpt>
      <trkpt lat="44.53636" lon="6.22195">
        <ele>946.074707</ele>
        <time>2011-03-18T10:54:59Z</time>
      </trkpt>
      <trkpt lat="44.53626" lon="6.22217">
        <ele>949.439209</ele>
        <time>2011-03-18T10:55:07Z</time>
      </trkpt>
      <trkpt lat="44.53624" lon="6.22223">
        <ele>950.400635</ele>
        <time>2011-03-18T10:55:09Z</time>
      </trkpt>
      <trkpt lat="44.53617" lon="6.22245">
        <ele>953.284424</ele>
        <time>2011-03-18T10:55:17Z</time>
      </trkpt>
      <trkpt lat="44.53611" lon="6.22271">
        <ele>956.64917</ele>
        <time>2011-03-18T10:55:26Z</time>
      </trkpt>
      <trkpt lat="44.53601" lon="6.22299">
        <ele>960.013672</ele>
        <time>2011-03-18T10:55:37Z</time>
      </trkpt>
      <trkpt lat="44.53594" lon="6.22329">
        <ele>962.897705</ele>
        <time>2011-03-18T10:55:49Z</time>
      </trkpt>
      <trkpt lat="44.53598" lon="6.22378">
        <ele>966.262207</ele>
        <time>2011-03-18T10:56:06Z</time>
      </trkpt>
      <trkpt lat="44.53598" lon="6.22422">
        <ele>969.14624</ele>
        <time>2011-03-18T10:56:23Z</time>
      </trkpt>
      <trkpt lat="44.53597" lon="6.22432">
        <ele>970.588135</ele>
        <time>2011-03-18T10:56:27Z</time>
      </trkpt>
      <trkpt lat="44.53595" lon="6.2247">
        <ele>973.952881</ele>
        <time>2011-03-18T10:56:42Z</time>
      </trkpt>
      <trkpt lat="44.53597" lon="6.22493">
        <ele>977.317627</ele>
        <time>2011-03-18T10:56:51Z</time>
      </trkpt>
      <trkpt lat="44.53601" lon="6.22516">
        <ele>980.201416</ele>
        <time>2011-03-18T10:57:00Z</time>
      </trkpt>
      <trkpt lat="44.53605" lon="6.22533">
        <ele>981.643311</ele>
        <time>2011-03-18T10:57:07Z</time>
      </trkpt>
      <trkpt lat="44.53611" lon="6.22561">
        <ele>984.046631</ele>
        <time>2011-03-18T10:57:23Z</time>
      </trkpt>
      <trkpt lat="44.53616" lon="6.22583">
        <ele>985.488525</ele>
        <time>2011-03-18T10:57:35Z</time>
      </trkpt>
      <trkpt lat="44.53624" lon="6.22616">
        <ele>986.449951</ele>
        <time>2011-03-18T10:57:51Z</time>
      </trkpt>
      <trkpt lat="44.53627" lon="6.22638">
        <ele>987.891846</ele>
        <time>2011-03-18T10:58:06Z</time>
      </trkpt>
      <trkpt lat="44.53633" lon="6.2268">
        <ele>990.775879</ele>
        <time>2011-03-18T10:58:21Z</time>
      </trkpt>
      <trkpt lat="44.53636" lon="6.22693">
        <ele>992.218018</ele>
        <time>2011-03-18T10:58:27Z</time>
      </trkpt>
      <trkpt lat="44.5364" lon="6.22716">
        <ele>995.101807</ele>
        <time>2011-03-18T10:58:38Z</time>
      </trkpt>
      <trkpt lat="44.5364" lon="6.22723">
        <ele>996.543945</ele>
        <time>2011-03-18T10:58:41Z</time>
      </trkpt>
      <trkpt lat="44.5364" lon="6.22729">
        <ele>998.466309</ele>
        <time>2011-03-18T10:58:44Z</time>
      </trkpt>
      <trkpt lat="44.53644" lon="6.22771">
        <ele>1000.38916</ele>
        <time>2011-03-18T10:59:02Z</time>
      </trkpt>
      <trkpt lat="44.53652" lon="6.2282">
        <ele>1003.272949</ele>
        <time>2011-03-18T10:59:22Z</time>
      </trkpt>
      <trkpt lat="44.53662" lon="6.22866">
        <ele>1005.676514</ele>
        <time>2011-03-18T10:59:40Z</time>
      </trkpt>
      <trkpt lat="44.53664" lon="6.22906">
        <ele>1007.118408</ele>
        <time>2011-03-18T10:59:53Z</time>
      </trkpt>
      <trkpt lat="44.53665" lon="6.22961">
        <ele>1006.637695</ele>
        <time>2011-03-18T11:00:06Z</time>
      </trkpt>
      <trkpt lat="44.53677" lon="6.23005">
        <ele>1008.079834</ele>
        <time>2011-03-18T11:00:21Z</time>
      </trkpt>
      <trkpt lat="44.53679" lon="6.2301">
        <ele>1009.041016</ele>
        <time>2011-03-18T11:00:23Z</time>
      </trkpt>
      <trkpt lat="44.53697" lon="6.23067">
        <ele>1010.48291</ele>
        <time>2011-03-18T11:00:42Z</time>
      </trkpt>
      <trkpt lat="44.53704" lon="6.23098">
        <ele>1013.366943</ele>
        <time>2011-03-18T11:00:53Z</time>
      </trkpt>
      <trkpt lat="44.53712" lon="6.23147">
        <ele>1015.770264</ele>
        <time>2011-03-18T11:01:10Z</time>
      </trkpt>
      <trkpt lat="44.53716" lon="6.23186">
        <ele>1017.212158</ele>
        <time>2011-03-18T11:01:22Z</time>
      </trkpt>
      <trkpt lat="44.5373" lon="6.23249">
        <ele>1019.134766</ele>
        <time>2011-03-18T11:01:41Z</time>
      </trkpt>
      <trkpt lat="44.53744" lon="6.23305">
        <ele>1022.499512</ele>
        <time>2011-03-18T11:01:58Z</time>
      </trkpt>
      <trkpt lat="44.5376" lon="6.23362">
        <ele>1026.344727</ele>
        <time>2011-03-18T11:02:17Z</time>
      </trkpt>
      <trkpt lat="44.53777" lon="6.23434">
        <ele>1028.267334</ele>
        <time>2011-03-18T11:02:39Z</time>
      </trkpt>
      <trkpt lat="44.53786" lon="6.23506">
        <ele>1027.306152</ele>
        <time>2011-03-18T11:02:55Z</time>
      </trkpt>
      <trkpt lat="44.53793" lon="6.23542">
        <ele>1026.825439</ele>
        <time>2011-03-18T11:03:01Z</time>
      </trkpt>
      <trkpt lat="44.538" lon="6.23615">
        <ele>1022.499512</ele>
        <time>2011-03-18T11:03:11Z</time>
      </trkpt>
      <trkpt lat="44.53802" lon="6.23631">
        <ele>1022.018799</ele>
        <time>2011-03-18T11:03:13Z</time>
      </trkpt>
      <trkpt lat="44.53813" lon="6.23672">
        <ele>1021.538086</ele>
        <time>2011-03-18T11:03:19Z</time>
      </trkpt>
      <trkpt lat="44.53816" lon="6.23681">
        <ele>1018.17334</ele>
        <time>2011-03-18T11:03:21Z</time>
      </trkpt>
      <trkpt lat="44.53817" lon="6.23685">
        <ele>1018.17334</ele>
        <time>2011-03-18T11:03:22Z</time>
      </trkpt>
      <trkpt lat="44.5382" lon="6.23697">
        <ele>1017.692627</ele>
        <time>2011-03-18T11:03:24Z</time>
      </trkpt>
      <trkpt lat="44.53819" lon="6.23717">
        <ele>1014.808838</ele>
        <time>2011-03-18T11:03:28Z</time>
      </trkpt>
      <trkpt lat="44.53817" lon="6.23727">
        <ele>1014.328125</ele>
        <time>2011-03-18T11:03:30Z</time>
      </trkpt>
      <trkpt lat="44.53825" lon="6.2375">
        <ele>1010.963623</ele>
        <time>2011-03-18T11:03:35Z</time>
      </trkpt>
      <trkpt lat="44.53827" lon="6.23754">
        <ele>1010.963623</ele>
        <time>2011-03-18T11:03:36Z</time>
      </trkpt>
      <trkpt lat="44.53824" lon="6.23777">
        <ele>1007.599121</ele>
        <time>2011-03-18T11:03:42Z</time>
      </trkpt>
      <trkpt lat="44.53821" lon="6.23779">
        <ele>1007.599121</ele>
        <time>2011-03-18T11:03:43Z</time>
      </trkpt>
      <trkpt lat="44.5381" lon="6.23783">
        <ele>1007.599121</ele>
        <time>2011-03-18T11:03:46Z</time>
      </trkpt>
      <trkpt lat="44.53796" lon="6.23802">
        <ele>1006.637695</ele>
        <time>2011-03-18T11:03:50Z</time>
      </trkpt>
      <trkpt lat="44.53791" lon="6.23838">
        <ele>1004.234619</ele>
        <time>2011-03-18T11:03:55Z</time>
      </trkpt>
      <trkpt lat="44.53791" lon="6.23856">
        <ele>1003.272949</ele>
        <time>2011-03-18T11:03:57Z</time>
      </trkpt>
      <trkpt lat="44.53789" lon="6.23876">
        <ele>1001.831055</ele>
        <time>2011-03-18T11:03:59Z</time>
      </trkpt>
      <trkpt lat="44.53789" lon="6.24004">
        <ele>1002.311523</ele>
        <time>2011-03-18T11:04:15Z</time>
      </trkpt>
      <trkpt lat="44.53813" lon="6.24034">
        <ele>1004.234619</ele>
        <time>2011-03-18T11:04:25Z</time>
      </trkpt>
      <trkpt lat="44.5386" lon="6.24063">
        <ele>1005.195801</ele>
        <time>2011-03-18T11:04:39Z</time>
      </trkpt>
      <trkpt lat="44.53864" lon="6.24072">
        <ele>1005.195801</ele>
        <time>2011-03-18T11:04:41Z</time>
      </trkpt>
      <trkpt lat="44.53868" lon="6.24101">
        <ele>1005.195801</ele>
        <time>2011-03-18T11:04:46Z</time>
      </trkpt>
      <trkpt lat="44.53865" lon="6.24239">
        <ele>1006.637695</ele>
        <time>2011-03-18T11:05:08Z</time>
      </trkpt>
      <trkpt lat="44.53849" lon="6.24353">
        <ele>1007.599121</ele>
        <time>2011-03-18T11:05:26Z</time>
      </trkpt>
      <trkpt lat="44.53854" lon="6.24463">
        <ele>1008.560303</ele>
        <time>2011-03-18T11:05:43Z</time>
      </trkpt>
      <trkpt lat="44.53866" lon="6.24597">
        <ele>1009.041016</ele>
        <time>2011-03-18T11:06:03Z</time>
      </trkpt>
      <trkpt lat="44.53866" lon="6.24613">
        <ele>1008.560303</ele>
        <time>2011-03-18T11:06:05Z</time>
      </trkpt>
      <trkpt lat="44.53864" lon="6.24636">
        <ele>1008.560303</ele>
        <time>2011-03-18T11:06:08Z</time>
      </trkpt>
      <trkpt lat="44.53838" lon="6.24721">
        <ele>1007.118408</ele>
        <time>2011-03-18T11:06:19Z</time>
      </trkpt>
      <trkpt lat="44.53817" lon="6.24755">
        <ele>1005.676514</ele>
        <time>2011-03-18T11:06:24Z</time>
      </trkpt>
      <trkpt lat="44.53801" lon="6.2477">
        <ele>1003.753662</ele>
        <time>2011-03-18T11:06:27Z</time>
      </trkpt>
      <trkpt lat="44.53789" lon="6.24776">
        <ele>1002.792236</ele>
        <time>2011-03-18T11:06:29Z</time>
      </trkpt>
      <trkpt lat="44.53775" lon="6.24788">
        <ele>1001.350342</ele>
        <time>2011-03-18T11:06:32Z</time>
      </trkpt>
      <trkpt lat="44.53771" lon="6.24837">
        <ele>999.427734</ele>
        <time>2011-03-18T11:06:40Z</time>
      </trkpt>
      <trkpt lat="44.538" lon="6.24862">
        <ele>999.427734</ele>
        <time>2011-03-18T11:06:51Z</time>
      </trkpt>
      <trkpt lat="44.53826" lon="6.24868">
        <ele>1002.311523</ele>
        <time>2011-03-18T11:07:03Z</time>
      </trkpt>
      <trkpt lat="44.53851" lon="6.24882">
        <ele>1005.676514</ele>
        <time>2011-03-18T11:07:17Z</time>
      </trkpt>
      <trkpt lat="44.5386" lon="6.24892">
        <ele>1007.118408</ele>
        <time>2011-03-18T11:07:23Z</time>
      </trkpt>
      <trkpt lat="44.53862" lon="6.24895">
        <ele>1007.599121</ele>
        <time>2011-03-18T11:07:25Z</time>
      </trkpt>
      <trkpt lat="44.53856" lon="6.24905">
        <ele>1009.041016</ele>
        <time>2011-03-18T11:07:31Z</time>
      </trkpt>
      <trkpt lat="44.53821" lon="6.24902">
        <ele>1010.963623</ele>
        <time>2011-03-18T11:07:48Z</time>
      </trkpt>
      <trkpt lat="44.53778" lon="6.24914">
        <ele>1014.328125</ele>
        <time>2011-03-18T11:08:08Z</time>
      </trkpt>
      <trkpt lat="44.53742" lon="6.24924">
        <ele>1017.692627</ele>
        <time>2011-03-18T11:08:27Z</time>
      </trkpt>
      <trkpt lat="44.5369" lon="6.24937">
        <ele>1020.096191</ele>
        <time>2011-03-18T11:08:52Z</time>
      </trkpt>
      <trkpt lat="44.5365" lon="6.24959">
        <ele>1022.018799</ele>
        <time>2011-03-18T11:09:10Z</time>
      </trkpt>
      <trkpt lat="44.5362" lon="6.24996">
        <ele>1022.499512</ele>
        <time>2011-03-18T11:09:23Z</time>
      </trkpt>
      <trkpt lat="44.53582" lon="6.25043">
        <ele>1024.422119</ele>
        <time>2011-03-18T11:09:38Z</time>
      </trkpt>
      <trkpt lat="44.53532" lon="6.25114">
        <ele>1025.383301</ele>
        <time>2011-03-18T11:09:59Z</time>
      </trkpt>
      <trkpt lat="44.53507" lon="6.25144">
        <ele>1028.748047</ele>
        <time>2011-03-18T11:10:10Z</time>
      </trkpt>
      <trkpt lat="44.53462" lon="6.25186">
        <ele>1032.112549</ele>
        <time>2011-03-18T11:10:27Z</time>
      </trkpt>
      <trkpt lat="44.53422" lon="6.25242">
        <ele>1034.996582</ele>
        <time>2011-03-18T11:10:44Z</time>
      </trkpt>
      <trkpt lat="44.53371" lon="6.2533">
        <ele>1037.399902</ele>
        <time>2011-03-18T11:11:06Z</time>
      </trkpt>
      <trkpt lat="44.53305" lon="6.25447">
        <ele>1038.361328</ele>
        <time>2011-03-18T11:11:29Z</time>
      </trkpt>
      <trkpt lat="44.53249" lon="6.25544">
        <ele>1039.32251</ele>
        <time>2011-03-18T11:11:48Z</time>
      </trkpt>
      <trkpt lat="44.53219" lon="6.25567">
        <ele>1040.283936</ele>
        <time>2011-03-18T11:11:57Z</time>
      </trkpt>
      <trkpt lat="44.53197" lon="6.25587">
        <ele>1039.32251</ele>
        <time>2011-03-18T11:12:03Z</time>
      </trkpt>
      <trkpt lat="44.5315" lon="6.25663">
        <ele>1039.803223</ele>
        <time>2011-03-18T11:12:20Z</time>
      </trkpt>
      <trkpt lat="44.53144" lon="6.25676">
        <ele>1039.803223</ele>
        <time>2011-03-18T11:12:23Z</time>
      </trkpt>
      <trkpt lat="44.53132" lon="6.25695">
        <ele>1039.32251</ele>
        <time>2011-03-18T11:12:27Z</time>
      </trkpt>
      <trkpt lat="44.53093" lon="6.25741">
        <ele>1037.399902</ele>
        <time>2011-03-18T11:12:37Z</time>
      </trkpt>
      <trkpt lat="44.53082" lon="6.25761">
        <ele>1036.919189</ele>
        <time>2011-03-18T11:12:41Z</time>
      </trkpt>
      <trkpt lat="44.53061" lon="6.25844">
        <ele>1037.399902</ele>
        <time>2011-03-18T11:12:53Z</time>
      </trkpt>
      <trkpt lat="44.53024" lon="6.25909">
        <ele>1037.399902</ele>
        <time>2011-03-18T11:13:05Z</time>
      </trkpt>
      <trkpt lat="44.53018" lon="6.25917">
        <ele>1037.399902</ele>
        <time>2011-03-18T11:13:07Z</time>
      </trkpt>
      <trkpt lat="44.52986" lon="6.25979">
        <ele>1036.919189</ele>
        <time>2011-03-18T11:13:18Z</time>
      </trkpt>
      <trkpt lat="44.52979" lon="6.25995">
        <ele>1036.919189</ele>
        <time>2011-03-18T11:13:21Z</time>
      </trkpt>
      <trkpt lat="44.5293" lon="6.26052">
        <ele>1036.919189</ele>
        <time>2011-03-18T11:13:36Z</time>
      </trkpt>
      <trkpt lat="44.52924" lon="6.26068">
        <ele>1035.957764</ele>
        <time>2011-03-18T11:13:40Z</time>
      </trkpt>
      <trkpt lat="44.52929" lon="6.26076">
        <ele>1034.515869</ele>
        <time>2011-03-18T11:13:42Z</time>
      </trkpt>
      <trkpt lat="44.52937" lon="6.26086">
        <ele>1034.035156</ele>
        <time>2011-03-18T11:13:44Z</time>
      </trkpt>
      <trkpt lat="44.52959" lon="6.26114">
        <ele>1031.151367</ele>
        <time>2011-03-18T11:13:49Z</time>
      </trkpt>
      <trkpt lat="44.53033" lon="6.26213">
        <ele>1030.670654</ele>
        <time>2011-03-18T11:14:06Z</time>
      </trkpt>
      <trkpt lat="44.53068" lon="6.26256">
        <ele>1032.593262</ele>
        <time>2011-03-18T11:14:20Z</time>
      </trkpt>
      <trkpt lat="44.53099" lon="6.26296">
        <ele>1035.957764</ele>
        <time>2011-03-18T11:14:36Z</time>
      </trkpt>
      <trkpt lat="44.53142" lon="6.26347">
        <ele>1039.32251</ele>
        <time>2011-03-18T11:14:59Z</time>
      </trkpt>
      <trkpt lat="44.53172" lon="6.2636">
        <ele>1041.245117</ele>
        <time>2011-03-18T11:15:12Z</time>
      </trkpt>
      <trkpt lat="44.53223" lon="6.26366">
        <ele>1043.167725</ele>
        <time>2011-03-18T11:15:30Z</time>
      </trkpt>
      <trkpt lat="44.53245" lon="6.2637">
        <ele>1042.687256</ele>
        <time>2011-03-18T11:15:36Z</time>
      </trkpt>
      <trkpt lat="44.53267" lon="6.26373">
        <ele>1041.72583</ele>
        <time>2011-03-18T11:15:41Z</time>
      </trkpt>
      <trkpt lat="44.53325" lon="6.26384">
        <ele>1041.245117</ele>
        <time>2011-03-18T11:15:54Z</time>
      </trkpt>
      <trkpt lat="44.53338" lon="6.2639">
        <ele>1041.245117</ele>
        <time>2011-03-18T11:15:57Z</time>
      </trkpt>
      <trkpt lat="44.53359" lon="6.26426">
        <ele>1040.283936</ele>
        <time>2011-03-18T11:16:05Z</time>
      </trkpt>
      <trkpt lat="44.53379" lon="6.26496">
        <ele>1038.361328</ele>
        <time>2011-03-18T11:16:14Z</time>
      </trkpt>
      <trkpt lat="44.53394" lon="6.26535">
        <ele>1035.957764</ele>
        <time>2011-03-18T11:16:18Z</time>
      </trkpt>
      <trkpt lat="44.53413" lon="6.26568">
        <ele>1034.035156</ele>
        <time>2011-03-18T11:16:22Z</time>
      </trkpt>
      <trkpt lat="44.53466" lon="6.26612">
        <ele>1030.189941</ele>
        <time>2011-03-18T11:16:32Z</time>
      </trkpt>
      <trkpt lat="44.53471" lon="6.26616">
        <ele>1030.189941</ele>
        <time>2011-03-18T11:16:33Z</time>
      </trkpt>
      <trkpt lat="44.53484" lon="6.26621">
        <ele>1028.748047</ele>
        <time>2011-03-18T11:16:35Z</time>
      </trkpt>
      <trkpt lat="44.53498" lon="6.26624">
        <ele>1028.267334</ele>
        <time>2011-03-18T11:16:37Z</time>
      </trkpt>
      <trkpt lat="44.53519" lon="6.26626">
        <ele>1025.864014</ele>
        <time>2011-03-18T11:16:40Z</time>
      </trkpt>
      <trkpt lat="44.53525" lon="6.2663">
        <ele>1024.902832</ele>
        <time>2011-03-18T11:16:41Z</time>
      </trkpt>
      <trkpt lat="44.53543" lon="6.26639">
        <ele>1023.460938</ele>
        <time>2011-03-18T11:16:44Z</time>
      </trkpt>
      <trkpt lat="44.53557" lon="6.26647">
        <ele>1022.018799</ele>
        <time>2011-03-18T11:16:46Z</time>
      </trkpt>
      <trkpt lat="44.53581" lon="6.2668">
        <ele>1019.615479</ele>
        <time>2011-03-18T11:16:51Z</time>
      </trkpt>
      <trkpt lat="44.53587" lon="6.26705">
        <ele>1017.212158</ele>
        <time>2011-03-18T11:16:54Z</time>
      </trkpt>
      <trkpt lat="44.53589" lon="6.26742">
        <ele>1015.770264</ele>
        <time>2011-03-18T11:16:58Z</time>
      </trkpt>
      <trkpt lat="44.53587" lon="6.2676">
        <ele>1014.808838</ele>
        <time>2011-03-18T11:17:00Z</time>
      </trkpt>
      <trkpt lat="44.53591" lon="6.26791">
        <ele>1012.405518</ele>
        <time>2011-03-18T11:17:03Z</time>
      </trkpt>
      <trkpt lat="44.53596" lon="6.26799">
        <ele>1010.963623</ele>
        <time>2011-03-18T11:17:04Z</time>
      </trkpt>
      <trkpt lat="44.53607" lon="6.26822">
        <ele>1010.002197</ele>
        <time>2011-03-18T11:17:07Z</time>
      </trkpt>
      <trkpt lat="44.53611" lon="6.26845">
        <ele>1008.079834</ele>
        <time>2011-03-18T11:17:10Z</time>
      </trkpt>
      <trkpt lat="44.53611" lon="6.26855">
        <ele>1006.637695</ele>
        <time>2011-03-18T11:17:11Z</time>
      </trkpt>
      <trkpt lat="44.53609" lon="6.26886">
        <ele>1005.195801</ele>
        <time>2011-03-18T11:17:14Z</time>
      </trkpt>
      <trkpt lat="44.53616" lon="6.26914">
        <ele>1002.792236</ele>
        <time>2011-03-18T11:17:17Z</time>
      </trkpt>
      <trkpt lat="44.53615" lon="6.26951">
        <ele>1000.869629</ele>
        <time>2011-03-18T11:17:21Z</time>
      </trkpt>
      <trkpt lat="44.53614" lon="6.26958">
        <ele>1000.38916</ele>
        <time>2011-03-18T11:17:22Z</time>
      </trkpt>
      <trkpt lat="44.53608" lon="6.26974">
        <ele>999.427734</ele>
        <time>2011-03-18T11:17:24Z</time>
      </trkpt>
      <trkpt lat="44.53602" lon="6.26985">
        <ele>998.466309</ele>
        <time>2011-03-18T11:17:26Z</time>
      </trkpt>
      <trkpt lat="44.53615" lon="6.27004">
        <ele>996.063232</ele>
        <time>2011-03-18T11:17:33Z</time>
      </trkpt>
      <trkpt lat="44.53617" lon="6.26998">
        <ele>994.621094</ele>
        <time>2011-03-18T11:17:34Z</time>
      </trkpt>
      <trkpt lat="44.53631" lon="6.26973">
        <ele>992.218018</ele>
        <time>2011-03-18T11:17:38Z</time>
      </trkpt>
      <trkpt lat="44.53635" lon="6.26966">
        <ele>990.775879</ele>
        <time>2011-03-18T11:17:39Z</time>
      </trkpt>
      <trkpt lat="44.5365" lon="6.2695">
        <ele>989.333984</ele>
        <time>2011-03-18T11:17:42Z</time>
      </trkpt>
      <trkpt lat="44.53655" lon="6.26946">
        <ele>988.372803</ele>
        <time>2011-03-18T11:17:43Z</time>
      </trkpt>
      <trkpt lat="44.53667" lon="6.26916">
        <ele>986.93042</ele>
        <time>2011-03-18T11:17:47Z</time>
      </trkpt>
      <trkpt lat="44.53669" lon="6.26906">
        <ele>984.527344</ele>
        <time>2011-03-18T11:17:48Z</time>
      </trkpt>
      <trkpt lat="44.53674" lon="6.26886">
        <ele>983.085205</ele>
        <time>2011-03-18T11:17:50Z</time>
      </trkpt>
      <trkpt lat="44.53681" lon="6.2686">
        <ele>980.682129</ele>
        <time>2011-03-18T11:17:53Z</time>
      </trkpt>
      <trkpt lat="44.53685" lon="6.26847">
        <ele>979.720703</ele>
        <time>2011-03-18T11:17:55Z</time>
      </trkpt>
      <trkpt lat="44.537" lon="6.26854">
        <ele>978.278809</ele>
        <time>2011-03-18T11:18:02Z</time>
      </trkpt>
      <trkpt lat="44.53697" lon="6.26865">
        <ele>978.278809</ele>
        <time>2011-03-18T11:18:04Z</time>
      </trkpt>
      <trkpt lat="44.53695" lon="6.26881">
        <ele>977.798096</ele>
        <time>2011-03-18T11:18:06Z</time>
      </trkpt>
      <trkpt lat="44.53696" lon="6.26896">
        <ele>976.836914</ele>
        <time>2011-03-18T11:18:08Z</time>
      </trkpt>
      <trkpt lat="44.53699" lon="6.26913">
        <ele>975.875488</ele>
        <time>2011-03-18T11:18:10Z</time>
      </trkpt>
      <trkpt lat="44.53703" lon="6.26959">
        <ele>972.991699</ele>
        <time>2011-03-18T11:18:15Z</time>
      </trkpt>
      <trkpt lat="44.53702" lon="6.26968">
        <ele>972.030273</ele>
        <time>2011-03-18T11:18:16Z</time>
      </trkpt>
      <trkpt lat="44.53696" lon="6.26997">
        <ele>970.588135</ele>
        <time>2011-03-18T11:18:19Z</time>
      </trkpt>
      <trkpt lat="44.53687" lon="6.27025">
        <ele>967.704102</ele>
        <time>2011-03-18T11:18:22Z</time>
      </trkpt>
      <trkpt lat="44.53673" lon="6.27056">
        <ele>965.301025</ele>
        <time>2011-03-18T11:18:26Z</time>
      </trkpt>
      <trkpt lat="44.53657" lon="6.27081">
        <ele>961.455811</ele>
        <time>2011-03-18T11:18:30Z</time>
      </trkpt>
      <trkpt lat="44.53651" lon="6.27089">
        <ele>961.455811</ele>
        <time>2011-03-18T11:18:31Z</time>
      </trkpt>
      <trkpt lat="44.53641" lon="6.27105">
        <ele>960.013672</ele>
        <time>2011-03-18T11:18:33Z</time>
      </trkpt>
      <trkpt lat="44.53632" lon="6.27123">
        <ele>958.571777</ele>
        <time>2011-03-18T11:18:35Z</time>
      </trkpt>
      <trkpt lat="44.53622" lon="6.27141">
        <ele>954.726318</ele>
        <time>2011-03-18T11:18:37Z</time>
      </trkpt>
      <trkpt lat="44.53619" lon="6.27151">
        <ele>954.726318</ele>
        <time>2011-03-18T11:18:38Z</time>
      </trkpt>
      <trkpt lat="44.53616" lon="6.27161">
        <ele>953.765137</ele>
        <time>2011-03-18T11:18:39Z</time>
      </trkpt>
      <trkpt lat="44.53595" lon="6.27196">
        <ele>950.400635</ele>
        <time>2011-03-18T11:18:43Z</time>
      </trkpt>
      <trkpt lat="44.5358" lon="6.27209">
        <ele>947.997314</ele>
        <time>2011-03-18T11:18:45Z</time>
      </trkpt>
      <trkpt lat="44.53558" lon="6.27226">
        <ele>945.113281</ele>
        <time>2011-03-18T11:18:48Z</time>
      </trkpt>
      <trkpt lat="44.53532" lon="6.27254">
        <ele>942.229492</ele>
        <time>2011-03-18T11:18:52Z</time>
      </trkpt>
      <trkpt lat="44.53515" lon="6.27271">
        <ele>939.825928</ele>
        <time>2011-03-18T11:18:55Z</time>
      </trkpt>
      <trkpt lat="44.53499" lon="6.27292">
        <ele>937.422607</ele>
        <time>2011-03-18T11:18:59Z</time>
      </trkpt>
      <trkpt lat="44.53489" lon="6.27304">
        <ele>935.980713</ele>
        <time>2011-03-18T11:19:01Z</time>
      </trkpt>
      <trkpt lat="44.53477" lon="6.2732">
        <ele>934.058105</ele>
        <time>2011-03-18T11:19:03Z</time>
      </trkpt>
      <trkpt lat="44.53469" lon="6.27338">
        <ele>931.174316</ele>
        <time>2011-03-18T11:19:05Z</time>
      </trkpt>
      <trkpt lat="44.53459" lon="6.27367">
        <ele>928.770996</ele>
        <time>2011-03-18T11:19:08Z</time>
      </trkpt>
      <trkpt lat="44.53454" lon="6.27388">
        <ele>927.329102</ele>
        <time>2011-03-18T11:19:10Z</time>
      </trkpt>
      <trkpt lat="44.53451" lon="6.27399">
        <ele>926.367676</ele>
        <time>2011-03-18T11:19:11Z</time>
      </trkpt>
      <trkpt lat="44.53438" lon="6.27427">
        <ele>923.00293</ele>
        <time>2011-03-18T11:19:14Z</time>
      </trkpt>
      <trkpt lat="44.53433" lon="6.27435">
        <ele>923.00293</ele>
        <time>2011-03-18T11:19:15Z</time>
      </trkpt>
      <trkpt lat="44.53421" lon="6.27452">
        <ele>922.041504</ele>
        <time>2011-03-18T11:19:17Z</time>
      </trkpt>
      <trkpt lat="44.53409" lon="6.27467">
        <ele>919.638428</ele>
        <time>2011-03-18T11:19:19Z</time>
      </trkpt>
      <trkpt lat="44.53404" lon="6.27473">
        <ele>919.157715</ele>
        <time>2011-03-18T11:19:20Z</time>
      </trkpt>
      <trkpt lat="44.53391" lon="6.27488">
        <ele>917.715576</ele>
        <time>2011-03-18T11:19:23Z</time>
      </trkpt>
      <trkpt lat="44.53394" lon="6.27516">
        <ele>914.351074</ele>
        <time>2011-03-18T11:19:30Z</time>
      </trkpt>
      <trkpt lat="44.53398" lon="6.27514">
        <ele>914.351074</ele>
        <time>2011-03-18T11:19:31Z</time>
      </trkpt>
      <trkpt lat="44.53403" lon="6.27511">
        <ele>913.389893</ele>
        <time>2011-03-18T11:19:32Z</time>
      </trkpt>
      <trkpt lat="44.53446" lon="6.27487">
        <ele>910.025146</ele>
        <time>2011-03-18T11:19:39Z</time>
      </trkpt>
      <trkpt lat="44.53466" lon="6.27473">
        <ele>905.699219</ele>
        <time>2011-03-18T11:19:42Z</time>
      </trkpt>
      <trkpt lat="44.53473" lon="6.27468">
        <ele>905.699219</ele>
        <time>2011-03-18T11:19:43Z</time>
      </trkpt>
      <trkpt lat="44.53497" lon="6.27454">
        <ele>901.854004</ele>
        <time>2011-03-18T11:19:46Z</time>
      </trkpt>
      <trkpt lat="44.53504" lon="6.27449">
        <ele>901.854004</ele>
        <time>2011-03-18T11:19:47Z</time>
      </trkpt>
      <trkpt lat="44.53536" lon="6.27423">
        <ele>899.450684</ele>
        <time>2011-03-18T11:19:52Z</time>
      </trkpt>
      <trkpt lat="44.53549" lon="6.27414">
        <ele>898.008789</ele>
        <time>2011-03-18T11:19:54Z</time>
      </trkpt>
      <trkpt lat="44.53579" lon="6.2741">
        <ele>893.202148</ele>
        <time>2011-03-18T11:19:58Z</time>
      </trkpt>
      <trkpt lat="44.53586" lon="6.27411">
        <ele>893.202148</ele>
        <time>2011-03-18T11:19:59Z</time>
      </trkpt>
      <trkpt lat="44.53602" lon="6.27416">
        <ele>891.279297</ele>
        <time>2011-03-18T11:20:01Z</time>
      </trkpt>
      <trkpt lat="44.53636" lon="6.27424">
        <ele>886.953369</ele>
        <time>2011-03-18T11:20:05Z</time>
      </trkpt>
      <trkpt lat="44.53645" lon="6.27427">
        <ele>886.953369</ele>
        <time>2011-03-18T11:20:06Z</time>
      </trkpt>
      <trkpt lat="44.53662" lon="6.27431">
        <ele>885.031006</ele>
        <time>2011-03-18T11:20:08Z</time>
      </trkpt>
      <trkpt lat="44.5375" lon="6.27448">
        <ele>883.108154</ele>
        <time>2011-03-18T11:20:21Z</time>
      </trkpt>
      <trkpt lat="44.53839" lon="6.27438">
        <ele>879.743652</ele>
        <time>2011-03-18T11:20:35Z</time>
      </trkpt>
      <trkpt lat="44.53927" lon="6.27454">
        <ele>877.821045</ele>
        <time>2011-03-18T11:20:50Z</time>
      </trkpt>
      <trkpt lat="44.54013" lon="6.27476">
        <ele>877.340576</ele>
        <time>2011-03-18T11:21:07Z</time>
      </trkpt>
      <trkpt lat="44.54029" lon="6.27481">
        <ele>874.937012</ele>
        <time>2011-03-18T11:21:10Z</time>
      </trkpt>
      <trkpt lat="44.54073" lon="6.27461">
        <ele>874.456299</ele>
        <time>2011-03-18T11:21:18Z</time>
      </trkpt>
      <trkpt lat="44.54104" lon="6.27449">
        <ele>871.572266</ele>
        <time>2011-03-18T11:21:23Z</time>
      </trkpt>
      <trkpt lat="44.54111" lon="6.27448">
        <ele>871.572266</ele>
        <time>2011-03-18T11:21:24Z</time>
      </trkpt>
      <trkpt lat="44.5413" lon="6.27443">
        <ele>870.611084</ele>
        <time>2011-03-18T11:21:27Z</time>
      </trkpt>
      <trkpt lat="44.54154" lon="6.27441">
        <ele>868.688477</ele>
        <time>2011-03-18T11:21:31Z</time>
      </trkpt>
      <trkpt lat="44.54181" lon="6.27459">
        <ele>866.285156</ele>
        <time>2011-03-18T11:21:36Z</time>
      </trkpt>
      <trkpt lat="44.54188" lon="6.27472">
        <ele>864.843262</ele>
        <time>2011-03-18T11:21:38Z</time>
      </trkpt>
      <trkpt lat="44.54197" lon="6.27485">
        <ele>864.362549</ele>
        <time>2011-03-18T11:21:40Z</time>
      </trkpt>
      <trkpt lat="44.54246" lon="6.27525">
        <ele>863.401367</ele>
        <time>2011-03-18T11:21:50Z</time>
      </trkpt>
      <trkpt lat="44.54257" lon="6.27562">
        <ele>863.401367</ele>
        <time>2011-03-18T11:22:01Z</time>
      </trkpt>
      <trkpt lat="44.54243" lon="6.27579">
        <ele>861.47876</ele>
        <time>2011-03-18T11:22:05Z</time>
      </trkpt>
      <trkpt lat="44.54214" lon="6.27609">
        <ele>859.075195</ele>
        <time>2011-03-18T11:22:11Z</time>
      </trkpt>
      <trkpt lat="44.54208" lon="6.27637">
        <ele>858.114014</ele>
        <time>2011-03-18T11:22:18Z</time>
      </trkpt>
      <trkpt lat="44.54213" lon="6.27643">
        <ele>856.671875</ele>
        <time>2011-03-18T11:22:20Z</time>
      </trkpt>
      <trkpt lat="44.54223" lon="6.27654">
        <ele>855.710693</ele>
        <time>2011-03-18T11:22:24Z</time>
      </trkpt>
      <trkpt lat="44.54236" lon="6.27648">
        <ele>856.671875</ele>
        <time>2011-03-18T11:22:29Z</time>
      </trkpt>
      <trkpt lat="44.54271" lon="6.276">
        <ele>860.036621</ele>
        <time>2011-03-18T11:22:49Z</time>
      </trkpt>
      <trkpt lat="44.54298" lon="6.27567">
        <ele>861.959473</ele>
        <time>2011-03-18T11:23:04Z</time>
      </trkpt>
      <trkpt lat="44.54311" lon="6.2757">
        <ele>862.920654</ele>
        <time>2011-03-18T11:23:09Z</time>
      </trkpt>
      <trkpt lat="44.54351" lon="6.27592">
        <ele>865.323975</ele>
        <time>2011-03-18T11:23:27Z</time>
      </trkpt>
      <trkpt lat="44.54387" lon="6.27626">
        <ele>869.169189</ele>
        <time>2011-03-18T11:23:45Z</time>
      </trkpt>
      <trkpt lat="44.54415" lon="6.27664">
        <ele>871.091797</ele>
        <time>2011-03-18T11:24:02Z</time>
      </trkpt>
      <trkpt lat="44.54448" lon="6.27691">
        <ele>871.091797</ele>
        <time>2011-03-18T11:24:15Z</time>
      </trkpt>
      <trkpt lat="44.54484" lon="6.27685">
        <ele>871.572266</ele>
        <time>2011-03-18T11:24:29Z</time>
      </trkpt>
      <trkpt lat="44.54505" lon="6.27676">
        <ele>872.052979</ele>
        <time>2011-03-18T11:24:38Z</time>
      </trkpt>
      <trkpt lat="44.54529" lon="6.27661">
        <ele>873.014404</ele>
        <time>2011-03-18T11:24:51Z</time>
      </trkpt>
      <trkpt lat="44.54562" lon="6.27661">
        <ele>873.495117</ele>
        <time>2011-03-18T11:25:03Z</time>
      </trkpt>
      <trkpt lat="44.54577" lon="6.27662">
        <ele>875.41748</ele>
        <time>2011-03-18T11:25:08Z</time>
      </trkpt>
      <trkpt lat="44.54585" lon="6.27663">
        <ele>874.456299</ele>
        <time>2011-03-18T11:25:11Z</time>
      </trkpt>
      <trkpt lat="44.54633" lon="6.27694">
        <ele>875.898193</ele>
        <time>2011-03-18T11:25:34Z</time>
      </trkpt>
      <trkpt lat="44.54677" lon="6.27725">
        <ele>877.821045</ele>
        <time>2011-03-18T11:25:53Z</time>
      </trkpt>
      <trkpt lat="44.547" lon="6.27739">
        <ele>878.782471</ele>
        <time>2011-03-18T11:26:04Z</time>
      </trkpt>
      <trkpt lat="44.54708" lon="6.27738">
        <ele>879.262939</ele>
        <time>2011-03-18T11:26:08Z</time>
      </trkpt>
      <trkpt lat="44.5474" lon="6.27732">
        <ele>880.705078</ele>
        <time>2011-03-18T11:26:21Z</time>
      </trkpt>
      <trkpt lat="44.54783" lon="6.27725">
        <ele>882.146973</ele>
        <time>2011-03-18T11:26:38Z</time>
      </trkpt>
      <trkpt lat="44.54806" lon="6.27725">
        <ele>884.06958</ele>
        <time>2011-03-18T11:26:50Z</time>
      </trkpt>
      <trkpt lat="44.54803" lon="6.27719">
        <ele>883.108154</ele>
        <time>2011-03-18T11:26:54Z</time>
      </trkpt>
      <trkpt lat="44.54806" lon="6.27712">
        <ele>883.108154</ele>
        <time>2011-03-18T11:26:56Z</time>
      </trkpt>
      <trkpt lat="44.54813" lon="6.27698">
        <ele>882.627686</ele>
        <time>2011-03-18T11:27:00Z</time>
      </trkpt>
      <trkpt lat="44.54844" lon="6.27647">
        <ele>882.146973</ele>
        <time>2011-03-18T11:27:15Z</time>
      </trkpt>
      <trkpt lat="44.54881" lon="6.27581">
        <ele>881.66626</ele>
        <time>2011-03-18T11:27:31Z</time>
      </trkpt>
      <trkpt lat="44.54937" lon="6.27503">
        <ele>880.705078</ele>
        <time>2011-03-18T11:27:50Z</time>
      </trkpt>
      <trkpt lat="44.54993" lon="6.27415">
        <ele>879.743652</ele>
        <time>2011-03-18T11:28:10Z</time>
      </trkpt>
      <trkpt lat="44.55031" lon="6.27357">
        <ele>878.782471</ele>
        <time>2011-03-18T11:28:23Z</time>
      </trkpt>
      <trkpt lat="44.55045" lon="6.27332">
        <ele>879.743652</ele>
        <time>2011-03-18T11:28:28Z</time>
      </trkpt>
      <trkpt lat="44.55057" lon="6.27308">
        <ele>879.743652</ele>
        <time>2011-03-18T11:28:32Z</time>
      </trkpt>
      <trkpt lat="44.55131" lon="6.27215">
        <ele>875.898193</ele>
        <time>2011-03-18T11:28:50Z</time>
      </trkpt>
      <trkpt lat="44.55223" lon="6.27134">
        <ele>873.975586</ele>
        <time>2011-03-18T11:29:09Z</time>
      </trkpt>
      <trkpt lat="44.55238" lon="6.27121">
        <ele>873.495117</ele>
        <time>2011-03-18T11:29:12Z</time>
      </trkpt>
      <trkpt lat="44.55251" lon="6.27102">
        <ele>872.052979</ele>
        <time>2011-03-18T11:29:15Z</time>
      </trkpt>
      <trkpt lat="44.55303" lon="6.26999">
        <ele>870.611084</ele>
        <time>2011-03-18T11:29:29Z</time>
      </trkpt>
      <trkpt lat="44.55325" lon="6.26926">
        <ele>869.649902</ele>
        <time>2011-03-18T11:29:39Z</time>
      </trkpt>
      <trkpt lat="44.55327" lon="6.26892">
        <ele>867.727051</ele>
        <time>2011-03-18T11:29:43Z</time>
      </trkpt>
      <trkpt lat="44.55334" lon="6.26765">
        <ele>867.246582</ele>
        <time>2011-03-18T11:29:59Z</time>
      </trkpt>
      <trkpt lat="44.55334" lon="6.26753">
        <ele>868.688477</ele>
        <time>2011-03-18T11:30:01Z</time>
      </trkpt>
      <trkpt lat="44.55337" lon="6.26672">
        <ele>870.611084</ele>
        <time>2011-03-18T11:30:17Z</time>
      </trkpt>
      <trkpt lat="44.55337" lon="6.26666">
        <ele>869.169189</ele>
        <time>2011-03-18T11:30:18Z</time>
      </trkpt>
      <trkpt lat="44.5534" lon="6.26653">
        <ele>868.207764</ele>
        <time>2011-03-18T11:30:20Z</time>
      </trkpt>
      <trkpt lat="44.55354" lon="6.26612">
        <ele>868.207764</ele>
        <time>2011-03-18T11:30:27Z</time>
      </trkpt>
      <trkpt lat="44.5538" lon="6.26524">
        <ele>870.130371</ele>
        <time>2011-03-18T11:30:44Z</time>
      </trkpt>
      <trkpt lat="44.55403" lon="6.26465">
        <ele>871.572266</ele>
        <time>2011-03-18T11:30:59Z</time>
      </trkpt>
      <trkpt lat="44.55416" lon="6.26402">
        <ele>873.975586</ele>
        <time>2011-03-18T11:31:16Z</time>
      </trkpt>
      <trkpt lat="44.5542" lon="6.26319">
        <ele>873.975586</ele>
        <time>2011-03-18T11:31:35Z</time>
      </trkpt>
      <trkpt lat="44.5542" lon="6.26245">
        <ele>875.41748</ele>
        <time>2011-03-18T11:31:52Z</time>
      </trkpt>
      <trkpt lat="44.55422" lon="6.26187">
        <ele>876.859863</ele>
        <time>2011-03-18T11:32:08Z</time>
      </trkpt>
      <trkpt lat="44.55423" lon="6.26167">
        <ele>878.301758</ele>
        <time>2011-03-18T11:32:15Z</time>
      </trkpt>
      <trkpt lat="44.5543" lon="6.26133">
        <ele>879.262939</ele>
        <time>2011-03-18T11:32:27Z</time>
      </trkpt>
      <trkpt lat="44.55438" lon="6.26125">
        <ele>879.743652</ele>
        <time>2011-03-18T11:32:31Z</time>
      </trkpt>
      <trkpt lat="44.55464" lon="6.26098">
        <ele>883.108154</ele>
        <time>2011-03-18T11:32:47Z</time>
      </trkpt>
      <trkpt lat="44.55468" lon="6.26092">
        <ele>883.108154</ele>
        <time>2011-03-18T11:32:50Z</time>
      </trkpt>
      <trkpt lat="44.55488" lon="6.2606">
        <ele>885.992188</ele>
        <time>2011-03-18T11:33:07Z</time>
      </trkpt>
      <trkpt lat="44.5551" lon="6.26023">
        <ele>889.356689</ele>
        <time>2011-03-18T11:33:25Z</time>
      </trkpt>
      <trkpt lat="44.55532" lon="6.25994">
        <ele>891.76001</ele>
        <time>2011-03-18T11:33:41Z</time>
      </trkpt>
      <trkpt lat="44.55543" lon="6.25982">
        <ele>892.72168</ele>
        <time>2011-03-18T11:33:49Z</time>
      </trkpt>
      <trkpt lat="44.5555" lon="6.25978">
        <ele>894.163574</ele>
        <time>2011-03-18T11:33:53Z</time>
      </trkpt>
      <trkpt lat="44.55578" lon="6.25961">
        <ele>896.086182</ele>
        <time>2011-03-18T11:34:10Z</time>
      </trkpt>
      <trkpt lat="44.55608" lon="6.25938">
        <ele>898.008789</ele>
        <time>2011-03-18T11:34:28Z</time>
      </trkpt>
      <trkpt lat="44.55634" lon="6.2592">
        <ele>900.412109</ele>
        <time>2011-03-18T11:34:44Z</time>
      </trkpt>
      <trkpt lat="44.55658" lon="6.25878">
        <ele>903.776611</ele>
        <time>2011-03-18T11:35:04Z</time>
      </trkpt>
      <trkpt lat="44.55675" lon="6.2583">
        <ele>905.218506</ele>
        <time>2011-03-18T11:35:21Z</time>
      </trkpt>
      <trkpt lat="44.55686" lon="6.25788">
        <ele>905.699219</ele>
        <time>2011-03-18T11:35:38Z</time>
      </trkpt>
      <trkpt lat="44.55702" lon="6.25746">
        <ele>906.6604</ele>
        <time>2011-03-18T11:35:53Z</time>
      </trkpt>
      <trkpt lat="44.55718" lon="6.25718">
        <ele>910.025146</ele>
        <time>2011-03-18T11:36:05Z</time>
      </trkpt>
      <trkpt lat="44.55741" lon="6.25676">
        <ele>912.428467</ele>
        <time>2011-03-18T11:36:22Z</time>
      </trkpt>
      <trkpt lat="44.55777" lon="6.25627">
        <ele>913.389893</ele>
        <time>2011-03-18T11:36:38Z</time>
      </trkpt>
      <trkpt lat="44.55805" lon="6.25587">
        <ele>915.3125</ele>
        <time>2011-03-18T11:36:54Z</time>
      </trkpt>
      <trkpt lat="44.55816" lon="6.25554">
        <ele>917.235107</ele>
        <time>2011-03-18T11:37:07Z</time>
      </trkpt>
      <trkpt lat="44.55819" lon="6.25547">
        <ele>916.754395</ele>
        <time>2011-03-18T11:37:10Z</time>
      </trkpt>
      <trkpt lat="44.55838" lon="6.25491">
        <ele>920.118896</ele>
        <time>2011-03-18T11:37:31Z</time>
      </trkpt>
      <trkpt lat="44.55842" lon="6.25475">
        <ele>921.080322</ele>
        <time>2011-03-18T11:37:37Z</time>
      </trkpt>
      <trkpt lat="44.55855" lon="6.25434">
        <ele>924.445068</ele>
        <time>2011-03-18T11:37:54Z</time>
      </trkpt>
      <trkpt lat="44.55866" lon="6.25398">
        <ele>927.329102</ele>
        <time>2011-03-18T11:38:09Z</time>
      </trkpt>
      <trkpt lat="44.55883" lon="6.25378">
        <ele>930.693604</ele>
        <time>2011-03-18T11:38:22Z</time>
      </trkpt>
      <trkpt lat="44.55899" lon="6.25359">
        <ele>933.09668</ele>
        <time>2011-03-18T11:38:34Z</time>
      </trkpt>
      <trkpt lat="44.55914" lon="6.25344">
        <ele>934.538818</ele>
        <time>2011-03-18T11:38:45Z</time>
      </trkpt>
      <trkpt lat="44.55936" lon="6.25317">
        <ele>937.422607</ele>
        <time>2011-03-18T11:39:02Z</time>
      </trkpt>
      <trkpt lat="44.55953" lon="6.25274">
        <ele>937.422607</ele>
        <time>2011-03-18T11:39:18Z</time>
      </trkpt>
      <trkpt lat="44.55981" lon="6.2527">
        <ele>940.787354</ele>
        <time>2011-03-18T11:39:31Z</time>
      </trkpt>
      <trkpt lat="44.56028" lon="6.25252">
        <ele>943.190674</ele>
        <time>2011-03-18T11:39:54Z</time>
      </trkpt>
      <trkpt lat="44.56068" lon="6.25243">
        <ele>942.229492</ele>
        <time>2011-03-18T11:40:11Z</time>
      </trkpt>
      <trkpt lat="44.56074" lon="6.25226">
        <ele>943.671387</ele>
        <time>2011-03-18T11:40:16Z</time>
      </trkpt>
      <trkpt lat="44.56067" lon="6.25177">
        <ele>947.035889</ele>
        <time>2011-03-18T11:40:35Z</time>
      </trkpt>
      <trkpt lat="44.56073" lon="6.25148">
        <ele>949.919922</ele>
        <time>2011-03-18T11:40:48Z</time>
      </trkpt>
      <trkpt lat="44.56081" lon="6.25129">
        <ele>951.842529</ele>
        <time>2011-03-18T11:40:57Z</time>
      </trkpt>
      <trkpt lat="44.56089" lon="6.25111">
        <ele>952.803711</ele>
        <time>2011-03-18T11:41:05Z</time>
      </trkpt>
      <trkpt lat="44.56106" lon="6.25084">
        <ele>956.64917</ele>
        <time>2011-03-18T11:41:20Z</time>
      </trkpt>
      <trkpt lat="44.56129" lon="6.25057">
        <ele>960.013672</ele>
        <time>2011-03-18T11:41:38Z</time>
      </trkpt>
      <trkpt lat="44.56149" lon="6.25043">
        <ele>962.897705</ele>
        <time>2011-03-18T11:41:52Z</time>
      </trkpt>
      <trkpt lat="44.56175" lon="6.25015">
        <ele>965.301025</ele>
        <time>2011-03-18T11:42:12Z</time>
      </trkpt>
      <trkpt lat="44.56195" lon="6.24979">
        <ele>968.665527</ele>
        <time>2011-03-18T11:42:30Z</time>
      </trkpt>
      <trkpt lat="44.56208" lon="6.24949">
        <ele>972.030273</ele>
        <time>2011-03-18T11:42:45Z</time>
      </trkpt>
      <trkpt lat="44.56221" lon="6.24914">
        <ele>973.952881</ele>
        <time>2011-03-18T11:43:00Z</time>
      </trkpt>
      <trkpt lat="44.56243" lon="6.24854">
        <ele>976.836914</ele>
        <time>2011-03-18T11:43:24Z</time>
      </trkpt>
      <trkpt lat="44.56253" lon="6.24811">
        <ele>978.278809</ele>
        <time>2011-03-18T11:43:39Z</time>
      </trkpt>
      <trkpt lat="44.56277" lon="6.24783">
        <ele>981.643311</ele>
        <time>2011-03-18T11:43:55Z</time>
      </trkpt>
      <trkpt lat="44.56303" lon="6.24768">
        <ele>984.046631</ele>
        <time>2011-03-18T11:44:10Z</time>
      </trkpt>
      <trkpt lat="44.56324" lon="6.2476">
        <ele>985.969238</ele>
        <time>2011-03-18T11:44:24Z</time>
      </trkpt>
      <trkpt lat="44.56365" lon="6.24728">
        <ele>987.411133</ele>
        <time>2011-03-18T11:44:47Z</time>
      </trkpt>
      <trkpt lat="44.56404" lon="6.24705">
        <ele>988.853516</ele>
        <time>2011-03-18T11:45:05Z</time>
      </trkpt>
      <trkpt lat="44.56446" lon="6.24674">
        <ele>989.814697</ele>
        <time>2011-03-18T11:45:25Z</time>
      </trkpt>
      <trkpt lat="44.56494" lon="6.24639">
        <ele>991.737305</ele>
        <time>2011-03-18T11:45:49Z</time>
      </trkpt>
      <trkpt lat="44.56532" lon="6.24622">
        <ele>994.140625</ele>
        <time>2011-03-18T11:46:08Z</time>
      </trkpt>
      <trkpt lat="44.56569" lon="6.2461">
        <ele>995.58252</ele>
        <time>2011-03-18T11:46:25Z</time>
      </trkpt>
      <trkpt lat="44.56602" lon="6.24596">
        <ele>996.543945</ele>
        <time>2011-03-18T11:46:38Z</time>
      </trkpt>
      <trkpt lat="44.56647" lon="6.24572">
        <ele>998.466309</ele>
        <time>2011-03-18T11:46:56Z</time>
      </trkpt>
      <trkpt lat="44.56693" lon="6.24542">
        <ele>999.908447</ele>
        <time>2011-03-18T11:47:15Z</time>
      </trkpt>
      <trkpt lat="44.56734" lon="6.2451">
        <ele>1000.38916</ele>
        <time>2011-03-18T11:47:33Z</time>
      </trkpt>
      <trkpt lat="44.56766" lon="6.24465">
        <ele>1003.272949</ele>
        <time>2011-03-18T11:47:51Z</time>
      </trkpt>
      <trkpt lat="44.56787" lon="6.24433">
        <ele>1006.637695</ele>
        <time>2011-03-18T11:48:05Z</time>
      </trkpt>
      <trkpt lat="44.56814" lon="6.24403">
        <ele>1007.118408</ele>
        <time>2011-03-18T11:48:19Z</time>
      </trkpt>
      <trkpt lat="44.5686" lon="6.24356">
        <ele>1008.079834</ele>
        <time>2011-03-18T11:48:38Z</time>
      </trkpt>
      <trkpt lat="44.56872" lon="6.24346">
        <ele>1007.599121</ele>
        <time>2011-03-18T11:48:42Z</time>
      </trkpt>
      <trkpt lat="44.56897" lon="6.24337">
        <ele>1005.676514</ele>
        <time>2011-03-18T11:48:47Z</time>
      </trkpt>
      <trkpt lat="44.5691" lon="6.24329">
        <ele>1004.234619</ele>
        <time>2011-03-18T11:48:49Z</time>
      </trkpt>
      <trkpt lat="44.56922" lon="6.24316">
        <ele>1002.792236</ele>
        <time>2011-03-18T11:48:51Z</time>
      </trkpt>
      <trkpt lat="44.56927" lon="6.24307">
        <ele>1001.350342</ele>
        <time>2011-03-18T11:48:52Z</time>
      </trkpt>
      <trkpt lat="44.56943" lon="6.24276">
        <ele>996.543945</ele>
        <time>2011-03-18T11:48:55Z</time>
      </trkpt>
      <trkpt lat="44.56949" lon="6.24265">
        <ele>996.543945</ele>
        <time>2011-03-18T11:48:56Z</time>
      </trkpt>
      <trkpt lat="44.5699" lon="6.24165">
        <ele>996.063232</ele>
        <time>2011-03-18T11:49:05Z</time>
      </trkpt>
      <trkpt lat="44.56996" lon="6.24151">
        <ele>997.024414</ele>
        <time>2011-03-18T11:49:07Z</time>
      </trkpt>
      <trkpt lat="44.57" lon="6.24133">
        <ele>998.947021</ele>
        <time>2011-03-18T11:49:10Z</time>
      </trkpt>
      <trkpt lat="44.57006" lon="6.24067">
        <ele>1000.869629</ele>
        <time>2011-03-18T11:49:25Z</time>
      </trkpt>
      <trkpt lat="44.57009" lon="6.24001">
        <ele>1002.792236</ele>
        <time>2011-03-18T11:49:42Z</time>
      </trkpt>
      <trkpt lat="44.57007" lon="6.2392">
        <ele>1004.234619</ele>
        <time>2011-03-18T11:50:01Z</time>
      </trkpt>
      <trkpt lat="44.57003" lon="6.23862">
        <ele>1007.118408</ele>
        <time>2011-03-18T11:50:18Z</time>
      </trkpt>
      <trkpt lat="44.5699" lon="6.23822">
        <ele>1010.48291</ele>
        <time>2011-03-18T11:50:32Z</time>
      </trkpt>
      <trkpt lat="44.56989" lon="6.23817">
        <ele>1010.963623</ele>
        <time>2011-03-18T11:50:34Z</time>
      </trkpt>
      <trkpt lat="44.56992" lon="6.23752">
        <ele>1013.366943</ele>
        <time>2011-03-18T11:50:53Z</time>
      </trkpt>
      <trkpt lat="44.56997" lon="6.23714">
        <ele>1016.250732</ele>
        <time>2011-03-18T11:51:06Z</time>
      </trkpt>
      <trkpt lat="44.57" lon="6.23653">
        <ele>1016.731445</ele>
        <time>2011-03-18T11:51:21Z</time>
      </trkpt>
      <trkpt lat="44.57014" lon="6.23595">
        <ele>1014.328125</ele>
        <time>2011-03-18T11:51:30Z</time>
      </trkpt>
      <trkpt lat="44.5702" lon="6.23565">
        <ele>1011.444336</ele>
        <time>2011-03-18T11:51:34Z</time>
      </trkpt>
      <trkpt lat="44.5702" lon="6.23527">
        <ele>1012.405518</ele>
        <time>2011-03-18T11:51:39Z</time>
      </trkpt>
      <trkpt lat="44.57027" lon="6.23472">
        <ele>1012.405518</ele>
        <time>2011-03-18T11:51:47Z</time>
      </trkpt>
      <trkpt lat="44.57042" lon="6.2344">
        <ele>1013.366943</ele>
        <time>2011-03-18T11:51:53Z</time>
      </trkpt>
      <trkpt lat="44.57068" lon="6.23401">
        <ele>1014.328125</ele>
        <time>2011-03-18T11:52:03Z</time>
      </trkpt>
      <trkpt lat="44.57077" lon="6.23387">
        <ele>1013.847412</ele>
        <time>2011-03-18T11:52:06Z</time>
      </trkpt>
      <trkpt lat="44.571" lon="6.23316">
        <ele>1013.847412</ele>
        <time>2011-03-18T11:52:21Z</time>
      </trkpt>
      <trkpt lat="44.57122" lon="6.23258">
        <ele>1013.366943</ele>
        <time>2011-03-18T11:52:34Z</time>
      </trkpt>
      <trkpt lat="44.5716" lon="6.2317">
        <ele>1013.366943</ele>
        <time>2011-03-18T11:52:52Z</time>
      </trkpt>
      <trkpt lat="44.57181" lon="6.23143">
        <ele>1012.88623</ele>
        <time>2011-03-18T11:52:58Z</time>
      </trkpt>
      <trkpt lat="44.57196" lon="6.23132">
        <ele>1013.847412</ele>
        <time>2011-03-18T11:53:02Z</time>
      </trkpt>
      <trkpt lat="44.57238" lon="6.2308">
        <ele>1014.808838</ele>
        <time>2011-03-18T11:53:17Z</time>
      </trkpt>
      <trkpt lat="44.57256" lon="6.23056">
        <ele>1013.847412</ele>
        <time>2011-03-18T11:53:25Z</time>
      </trkpt>
      <trkpt lat="44.57293" lon="6.22975">
        <ele>1014.328125</ele>
        <time>2011-03-18T11:53:41Z</time>
      </trkpt>
      <trkpt lat="44.57302" lon="6.22943">
        <ele>1012.405518</ele>
        <time>2011-03-18T11:53:46Z</time>
      </trkpt>
      <trkpt lat="44.57311" lon="6.2291">
        <ele>1009.521729</ele>
        <time>2011-03-18T11:53:50Z</time>
      </trkpt>
      <trkpt lat="44.5732" lon="6.22877">
        <ele>1006.637695</ele>
        <time>2011-03-18T11:53:54Z</time>
      </trkpt>
      <trkpt lat="44.57336" lon="6.22841">
        <ele>1003.753662</ele>
        <time>2011-03-18T11:53:59Z</time>
      </trkpt>
      <trkpt lat="44.57342" lon="6.22827">
        <ele>1003.753662</ele>
        <time>2011-03-18T11:54:01Z</time>
      </trkpt>
      <trkpt lat="44.57332" lon="6.22757">
        <ele>1001.831055</ele>
        <time>2011-03-18T11:54:09Z</time>
      </trkpt>
      <trkpt lat="44.57323" lon="6.22741">
        <ele>1000.38916</ele>
        <time>2011-03-18T11:54:11Z</time>
      </trkpt>
      <trkpt lat="44.57314" lon="6.22725">
        <ele>999.427734</ele>
        <time>2011-03-18T11:54:13Z</time>
      </trkpt>
      <trkpt lat="44.5731" lon="6.22698">
        <ele>996.063232</ele>
        <time>2011-03-18T11:54:16Z</time>
      </trkpt>
      <trkpt lat="44.57311" lon="6.22678">
        <ele>995.101807</ele>
        <time>2011-03-18T11:54:18Z</time>
      </trkpt>
      <trkpt lat="44.57322" lon="6.22626">
        <ele>991.737305</ele>
        <time>2011-03-18T11:54:23Z</time>
      </trkpt>
      <trkpt lat="44.57325" lon="6.2258">
        <ele>989.814697</ele>
        <time>2011-03-18T11:54:27Z</time>
      </trkpt>
      <trkpt lat="44.57321" lon="6.22557">
        <ele>986.449951</ele>
        <time>2011-03-18T11:54:29Z</time>
      </trkpt>
      <trkpt lat="44.57323" lon="6.22483">
        <ele>983.085205</ele>
        <time>2011-03-18T11:54:36Z</time>
      </trkpt>
      <trkpt lat="44.57323" lon="6.22476">
        <ele>983.085205</ele>
        <time>2011-03-18T11:54:37Z</time>
      </trkpt>
      <trkpt lat="44.57322" lon="6.22463">
        <ele>981.643311</ele>
        <time>2011-03-18T11:54:39Z</time>
      </trkpt>
      <trkpt lat="44.57321" lon="6.22455">
        <ele>981.162842</ele>
        <time>2011-03-18T11:54:40Z</time>
      </trkpt>
      <trkpt lat="44.57328" lon="6.22426">
        <ele>978.759521</ele>
        <time>2011-03-18T11:54:44Z</time>
      </trkpt>
      <trkpt lat="44.57338" lon="6.22411">
        <ele>977.798096</ele>
        <time>2011-03-18T11:54:48Z</time>
      </trkpt>
      <trkpt lat="44.57357" lon="6.22385">
        <ele>975.394775</ele>
        <time>2011-03-18T11:54:55Z</time>
      </trkpt>
      <trkpt lat="44.57359" lon="6.22382">
        <ele>975.875488</ele>
        <time>2011-03-18T11:54:56Z</time>
      </trkpt>
      <trkpt lat="44.57362" lon="6.22375">
        <ele>974.433594</ele>
        <time>2011-03-18T11:55:00Z</time>
      </trkpt>
      <trkpt lat="44.57355" lon="6.22369">
        <ele>973.472412</ele>
        <time>2011-03-18T11:55:01Z</time>
      </trkpt>
      <trkpt lat="44.57324" lon="6.2235">
        <ele>970.107422</ele>
        <time>2011-03-18T11:55:06Z</time>
      </trkpt>
      <trkpt lat="44.57317" lon="6.22346">
        <ele>970.107422</ele>
        <time>2011-03-18T11:55:07Z</time>
      </trkpt>
      <trkpt lat="44.57285" lon="6.2233">
        <ele>967.223633</ele>
        <time>2011-03-18T11:55:11Z</time>
      </trkpt>
      <trkpt lat="44.57264" lon="6.22329">
        <ele>965.301025</ele>
        <time>2011-03-18T11:55:14Z</time>
      </trkpt>
      <trkpt lat="44.57251" lon="6.22325">
        <ele>963.858887</ele>
        <time>2011-03-18T11:55:16Z</time>
      </trkpt>
      <trkpt lat="44.57239" lon="6.22313">
        <ele>962.416992</ele>
        <time>2011-03-18T11:55:18Z</time>
      </trkpt>
      <trkpt lat="44.5723" lon="6.22295">
        <ele>959.05249</ele>
        <time>2011-03-18T11:55:20Z</time>
      </trkpt>
      <trkpt lat="44.57226" lon="6.22283">
        <ele>959.05249</ele>
        <time>2011-03-18T11:55:21Z</time>
      </trkpt>
      <trkpt lat="44.57225" lon="6.2227">
        <ele>958.091309</ele>
        <time>2011-03-18T11:55:22Z</time>
      </trkpt>
      <trkpt lat="44.57217" lon="6.22228">
        <ele>955.207031</ele>
        <time>2011-03-18T11:55:25Z</time>
      </trkpt>
      <trkpt lat="44.57211" lon="6.22191">
        <ele>952.322998</ele>
        <time>2011-03-18T11:55:28Z</time>
      </trkpt>
      <trkpt lat="44.57206" lon="6.22166">
        <ele>950.881104</ele>
        <time>2011-03-18T11:55:30Z</time>
      </trkpt>
      <trkpt lat="44.57202" lon="6.22139">
        <ele>948.958496</ele>
        <time>2011-03-18T11:55:32Z</time>
      </trkpt>
      <trkpt lat="44.57196" lon="6.22111">
        <ele>947.516602</ele>
        <time>2011-03-18T11:55:34Z</time>
      </trkpt>
      <trkpt lat="44.57187" lon="6.22085">
        <ele>943.671387</ele>
        <time>2011-03-18T11:55:36Z</time>
      </trkpt>
      <trkpt lat="44.57183" lon="6.22073">
        <ele>943.671387</ele>
        <time>2011-03-18T11:55:37Z</time>
      </trkpt>
      <trkpt lat="44.57172" lon="6.22049">
        <ele>942.229492</ele>
        <time>2011-03-18T11:55:39Z</time>
      </trkpt>
      <trkpt lat="44.57162" lon="6.22031">
        <ele>939.825928</ele>
        <time>2011-03-18T11:55:41Z</time>
      </trkpt>
      <trkpt lat="44.57147" lon="6.2201">
        <ele>938.384033</ele>
        <time>2011-03-18T11:55:44Z</time>
      </trkpt>
      <trkpt lat="44.57122" lon="6.21974">
        <ele>936.461426</ele>
        <time>2011-03-18T11:55:48Z</time>
      </trkpt>
      <trkpt lat="44.57109" lon="6.21955">
        <ele>933.09668</ele>
        <time>2011-03-18T11:55:50Z</time>
      </trkpt>
      <trkpt lat="44.57102" lon="6.21945">
        <ele>933.09668</ele>
        <time>2011-03-18T11:55:51Z</time>
      </trkpt>
      <trkpt lat="44.57088" lon="6.21925">
        <ele>930.693604</ele>
        <time>2011-03-18T11:55:53Z</time>
      </trkpt>
      <trkpt lat="44.57075" lon="6.21904">
        <ele>928.290283</ele>
        <time>2011-03-18T11:55:55Z</time>
      </trkpt>
      <trkpt lat="44.57062" lon="6.21882">
        <ele>924.445068</ele>
        <time>2011-03-18T11:55:57Z</time>
      </trkpt>
      <trkpt lat="44.57057" lon="6.21871">
        <ele>924.445068</ele>
        <time>2011-03-18T11:55:58Z</time>
      </trkpt>
      <trkpt lat="44.57046" lon="6.21848">
        <ele>922.522217</ele>
        <time>2011-03-18T11:56:00Z</time>
      </trkpt>
      <trkpt lat="44.5703" lon="6.21802">
        <ele>918.196289</ele>
        <time>2011-03-18T11:56:04Z</time>
      </trkpt>
      <trkpt lat="44.57027" lon="6.21789">
        <ele>918.196289</ele>
        <time>2011-03-18T11:56:05Z</time>
      </trkpt>
      <trkpt lat="44.57021" lon="6.21762">
        <ele>915.793213</ele>
        <time>2011-03-18T11:56:07Z</time>
      </trkpt>
      <trkpt lat="44.57017" lon="6.21736">
        <ele>913.389893</ele>
        <time>2011-03-18T11:56:09Z</time>
      </trkpt>
      <trkpt lat="44.57016" lon="6.21709">
        <ele>911.947998</ele>
        <time>2011-03-18T11:56:11Z</time>
      </trkpt>
      <trkpt lat="44.57016" lon="6.2168">
        <ele>907.141113</ele>
        <time>2011-03-18T11:56:13Z</time>
      </trkpt>
      <trkpt lat="44.57017" lon="6.21666">
        <ele>907.141113</ele>
        <time>2011-03-18T11:56:14Z</time>
      </trkpt>
      <trkpt lat="44.57018" lon="6.2164">
        <ele>905.699219</ele>
        <time>2011-03-18T11:56:16Z</time>
      </trkpt>
      <trkpt lat="44.57018" lon="6.21615">
        <ele>902.815186</ele>
        <time>2011-03-18T11:56:18Z</time>
      </trkpt>
      <trkpt lat="44.57018" lon="6.21592">
        <ele>904.737793</ele>
        <time>2011-03-18T11:56:20Z</time>
      </trkpt>
      <trkpt lat="44.57018" lon="6.21557">
        <ele>902.815186</ele>
        <time>2011-03-18T11:56:23Z</time>
      </trkpt>
      <trkpt lat="44.57017" lon="6.21484">
        <ele>898.969971</ele>
        <time>2011-03-18T11:56:29Z</time>
      </trkpt>
      <trkpt lat="44.57011" lon="6.21444">
        <ele>897.047363</ele>
        <time>2011-03-18T11:56:32Z</time>
      </trkpt>
      <trkpt lat="44.57005" lon="6.21416">
        <ele>893.682861</ele>
        <time>2011-03-18T11:56:34Z</time>
      </trkpt>
      <trkpt lat="44.57001" lon="6.21401">
        <ele>893.682861</ele>
        <time>2011-03-18T11:56:35Z</time>
      </trkpt>
      <trkpt lat="44.56992" lon="6.21373">
        <ele>891.76001</ele>
        <time>2011-03-18T11:56:37Z</time>
      </trkpt>
      <trkpt lat="44.56983" lon="6.21345">
        <ele>890.318115</ele>
        <time>2011-03-18T11:56:39Z</time>
      </trkpt>
      <trkpt lat="44.56943" lon="6.2123">
        <ele>886.4729</ele>
        <time>2011-03-18T11:56:48Z</time>
      </trkpt>
      <trkpt lat="44.56938" lon="6.21217">
        <ele>886.4729</ele>
        <time>2011-03-18T11:56:49Z</time>
      </trkpt>
      <trkpt lat="44.56933" lon="6.21204">
        <ele>882.627686</ele>
        <time>2011-03-18T11:56:50Z</time>
      </trkpt>
      <trkpt lat="44.56929" lon="6.21191">
        <ele>882.627686</ele>
        <time>2011-03-18T11:56:51Z</time>
      </trkpt>
      <trkpt lat="44.56918" lon="6.21166">
        <ele>881.185791</ele>
        <time>2011-03-18T11:56:53Z</time>
      </trkpt>
      <trkpt lat="44.56908" lon="6.21141">
        <ele>879.743652</ele>
        <time>2011-03-18T11:56:55Z</time>
      </trkpt>
      <trkpt lat="44.56838" lon="6.20976">
        <ele>875.898193</ele>
        <time>2011-03-18T11:57:10Z</time>
      </trkpt>
      <trkpt lat="44.56833" lon="6.20966">
        <ele>875.41748</ele>
        <time>2011-03-18T11:57:11Z</time>
      </trkpt>
      <trkpt lat="44.56793" lon="6.20866">
        <ele>873.975586</ele>
        <time>2011-03-18T11:57:21Z</time>
      </trkpt>
      <trkpt lat="44.56762" lon="6.20753">
        <ele>870.130371</ele>
        <time>2011-03-18T11:57:32Z</time>
      </trkpt>
      <trkpt lat="44.5676" lon="6.20743">
        <ele>870.130371</ele>
        <time>2011-03-18T11:57:33Z</time>
      </trkpt>
      <trkpt lat="44.56732" lon="6.20634">
        <ele>868.207764</ele>
        <time>2011-03-18T11:57:44Z</time>
      </trkpt>
      <trkpt lat="44.56701" lon="6.20505">
        <ele>867.727051</ele>
        <time>2011-03-18T11:58:00Z</time>
      </trkpt>
      <trkpt lat="44.56658" lon="6.20381">
        <ele>864.843262</ele>
        <time>2011-03-18T11:58:17Z</time>
      </trkpt>
      <trkpt lat="44.56573" lon="6.2022">
        <ele>863.401367</ele>
        <time>2011-03-18T11:58:38Z</time>
      </trkpt>
      <trkpt lat="44.56523" lon="6.20113">
        <ele>863.881836</ele>
        <time>2011-03-18T11:58:56Z</time>
      </trkpt>
      <trkpt lat="44.56499" lon="6.20053">
        <ele>863.881836</ele>
        <time>2011-03-18T11:59:07Z</time>
      </trkpt>
      <trkpt lat="44.56477" lon="6.2">
        <ele>865.323975</ele>
        <time>2011-03-18T11:59:21Z</time>
      </trkpt>
      <trkpt lat="44.56469" lon="6.19977">
        <ele>865.323975</ele>
        <time>2011-03-18T11:59:29Z</time>
      </trkpt>
      <trkpt lat="44.56463" lon="6.19954">
        <ele>863.881836</ele>
        <time>2011-03-18T11:59:33Z</time>
      </trkpt>
      <trkpt lat="44.56474" lon="6.19868">
        <ele>860.036621</ele>
        <time>2011-03-18T11:59:44Z</time>
      </trkpt>
      <trkpt lat="44.56486" lon="6.1979">
        <ele>860.517334</ele>
        <time>2011-03-18T11:59:56Z</time>
      </trkpt>
      <trkpt lat="44.5649" lon="6.1971">
        <ele>860.036621</ele>
        <time>2011-03-18T12:00:14Z</time>
      </trkpt>
      <trkpt lat="44.56572" lon="6.19646">
        <ele>860.036621</ele>
        <time>2011-03-18T12:00:32Z</time>
      </trkpt>
      <trkpt lat="44.56605" lon="6.19579">
        <ele>860.998047</ele>
        <time>2011-03-18T12:00:49Z</time>
      </trkpt>
      <trkpt lat="44.56596" lon="6.19505">
        <ele>859.075195</ele>
        <time>2011-03-18T12:01:04Z</time>
      </trkpt>
      <trkpt lat="44.56588" lon="6.19475">
        <ele>860.517334</ele>
        <time>2011-03-18T12:01:10Z</time>
      </trkpt>
      <trkpt lat="44.56573" lon="6.19415">
        <ele>860.517334</ele>
        <time>2011-03-18T12:01:20Z</time>
      </trkpt>
      <trkpt lat="44.56571" lon="6.19409">
        <ele>858.594482</ele>
        <time>2011-03-18T12:01:21Z</time>
      </trkpt>
      <trkpt lat="44.56563" lon="6.19363">
        <ele>857.152588</ele>
        <time>2011-03-18T12:01:28Z</time>
      </trkpt>
      <trkpt lat="44.56566" lon="6.19338">
        <ele>856.671875</ele>
        <time>2011-03-18T12:01:32Z</time>
      </trkpt>
      <trkpt lat="44.5657" lon="6.19328">
        <ele>858.114014</ele>
        <time>2011-03-18T12:01:34Z</time>
      </trkpt>
      <trkpt lat="44.56609" lon="6.19233">
        <ele>857.633301</ele>
        <time>2011-03-18T12:01:55Z</time>
      </trkpt>
      <trkpt lat="44.56639" lon="6.19148">
        <ele>859.075195</ele>
        <time>2011-03-18T12:02:14Z</time>
      </trkpt>
      <trkpt lat="44.56644" lon="6.19129">
        <ele>859.555908</ele>
        <time>2011-03-18T12:02:24Z</time>
      </trkpt>
      <trkpt lat="44.56644" lon="6.19129">
        <ele>860.517334</ele>
        <time>2011-03-18T12:02:31Z</time>
      </trkpt>
      <trkpt lat="44.56644" lon="6.19129">
        <ele>860.517334</ele>
        <time>2011-03-18T12:02:39Z</time>
      </trkpt>
      <trkpt lat="44.56644" lon="6.19129">
        <ele>860.036621</ele>
        <time>2011-03-18T12:02:51Z</time>
      </trkpt>
      <trkpt lat="44.56644" lon="6.19129">
        <ele>860.998047</ele>
        <time>2011-03-18T12:02:54Z</time>
      </trkpt>
      <trkpt lat="44.56644" lon="6.19129">
        <ele>860.036621</ele>
        <time>2011-03-18T12:03:06Z</time>
      </trkpt>
      <trkpt lat="44.56644" lon="6.1913">
        <ele>860.517334</ele>
        <time>2011-03-18T12:03:22Z</time>
      </trkpt>
      <trkpt lat="44.56644" lon="6.1913">
        <ele>860.517334</ele>
        <time>2011-03-18T12:05:36Z</time>
      </trkpt>
      <trkpt lat="44.5666" lon="6.19086">
        <ele>860.036621</ele>
        <time>2011-03-18T12:05:51Z</time>
      </trkpt>
      <trkpt lat="44.56688" lon="6.19035">
        <ele>860.036621</ele>
        <time>2011-03-18T12:06:05Z</time>
      </trkpt>
      <trkpt lat="44.56733" lon="6.18963">
        <ele>859.075195</ele>
        <time>2011-03-18T12:06:25Z</time>
      </trkpt>
      <trkpt lat="44.56788" lon="6.18876">
        <ele>858.594482</ele>
        <time>2011-03-18T12:06:51Z</time>
      </trkpt>
      <trkpt lat="44.56807" lon="6.18844">
        <ele>857.633301</ele>
        <time>2011-03-18T12:06:59Z</time>
      </trkpt>
      <trkpt lat="44.56852" lon="6.18759">
        <ele>854.749268</ele>
        <time>2011-03-18T12:07:15Z</time>
      </trkpt>
      <trkpt lat="44.5686" lon="6.1874">
        <ele>858.114014</ele>
        <time>2011-03-18T12:07:18Z</time>
      </trkpt>
      <trkpt lat="44.56885" lon="6.18674">
        <ele>855.22998</ele>
        <time>2011-03-18T12:07:27Z</time>
      </trkpt>
      <trkpt lat="44.56901" lon="6.18622">
        <ele>850.904053</ele>
        <time>2011-03-18T12:07:33Z</time>
      </trkpt>
      <trkpt lat="44.56903" lon="6.18612">
        <ele>850.904053</ele>
        <time>2011-03-18T12:07:34Z</time>
      </trkpt>
      <trkpt lat="44.56912" lon="6.18572">
        <ele>850.423584</ele>
        <time>2011-03-18T12:07:38Z</time>
      </trkpt>
      <trkpt lat="44.5692" lon="6.18531">
        <ele>847.058838</ele>
        <time>2011-03-18T12:07:42Z</time>
      </trkpt>
      <trkpt lat="44.56922" lon="6.18521">
        <ele>847.058838</ele>
        <time>2011-03-18T12:07:43Z</time>
      </trkpt>
      <trkpt lat="44.56937" lon="6.18433">
        <ele>845.616943</ele>
        <time>2011-03-18T12:07:52Z</time>
      </trkpt>
      <trkpt lat="44.56955" lon="6.18329">
        <ele>845.616943</ele>
        <time>2011-03-18T12:08:06Z</time>
      </trkpt>
      <trkpt lat="44.56958" lon="6.18316">
        <ele>843.213379</ele>
        <time>2011-03-18T12:08:08Z</time>
      </trkpt>
      <trkpt lat="44.56966" lon="6.18287">
        <ele>846.097656</ele>
        <time>2011-03-18T12:08:13Z</time>
      </trkpt>
      <trkpt lat="44.56969" lon="6.18275">
        <ele>844.175049</ele>
        <time>2011-03-18T12:08:15Z</time>
      </trkpt>
      <trkpt lat="44.56977" lon="6.18245">
        <ele>846.578369</ele>
        <time>2011-03-18T12:08:20Z</time>
      </trkpt>
      <trkpt lat="44.56981" lon="6.18232">
        <ele>848.981445</ele>
        <time>2011-03-18T12:08:22Z</time>
      </trkpt>
      <trkpt lat="44.56987" lon="6.18213">
        <ele>846.097656</ele>
        <time>2011-03-18T12:08:25Z</time>
      </trkpt>
      <trkpt lat="44.56989" lon="6.18207">
        <ele>842.252197</ele>
        <time>2011-03-18T12:08:26Z</time>
      </trkpt>
      <trkpt lat="44.56991" lon="6.18201">
        <ele>842.252197</ele>
        <time>2011-03-18T12:08:27Z</time>
      </trkpt>
      <trkpt lat="44.56997" lon="6.18181">
        <ele>841.771484</ele>
        <time>2011-03-18T12:08:31Z</time>
      </trkpt>
      <trkpt lat="44.56999" lon="6.18176">
        <ele>845.13623</ele>
        <time>2011-03-18T12:08:32Z</time>
      </trkpt>
      <trkpt lat="44.57003" lon="6.18166">
        <ele>848.020264</ele>
        <time>2011-03-18T12:08:34Z</time>
      </trkpt>
      <trkpt lat="44.57012" lon="6.1814">
        <ele>844.655518</ele>
        <time>2011-03-18T12:08:39Z</time>
      </trkpt>
      <trkpt lat="44.57016" lon="6.18131">
        <ele>842.73291</ele>
        <time>2011-03-18T12:08:41Z</time>
      </trkpt>
      <trkpt lat="44.5702" lon="6.18121">
        <ele>844.175049</ele>
        <time>2011-03-18T12:08:43Z</time>
      </trkpt>
      <trkpt lat="44.57023" lon="6.18111">
        <ele>845.616943</ele>
        <time>2011-03-18T12:08:45Z</time>
      </trkpt>
      <trkpt lat="44.57029" lon="6.18096">
        <ele>843.694092</ele>
        <time>2011-03-18T12:08:48Z</time>
      </trkpt>
      <trkpt lat="44.57036" lon="6.18078">
        <ele>846.097656</ele>
        <time>2011-03-18T12:08:52Z</time>
      </trkpt>
      <trkpt lat="44.57079" lon="6.17962">
        <ele>845.616943</ele>
        <time>2011-03-18T12:09:17Z</time>
      </trkpt>
      <trkpt lat="44.57084" lon="6.17949">
        <ele>847.058838</ele>
        <time>2011-03-18T12:09:20Z</time>
      </trkpt>
      <trkpt lat="44.57101" lon="6.17905">
        <ele>846.578369</ele>
        <time>2011-03-18T12:09:29Z</time>
      </trkpt>
      <trkpt lat="44.57134" lon="6.17816">
        <ele>844.175049</ele>
        <time>2011-03-18T12:09:46Z</time>
      </trkpt>
      <trkpt lat="44.57143" lon="6.17795">
        <ele>846.097656</ele>
        <time>2011-03-18T12:09:50Z</time>
      </trkpt>
      <trkpt lat="44.57199" lon="6.17647">
        <ele>846.578369</ele>
        <time>2011-03-18T12:10:18Z</time>
      </trkpt>
      <trkpt lat="44.57208" lon="6.1762">
        <ele>844.655518</ele>
        <time>2011-03-18T12:10:23Z</time>
      </trkpt>
      <trkpt lat="44.57222" lon="6.17584">
        <ele>844.655518</ele>
        <time>2011-03-18T12:10:30Z</time>
      </trkpt>
      <trkpt lat="44.57226" lon="6.17574">
        <ele>847.058838</ele>
        <time>2011-03-18T12:10:32Z</time>
      </trkpt>
      <trkpt lat="44.57235" lon="6.17547">
        <ele>848.500732</ele>
        <time>2011-03-18T12:10:37Z</time>
      </trkpt>
      <trkpt lat="44.57281" lon="6.17423">
        <ele>848.500732</ele>
        <time>2011-03-18T12:10:59Z</time>
      </trkpt>
      <trkpt lat="44.57315" lon="6.17332">
        <ele>846.578369</ele>
        <time>2011-03-18T12:11:14Z</time>
      </trkpt>
      <trkpt lat="44.5732" lon="6.17319">
        <ele>845.13623</ele>
        <time>2011-03-18T12:11:16Z</time>
      </trkpt>
      <trkpt lat="44.57342" lon="6.17259">
        <ele>841.290771</ele>
        <time>2011-03-18T12:11:26Z</time>
      </trkpt>
      <trkpt lat="44.57349" lon="6.17241">
        <ele>843.213379</ele>
        <time>2011-03-18T12:11:29Z</time>
      </trkpt>
      <trkpt lat="44.57356" lon="6.17223">
        <ele>841.771484</ele>
        <time>2011-03-18T12:11:32Z</time>
      </trkpt>
      <trkpt lat="44.5736" lon="6.17211">
        <ele>839.848877</ele>
        <time>2011-03-18T12:11:34Z</time>
      </trkpt>
      <trkpt lat="44.57375" lon="6.17172">
        <ele>839.848877</ele>
        <time>2011-03-18T12:11:41Z</time>
      </trkpt>
      <trkpt lat="44.57382" lon="6.17156">
        <ele>841.771484</ele>
        <time>2011-03-18T12:11:44Z</time>
      </trkpt>
      <trkpt lat="44.5739" lon="6.17132">
        <ele>840.32959</ele>
        <time>2011-03-18T12:11:48Z</time>
      </trkpt>
      <trkpt lat="44.57395" lon="6.1712">
        <ele>842.252197</ele>
        <time>2011-03-18T12:11:50Z</time>
      </trkpt>
      <trkpt lat="44.57402" lon="6.17102">
        <ele>840.32959</ele>
        <time>2011-03-18T12:11:53Z</time>
      </trkpt>
      <trkpt lat="44.57411" lon="6.17078">
        <ele>841.771484</ele>
        <time>2011-03-18T12:11:57Z</time>
      </trkpt>
      <trkpt lat="44.57418" lon="6.1706">
        <ele>839.848877</ele>
        <time>2011-03-18T12:12:00Z</time>
      </trkpt>
      <trkpt lat="44.57448" lon="6.16977">
        <ele>842.252197</ele>
        <time>2011-03-18T12:12:14Z</time>
      </trkpt>
      <trkpt lat="44.57469" lon="6.1692">
        <ele>839.368164</ele>
        <time>2011-03-18T12:12:23Z</time>
      </trkpt>
      <trkpt lat="44.57532" lon="6.16751">
        <ele>834.561768</ele>
        <time>2011-03-18T12:12:48Z</time>
      </trkpt>
      <trkpt lat="44.57535" lon="6.16744">
        <ele>834.561768</ele>
        <time>2011-03-18T12:12:49Z</time>
      </trkpt>
      <trkpt lat="44.57546" lon="6.16714">
        <ele>837.92627</ele>
        <time>2011-03-18T12:12:54Z</time>
      </trkpt>
      <trkpt lat="44.57549" lon="6.16708">
        <ele>837.92627</ele>
        <time>2011-03-18T12:12:55Z</time>
      </trkpt>
      <trkpt lat="44.57561" lon="6.16676">
        <ele>836.003662</ele>
        <time>2011-03-18T12:13:00Z</time>
      </trkpt>
      <trkpt lat="44.57591" lon="6.16598">
        <ele>838.406982</ele>
        <time>2011-03-18T12:13:12Z</time>
      </trkpt>
      <trkpt lat="44.57598" lon="6.16579">
        <ele>834.081055</ele>
        <time>2011-03-18T12:13:15Z</time>
      </trkpt>
      <trkpt lat="44.576" lon="6.16573">
        <ele>834.081055</ele>
        <time>2011-03-18T12:13:16Z</time>
      </trkpt>
      <trkpt lat="44.57607" lon="6.16554">
        <ele>832.158447</ele>
        <time>2011-03-18T12:13:19Z</time>
      </trkpt>
      <trkpt lat="44.5763" lon="6.1649">
        <ele>830.23584</ele>
        <time>2011-03-18T12:13:30Z</time>
      </trkpt>
      <trkpt lat="44.57636" lon="6.16474">
        <ele>832.158447</ele>
        <time>2011-03-18T12:13:33Z</time>
      </trkpt>
      <trkpt lat="44.57657" lon="6.16414">
        <ele>832.63916</ele>
        <time>2011-03-18T12:13:44Z</time>
      </trkpt>
      <trkpt lat="44.5766" lon="6.16404">
        <ele>831.197266</ele>
        <time>2011-03-18T12:13:46Z</time>
      </trkpt>
      <trkpt lat="44.57674" lon="6.16359">
        <ele>833.119629</ele>
        <time>2011-03-18T12:13:55Z</time>
      </trkpt>
      <trkpt lat="44.57682" lon="6.16334">
        <ele>835.522949</ele>
        <time>2011-03-18T12:14:00Z</time>
      </trkpt>
      <trkpt lat="44.57686" lon="6.16314">
        <ele>831.197266</ele>
        <time>2011-03-18T12:14:04Z</time>
      </trkpt>
      <trkpt lat="44.57687" lon="6.16308">
        <ele>831.197266</ele>
        <time>2011-03-18T12:14:05Z</time>
      </trkpt>
      <trkpt lat="44.57693" lon="6.16274">
        <ele>833.119629</ele>
        <time>2011-03-18T12:14:12Z</time>
      </trkpt>
      <trkpt lat="44.57695" lon="6.16264">
        <ele>835.04248</ele>
        <time>2011-03-18T12:14:14Z</time>
      </trkpt>
      <trkpt lat="44.57701" lon="6.162">
        <ele>836.964844</ele>
        <time>2011-03-18T12:14:26Z</time>
      </trkpt>
      <trkpt lat="44.57703" lon="6.16177">
        <ele>835.04248</ele>
        <time>2011-03-18T12:14:30Z</time>
      </trkpt>
      <trkpt lat="44.57705" lon="6.16117">
        <ele>832.63916</ele>
        <time>2011-03-18T12:14:40Z</time>
      </trkpt>
      <trkpt lat="44.57709" lon="6.16001">
        <ele>833.119629</ele>
        <time>2011-03-18T12:14:56Z</time>
      </trkpt>
      <trkpt lat="44.57709" lon="6.1595">
        <ele>829.755127</ele>
        <time>2011-03-18T12:15:02Z</time>
      </trkpt>
      <trkpt lat="44.57709" lon="6.15941">
        <ele>829.755127</ele>
        <time>2011-03-18T12:15:03Z</time>
      </trkpt>
      <trkpt lat="44.57714" lon="6.15777">
        <ele>830.716553</ele>
        <time>2011-03-18T12:15:24Z</time>
      </trkpt>
      <trkpt lat="44.57715" lon="6.15692">
        <ele>831.197266</ele>
        <time>2011-03-18T12:15:37Z</time>
      </trkpt>
      <trkpt lat="44.57716" lon="6.15572">
        <ele>829.755127</ele>
        <time>2011-03-18T12:15:54Z</time>
      </trkpt>
      <trkpt lat="44.57718" lon="6.15507">
        <ele>828.793945</ele>
        <time>2011-03-18T12:16:03Z</time>
      </trkpt>
      <trkpt lat="44.57719" lon="6.15473">
        <ele>826.390381</ele>
        <time>2011-03-18T12:16:08Z</time>
      </trkpt>
      <trkpt lat="44.57719" lon="6.1546">
        <ele>827.832275</ele>
        <time>2011-03-18T12:16:10Z</time>
      </trkpt>
      <trkpt lat="44.57721" lon="6.154">
        <ele>825.909668</ele>
        <time>2011-03-18T12:16:19Z</time>
      </trkpt>
      <trkpt lat="44.57722" lon="6.15332">
        <ele>825.909668</ele>
        <time>2011-03-18T12:16:28Z</time>
      </trkpt>
      <trkpt lat="44.57724" lon="6.15273">
        <ele>823.506592</ele>
        <time>2011-03-18T12:16:35Z</time>
      </trkpt>
      <trkpt lat="44.57724" lon="6.15265">
        <ele>826.871094</ele>
        <time>2011-03-18T12:16:36Z</time>
      </trkpt>
      <trkpt lat="44.57724" lon="6.15256">
        <ele>825.909668</ele>
        <time>2011-03-18T12:16:37Z</time>
      </trkpt>
      <trkpt lat="44.57725" lon="6.15213">
        <ele>824.467773</ele>
        <time>2011-03-18T12:16:42Z</time>
      </trkpt>
      <trkpt lat="44.57726" lon="6.15196">
        <ele>827.832275</ele>
        <time>2011-03-18T12:16:44Z</time>
      </trkpt>
      <trkpt lat="44.57726" lon="6.15188">
        <ele>827.832275</ele>
        <time>2011-03-18T12:16:45Z</time>
      </trkpt>
      <trkpt lat="44.57727" lon="6.15163">
        <ele>823.025879</ele>
        <time>2011-03-18T12:16:48Z</time>
      </trkpt>
      <trkpt lat="44.57727" lon="6.15154">
        <ele>823.025879</ele>
        <time>2011-03-18T12:16:49Z</time>
      </trkpt>
      <trkpt lat="44.57727" lon="6.15147">
        <ele>819.661377</ele>
        <time>2011-03-18T12:16:50Z</time>
      </trkpt>
      <trkpt lat="44.57727" lon="6.15126">
        <ele>823.987061</ele>
        <time>2011-03-18T12:16:53Z</time>
      </trkpt>
      <trkpt lat="44.57728" lon="6.15118">
        <ele>823.987061</ele>
        <time>2011-03-18T12:16:54Z</time>
      </trkpt>
      <trkpt lat="44.57729" lon="6.15079">
        <ele>821.58374</ele>
        <time>2011-03-18T12:16:59Z</time>
      </trkpt>
      <trkpt lat="44.57729" lon="6.15072">
        <ele>817.258057</ele>
        <time>2011-03-18T12:17:00Z</time>
      </trkpt>
      <trkpt lat="44.57729" lon="6.15064">
        <ele>817.258057</ele>
        <time>2011-03-18T12:17:01Z</time>
      </trkpt>
      <trkpt lat="44.57729" lon="6.15056">
        <ele>821.103271</ele>
        <time>2011-03-18T12:17:02Z</time>
      </trkpt>
      <trkpt lat="44.5773" lon="6.15047">
        <ele>821.103271</ele>
        <time>2011-03-18T12:17:03Z</time>
      </trkpt>
      <trkpt lat="44.57731" lon="6.15006">
        <ele>819.180664</ele>
        <time>2011-03-18T12:17:08Z</time>
      </trkpt>
      <trkpt lat="44.57731" lon="6.14989">
        <ele>820.622559</ele>
        <time>2011-03-18T12:17:10Z</time>
      </trkpt>
      <trkpt lat="44.57732" lon="6.14972">
        <ele>818.699951</ele>
        <time>2011-03-18T12:17:12Z</time>
      </trkpt>
      <trkpt lat="44.57737" lon="6.1485">
        <ele>815.816162</ele>
        <time>2011-03-18T12:17:26Z</time>
      </trkpt>
      <trkpt lat="44.57737" lon="6.14793">
        <ele>817.738525</ele>
        <time>2011-03-18T12:17:36Z</time>
      </trkpt>
      <trkpt lat="44.57737" lon="6.14793">
        <ele>817.738525</ele>
        <time>2011-03-18T12:19:02Z</time>
      </trkpt>
      <trkpt lat="44.57737" lon="6.14793">
        <ele>818.699951</ele>
        <time>2011-03-18T12:19:48Z</time>
      </trkpt>
      <trkpt lat="44.57737" lon="6.1479">
        <ele>818.219238</ele>
        <time>2011-03-18T12:19:52Z</time>
      </trkpt>
      <trkpt lat="44.57723" lon="6.14787">
        <ele>817.738525</ele>
        <time>2011-03-18T12:20:07Z</time>
      </trkpt>
      <trkpt lat="44.5772" lon="6.14786">
        <ele>817.738525</ele>
        <time>2011-03-18T12:20:08Z</time>
      </trkpt>
      <trkpt lat="44.57689" lon="6.14778">
        <ele>813.893311</ele>
        <time>2011-03-18T12:20:14Z</time>
      </trkpt>
      <trkpt lat="44.57684" lon="6.14776">
        <ele>813.893311</ele>
        <time>2011-03-18T12:20:15Z</time>
      </trkpt>
      <trkpt lat="44.57636" lon="6.14756">
        <ele>813.412842</ele>
        <time>2011-03-18T12:20:27Z</time>
      </trkpt>
      <trkpt lat="44.576" lon="6.14737">
        <ele>810.047852</ele>
        <time>2011-03-18T12:20:34Z</time>
      </trkpt>
      <trkpt lat="44.57569" lon="6.14717">
        <ele>806.68335</ele>
        <time>2011-03-18T12:20:39Z</time>
      </trkpt>
      <trkpt lat="44.57562" lon="6.14714">
        <ele>806.68335</ele>
        <time>2011-03-18T12:20:40Z</time>
      </trkpt>
      <trkpt lat="44.5752" lon="6.14697">
        <ele>807.644775</ele>
        <time>2011-03-18T12:20:49Z</time>
      </trkpt>
      <trkpt lat="44.57517" lon="6.14698">
        <ele>808.125488</ele>
        <time>2011-03-18T12:20:50Z</time>
      </trkpt>
      <trkpt lat="44.57508" lon="6.14711">
        <ele>809.567383</ele>
        <time>2011-03-18T12:20:54Z</time>
      </trkpt>
      <trkpt lat="44.57507" lon="6.14738">
        <ele>811.48999</ele>
        <time>2011-03-18T12:21:02Z</time>
      </trkpt>
      <trkpt lat="44.57495" lon="6.14745">
        <ele>813.412842</ele>
        <time>2011-03-18T12:21:10Z</time>
      </trkpt>
      <trkpt lat="44.57492" lon="6.14737">
        <ele>814.854736</ele>
        <time>2011-03-18T12:21:12Z</time>
      </trkpt>
      <trkpt lat="44.57489" lon="6.14725">
        <ele>815.335449</ele>
        <time>2011-03-18T12:21:16Z</time>
      </trkpt>
      <trkpt lat="44.57475" lon="6.1473">
        <ele>816.777344</ele>
        <time>2011-03-18T12:21:24Z</time>
      </trkpt>
      <trkpt lat="44.57482" lon="6.14773">
        <ele>819.180664</ele>
        <time>2011-03-18T12:21:39Z</time>
      </trkpt>
      <trkpt lat="44.5748" lon="6.14777">
        <ele>819.661377</ele>
        <time>2011-03-18T12:21:41Z</time>
      </trkpt>
      <trkpt lat="44.57472" lon="6.14777">
        <ele>820.622559</ele>
        <time>2011-03-18T12:21:45Z</time>
      </trkpt>
      <trkpt lat="44.57447" lon="6.14763">
        <ele>822.064453</ele>
        <time>2011-03-18T12:21:58Z</time>
      </trkpt>
      <trkpt lat="44.57425" lon="6.1472">
        <ele>825.428955</ele>
        <time>2011-03-18T12:22:18Z</time>
      </trkpt>
      <trkpt lat="44.57422" lon="6.14691">
        <ele>828.313232</ele>
        <time>2011-03-18T12:22:29Z</time>
      </trkpt>
      <trkpt lat="44.57422" lon="6.14684">
        <ele>828.313232</ele>
        <time>2011-03-18T12:22:32Z</time>
      </trkpt>
      <trkpt lat="44.57422" lon="6.14636">
        <ele>832.158447</ele>
        <time>2011-03-18T12:22:50Z</time>
      </trkpt>
      <trkpt lat="44.57422" lon="6.14634">
        <ele>832.158447</ele>
        <time>2011-03-18T12:22:51Z</time>
      </trkpt>
      <trkpt lat="44.57406" lon="6.1459">
        <ele>835.522949</ele>
        <time>2011-03-18T12:23:09Z</time>
      </trkpt>
      <trkpt lat="44.57363" lon="6.14561">
        <ele>836.484375</ele>
        <time>2011-03-18T12:23:27Z</time>
      </trkpt>
      <trkpt lat="44.57307" lon="6.14547">
        <ele>835.04248</ele>
        <time>2011-03-18T12:23:47Z</time>
      </trkpt>
      <trkpt lat="44.57277" lon="6.14542">
        <ele>838.887695</ele>
        <time>2011-03-18T12:23:59Z</time>
      </trkpt>
      <trkpt lat="44.5726" lon="6.14539">
        <ele>840.810059</ele>
        <time>2011-03-18T12:24:06Z</time>
      </trkpt>
      <trkpt lat="44.57242" lon="6.14532">
        <ele>841.771484</ele>
        <time>2011-03-18T12:24:15Z</time>
      </trkpt>
      <trkpt lat="44.57221" lon="6.14508">
        <ele>845.13623</ele>
        <time>2011-03-18T12:24:29Z</time>
      </trkpt>
      <trkpt lat="44.57195" lon="6.14473">
        <ele>848.020264</ele>
        <time>2011-03-18T12:24:48Z</time>
      </trkpt>
      <trkpt lat="44.57167" lon="6.14441">
        <ele>850.904053</ele>
        <time>2011-03-18T12:25:05Z</time>
      </trkpt>
      <trkpt lat="44.57164" lon="6.14429">
        <ele>852.82666</ele>
        <time>2011-03-18T12:25:10Z</time>
      </trkpt>
      <trkpt lat="44.57171" lon="6.14392">
        <ele>854.749268</ele>
        <time>2011-03-18T12:25:25Z</time>
      </trkpt>
      <trkpt lat="44.57172" lon="6.14382">
        <ele>855.710693</ele>
        <time>2011-03-18T12:25:29Z</time>
      </trkpt>
      <trkpt lat="44.57174" lon="6.14373">
        <ele>856.671875</ele>
        <time>2011-03-18T12:25:33Z</time>
      </trkpt>
      <trkpt lat="44.57174" lon="6.14362">
        <ele>858.114014</ele>
        <time>2011-03-18T12:25:39Z</time>
      </trkpt>
      <trkpt lat="44.5717" lon="6.14355">
        <ele>858.594482</ele>
        <time>2011-03-18T12:25:43Z</time>
      </trkpt>
      <trkpt lat="44.57156" lon="6.14368">
        <ele>860.517334</ele>
        <time>2011-03-18T12:25:48Z</time>
      </trkpt>
      <trkpt lat="44.57124" lon="6.14408">
        <ele>861.47876</ele>
        <time>2011-03-18T12:26:07Z</time>
      </trkpt>
      <trkpt lat="44.57122" lon="6.1439">
        <ele>860.998047</ele>
        <time>2011-03-18T12:26:19Z</time>
      </trkpt>
      <trkpt lat="44.57106" lon="6.14352">
        <ele>861.47876</ele>
        <time>2011-03-18T12:26:32Z</time>
      </trkpt>
      <trkpt lat="44.57064" lon="6.14303">
        <ele>860.998047</ele>
        <time>2011-03-18T12:26:49Z</time>
      </trkpt>
      <trkpt lat="44.57048" lon="6.14286">
        <ele>859.075195</ele>
        <time>2011-03-18T12:27:01Z</time>
      </trkpt>
      <trkpt lat="44.56983" lon="6.14281">
        <ele>862.439941</ele>
        <time>2011-03-18T12:27:15Z</time>
      </trkpt>
      <trkpt lat="44.56981" lon="6.14281">
        <ele>862.439941</ele>
        <time>2011-03-18T12:27:16Z</time>
      </trkpt>
      <trkpt lat="44.56976" lon="6.14279">
        <ele>860.998047</ele>
        <time>2011-03-18T12:27:18Z</time>
      </trkpt>
      <trkpt lat="44.56956" lon="6.14277">
        <ele>863.881836</ele>
        <time>2011-03-18T12:27:27Z</time>
      </trkpt>
      <trkpt lat="44.56917" lon="6.14296">
        <ele>867.246582</ele>
        <time>2011-03-18T12:27:44Z</time>
      </trkpt>
      <trkpt lat="44.569" lon="6.14307">
        <ele>869.649902</ele>
        <time>2011-03-18T12:27:53Z</time>
      </trkpt>
      <trkpt lat="44.56896" lon="6.14298">
        <ele>870.611084</ele>
        <time>2011-03-18T12:28:06Z</time>
      </trkpt>
      <trkpt lat="44.56896" lon="6.14297">
        <ele>870.130371</ele>
        <time>2011-03-18T12:28:11Z</time>
      </trkpt>
      <trkpt lat="44.56903" lon="6.14292">
        <ele>866.285156</ele>
        <time>2011-03-18T12:28:16Z</time>
      </trkpt>
      <trkpt lat="44.56905" lon="6.1429">
        <ele>866.285156</ele>
        <time>2011-03-18T12:28:17Z</time>
      </trkpt>
      <trkpt lat="44.56912" lon="6.14286">
        <ele>868.207764</ele>
        <time>2011-03-18T12:28:21Z</time>
      </trkpt>
      <trkpt lat="44.56916" lon="6.14284">
        <ele>869.649902</ele>
        <time>2011-03-18T12:28:23Z</time>
      </trkpt>
      <trkpt lat="44.56951" lon="6.14256">
        <ele>867.727051</ele>
        <time>2011-03-18T12:28:36Z</time>
      </trkpt>
      <trkpt lat="44.56955" lon="6.14239">
        <ele>867.246582</ele>
        <time>2011-03-18T12:28:39Z</time>
      </trkpt>
      <trkpt lat="44.5696" lon="6.14222">
        <ele>864.843262</ele>
        <time>2011-03-18T12:28:42Z</time>
      </trkpt>
      <trkpt lat="44.56961" lon="6.14214">
        <ele>863.881836</ele>
        <time>2011-03-18T12:28:43Z</time>
      </trkpt>
      <trkpt lat="44.56962" lon="6.14199">
        <ele>862.920654</ele>
        <time>2011-03-18T12:28:45Z</time>
      </trkpt>
      <trkpt lat="44.56962" lon="6.14148">
        <ele>859.555908</ele>
        <time>2011-03-18T12:28:50Z</time>
      </trkpt>
      <trkpt lat="44.56963" lon="6.14125">
        <ele>858.114014</ele>
        <time>2011-03-18T12:28:52Z</time>
      </trkpt>
      <trkpt lat="44.56971" lon="6.14069">
        <ele>859.555908</ele>
        <time>2011-03-18T12:28:57Z</time>
      </trkpt>
      <trkpt lat="44.56973" lon="6.14049">
        <ele>860.517334</ele>
        <time>2011-03-18T12:28:59Z</time>
      </trkpt>
      <trkpt lat="44.56973" lon="6.14029">
        <ele>858.594482</ele>
        <time>2011-03-18T12:29:01Z</time>
      </trkpt>
      <trkpt lat="44.56972" lon="6.14018">
        <ele>856.191162</ele>
        <time>2011-03-18T12:29:02Z</time>
      </trkpt>
      <trkpt lat="44.56964" lon="6.13986">
        <ele>852.82666</ele>
        <time>2011-03-18T12:29:05Z</time>
      </trkpt>
      <trkpt lat="44.56961" lon="6.13976">
        <ele>852.82666</ele>
        <time>2011-03-18T12:29:06Z</time>
      </trkpt>
      <trkpt lat="44.56949" lon="6.13919">
        <ele>851.865479</ele>
        <time>2011-03-18T12:29:11Z</time>
      </trkpt>
      <trkpt lat="44.56947" lon="6.13896">
        <ele>850.904053</ele>
        <time>2011-03-18T12:29:13Z</time>
      </trkpt>
      <trkpt lat="44.56947" lon="6.13863">
        <ele>848.500732</ele>
        <time>2011-03-18T12:29:16Z</time>
      </trkpt>
      <trkpt lat="44.56931" lon="6.13722">
        <ele>848.981445</ele>
        <time>2011-03-18T12:29:31Z</time>
      </trkpt>
      <trkpt lat="44.5693" lon="6.13704">
        <ele>847.058838</ele>
        <time>2011-03-18T12:29:33Z</time>
      </trkpt>
      <trkpt lat="44.56925" lon="6.13667">
        <ele>847.058838</ele>
        <time>2011-03-18T12:29:37Z</time>
      </trkpt>
      <trkpt lat="44.56925" lon="6.13628">
        <ele>846.097656</ele>
        <time>2011-03-18T12:29:41Z</time>
      </trkpt>
      <trkpt lat="44.56925" lon="6.13596">
        <ele>842.252197</ele>
        <time>2011-03-18T12:29:44Z</time>
      </trkpt>
      <trkpt lat="44.56923" lon="6.13585">
        <ele>842.252197</ele>
        <time>2011-03-18T12:29:45Z</time>
      </trkpt>
      <trkpt lat="44.56917" lon="6.13562">
        <ele>840.32959</ele>
        <time>2011-03-18T12:29:47Z</time>
      </trkpt>
      <trkpt lat="44.56903" lon="6.13483">
        <ele>839.368164</ele>
        <time>2011-03-18T12:29:54Z</time>
      </trkpt>
      <trkpt lat="44.56895" lon="6.1341">
        <ele>842.73291</ele>
        <time>2011-03-18T12:30:02Z</time>
      </trkpt>
      <trkpt lat="44.56894" lon="6.13401">
        <ele>842.73291</ele>
        <time>2011-03-18T12:30:03Z</time>
      </trkpt>
      <trkpt lat="44.56884" lon="6.13335">
        <ele>839.848877</ele>
        <time>2011-03-18T12:30:10Z</time>
      </trkpt>
      <trkpt lat="44.56873" lon="6.13243">
        <ele>836.003662</ele>
        <time>2011-03-18T12:30:19Z</time>
      </trkpt>
      <trkpt lat="44.56872" lon="6.13233">
        <ele>836.003662</ele>
        <time>2011-03-18T12:30:20Z</time>
      </trkpt>
      <trkpt lat="44.5687" lon="6.13118">
        <ele>837.445557</ele>
        <time>2011-03-18T12:30:34Z</time>
      </trkpt>
      <trkpt lat="44.5687" lon="6.13086">
        <ele>838.887695</ele>
        <time>2011-03-18T12:30:39Z</time>
      </trkpt>
      <trkpt lat="44.5687" lon="6.13053">
        <ele>839.848877</ele>
        <time>2011-03-18T12:30:44Z</time>
      </trkpt>
      <trkpt lat="44.5684" lon="6.12902">
        <ele>838.887695</ele>
        <time>2011-03-18T12:31:07Z</time>
      </trkpt>
      <trkpt lat="44.56839" lon="6.12894">
        <ele>838.887695</ele>
        <time>2011-03-18T12:31:08Z</time>
      </trkpt>
      <trkpt lat="44.56834" lon="6.12873">
        <ele>840.32959</ele>
        <time>2011-03-18T12:31:11Z</time>
      </trkpt>
      <trkpt lat="44.56814" lon="6.12729">
        <ele>841.771484</ele>
        <time>2011-03-18T12:31:34Z</time>
      </trkpt>
      <trkpt lat="44.5681" lon="6.127">
        <ele>841.771484</ele>
        <time>2011-03-18T12:31:39Z</time>
      </trkpt>
      <trkpt lat="44.56796" lon="6.12677">
        <ele>842.252197</ele>
        <time>2011-03-18T12:31:44Z</time>
      </trkpt>
      <trkpt lat="44.56721" lon="6.12643">
        <ele>844.655518</ele>
        <time>2011-03-18T12:32:02Z</time>
      </trkpt>
      <trkpt lat="44.56684" lon="6.12622">
        <ele>848.020264</ele>
        <time>2011-03-18T12:32:14Z</time>
      </trkpt>
      <trkpt lat="44.56654" lon="6.12579">
        <ele>843.694092</ele>
        <time>2011-03-18T12:32:24Z</time>
      </trkpt>
      <trkpt lat="44.56649" lon="6.12572">
        <ele>843.694092</ele>
        <time>2011-03-18T12:32:25Z</time>
      </trkpt>
      <trkpt lat="44.5664" lon="6.12558">
        <ele>841.290771</ele>
        <time>2011-03-18T12:32:27Z</time>
      </trkpt>
      <trkpt lat="44.56629" lon="6.12542">
        <ele>838.887695</ele>
        <time>2011-03-18T12:32:29Z</time>
      </trkpt>
      <trkpt lat="44.56615" lon="6.12522">
        <ele>836.484375</ele>
        <time>2011-03-18T12:32:32Z</time>
      </trkpt>
      <trkpt lat="44.56605" lon="6.12508">
        <ele>835.04248</ele>
        <time>2011-03-18T12:32:34Z</time>
      </trkpt>
      <trkpt lat="44.56574" lon="6.12466">
        <ele>831.677734</ele>
        <time>2011-03-18T12:32:42Z</time>
      </trkpt>
      <trkpt lat="44.5657" lon="6.12461">
        <ele>831.677734</ele>
        <time>2011-03-18T12:32:43Z</time>
      </trkpt>
      <trkpt lat="44.56557" lon="6.12444">
        <ele>829.274414</ele>
        <time>2011-03-18T12:32:46Z</time>
      </trkpt>
      <trkpt lat="44.56537" lon="6.12424">
        <ele>828.793945</ele>
        <time>2011-03-18T12:32:50Z</time>
      </trkpt>
      <trkpt lat="44.56508" lon="6.12415">
        <ele>824.948486</ele>
        <time>2011-03-18T12:32:55Z</time>
      </trkpt>
      <trkpt lat="44.56495" lon="6.12422">
        <ele>822.545166</ele>
        <time>2011-03-18T12:32:57Z</time>
      </trkpt>
      <trkpt lat="44.5649" lon="6.12428">
        <ele>821.58374</ele>
        <time>2011-03-18T12:32:58Z</time>
      </trkpt>
      <trkpt lat="44.56466" lon="6.1245">
        <ele>821.103271</ele>
        <time>2011-03-18T12:33:02Z</time>
      </trkpt>
      <trkpt lat="44.5643" lon="6.1244">
        <ele>823.506592</ele>
        <time>2011-03-18T12:33:09Z</time>
      </trkpt>
      <trkpt lat="44.56428" lon="6.12434">
        <ele>823.506592</ele>
        <time>2011-03-18T12:33:10Z</time>
      </trkpt>
      <trkpt lat="44.56414" lon="6.12394">
        <ele>821.103271</ele>
        <time>2011-03-18T12:33:16Z</time>
      </trkpt>
      <trkpt lat="44.56408" lon="6.12378">
        <ele>819.661377</ele>
        <time>2011-03-18T12:33:18Z</time>
      </trkpt>
      <trkpt lat="44.56392" lon="6.1234">
        <ele>814.854736</ele>
        <time>2011-03-18T12:33:22Z</time>
      </trkpt>
      <trkpt lat="44.56387" lon="6.1233">
        <ele>814.854736</ele>
        <time>2011-03-18T12:33:23Z</time>
      </trkpt>
      <trkpt lat="44.56359" lon="6.12276">
        <ele>814.374023</ele>
        <time>2011-03-18T12:33:30Z</time>
      </trkpt>
      <trkpt lat="44.56349" lon="6.12261">
        <ele>812.932129</ele>
        <time>2011-03-18T12:33:32Z</time>
      </trkpt>
      <trkpt lat="44.56328" lon="6.12229">
        <ele>809.567383</ele>
        <time>2011-03-18T12:33:36Z</time>
      </trkpt>
      <trkpt lat="44.56324" lon="6.12221">
        <ele>809.567383</ele>
        <time>2011-03-18T12:33:37Z</time>
      </trkpt>
      <trkpt lat="44.56311" lon="6.12189">
        <ele>807.644775</ele>
        <time>2011-03-18T12:33:41Z</time>
      </trkpt>
      <trkpt lat="44.56298" lon="6.12146">
        <ele>804.760742</ele>
        <time>2011-03-18T12:33:46Z</time>
      </trkpt>
      <trkpt lat="44.56292" lon="6.12129">
        <ele>806.202637</ele>
        <time>2011-03-18T12:33:48Z</time>
      </trkpt>
      <trkpt lat="44.56286" lon="6.12112">
        <ele>804.760742</ele>
        <time>2011-03-18T12:33:50Z</time>
      </trkpt>
      <trkpt lat="44.56278" lon="6.12083">
        <ele>803.318848</ele>
        <time>2011-03-18T12:33:53Z</time>
      </trkpt>
      <trkpt lat="44.5627" lon="6.12033">
        <ele>800.435059</ele>
        <time>2011-03-18T12:33:58Z</time>
      </trkpt>
      <trkpt lat="44.56271" lon="6.1199">
        <ele>798.512207</ele>
        <time>2011-03-18T12:34:02Z</time>
      </trkpt>
      <trkpt lat="44.56273" lon="6.1198">
        <ele>793.224854</ele>
        <time>2011-03-18T12:34:03Z</time>
      </trkpt>
      <trkpt lat="44.56277" lon="6.11971">
        <ele>793.224854</ele>
        <time>2011-03-18T12:34:04Z</time>
      </trkpt>
      <trkpt lat="44.56281" lon="6.11962">
        <ele>792.263672</ele>
        <time>2011-03-18T12:34:05Z</time>
      </trkpt>
      <trkpt lat="44.56288" lon="6.11943">
        <ele>791.302246</ele>
        <time>2011-03-18T12:34:07Z</time>
      </trkpt>
      <trkpt lat="44.56292" lon="6.11934">
        <ele>791.782959</ele>
        <time>2011-03-18T12:34:08Z</time>
      </trkpt>
      <trkpt lat="44.56297" lon="6.11909">
        <ele>793.224854</ele>
        <time>2011-03-18T12:34:11Z</time>
      </trkpt>
      <trkpt lat="44.56296" lon="6.11889">
        <ele>789.860352</ele>
        <time>2011-03-18T12:34:13Z</time>
      </trkpt>
      <trkpt lat="44.56294" lon="6.11857">
        <ele>787.937744</ele>
        <time>2011-03-18T12:34:16Z</time>
      </trkpt>
      <trkpt lat="44.56293" lon="6.11846">
        <ele>789.379639</ele>
        <time>2011-03-18T12:34:17Z</time>
      </trkpt>
      <trkpt lat="44.56287" lon="6.11816">
        <ele>787.457031</ele>
        <time>2011-03-18T12:34:20Z</time>
      </trkpt>
      <trkpt lat="44.56282" lon="6.11808">
        <ele>786.49585</ele>
        <time>2011-03-18T12:34:21Z</time>
      </trkpt>
      <trkpt lat="44.56272" lon="6.11791">
        <ele>785.534424</ele>
        <time>2011-03-18T12:34:23Z</time>
      </trkpt>
      <trkpt lat="44.56252" lon="6.11758">
        <ele>784.573242</ele>
        <time>2011-03-18T12:34:27Z</time>
      </trkpt>
      <trkpt lat="44.56217" lon="6.11713">
        <ele>786.976318</ele>
        <time>2011-03-18T12:34:35Z</time>
      </trkpt>
      <trkpt lat="44.56218" lon="6.11682">
        <ele>785.534424</ele>
        <time>2011-03-18T12:34:41Z</time>
      </trkpt>
      <trkpt lat="44.56222" lon="6.11679">
        <ele>784.092529</ele>
        <time>2011-03-18T12:34:42Z</time>
      </trkpt>
      <trkpt lat="44.56233" lon="6.11669">
        <ele>784.573242</ele>
        <time>2011-03-18T12:34:45Z</time>
      </trkpt>
      <trkpt lat="44.5624" lon="6.11659">
        <ele>785.053955</ele>
        <time>2011-03-18T12:34:47Z</time>
      </trkpt>
      <trkpt lat="44.56251" lon="6.11629">
        <ele>784.573242</ele>
        <time>2011-03-18T12:34:52Z</time>
      </trkpt>
      <trkpt lat="44.56263" lon="6.11556">
        <ele>783.611816</ele>
        <time>2011-03-18T12:35:03Z</time>
      </trkpt>
      <trkpt lat="44.5629" lon="6.1148">
        <ele>780.247314</ele>
        <time>2011-03-18T12:35:15Z</time>
      </trkpt>
      <trkpt lat="44.56293" lon="6.11471">
        <ele>780.247314</ele>
        <time>2011-03-18T12:35:16Z</time>
      </trkpt>
      <trkpt lat="44.56301" lon="6.11451">
        <ele>778.324463</ele>
        <time>2011-03-18T12:35:18Z</time>
      </trkpt>
      <trkpt lat="44.56306" lon="6.1143">
        <ele>775.921143</ele>
        <time>2011-03-18T12:35:20Z</time>
      </trkpt>
      <trkpt lat="44.56314" lon="6.11399">
        <ele>773.518066</ele>
        <time>2011-03-18T12:35:23Z</time>
      </trkpt>
      <trkpt lat="44.56326" lon="6.1135">
        <ele>772.556641</ele>
        <time>2011-03-18T12:35:29Z</time>
      </trkpt>
      <trkpt lat="44.56324" lon="6.11318">
        <ele>773.037354</ele>
        <time>2011-03-18T12:35:34Z</time>
      </trkpt>
      <trkpt lat="44.56316" lon="6.11294">
        <ele>772.075928</ele>
        <time>2011-03-18T12:35:37Z</time>
      </trkpt>
      <trkpt lat="44.56309" lon="6.11276">
        <ele>770.15332</ele>
        <time>2011-03-18T12:35:39Z</time>
      </trkpt>
      <trkpt lat="44.56303" lon="6.11256">
        <ele>767.75</ele>
        <time>2011-03-18T12:35:41Z</time>
      </trkpt>
      <trkpt lat="44.56276" lon="6.11173">
        <ele>763.424072</ele>
        <time>2011-03-18T12:35:49Z</time>
      </trkpt>
      <trkpt lat="44.56273" lon="6.11163">
        <ele>763.424072</ele>
        <time>2011-03-18T12:35:50Z</time>
      </trkpt>
      <trkpt lat="44.56255" lon="6.11107">
        <ele>764.385498</ele>
        <time>2011-03-18T12:35:56Z</time>
      </trkpt>
      <trkpt lat="44.56252" lon="6.11094">
        <ele>765.827637</ele>
        <time>2011-03-18T12:35:58Z</time>
      </trkpt>
      <trkpt lat="44.56246" lon="6.11065">
        <ele>766.788818</ele>
        <time>2011-03-18T12:36:02Z</time>
      </trkpt>
      <trkpt lat="44.56248" lon="6.11037">
        <ele>765.827637</ele>
        <time>2011-03-18T12:36:05Z</time>
      </trkpt>
      <trkpt lat="44.56251" lon="6.11004">
        <ele>762.462646</ele>
        <time>2011-03-18T12:36:08Z</time>
      </trkpt>
      <trkpt lat="44.56252" lon="6.10993">
        <ele>762.462646</ele>
        <time>2011-03-18T12:36:09Z</time>
      </trkpt>
      <trkpt lat="44.56255" lon="6.10972">
        <ele>759.578857</ele>
        <time>2011-03-18T12:36:11Z</time>
      </trkpt>
      <trkpt lat="44.56256" lon="6.10961">
        <ele>759.578857</ele>
        <time>2011-03-18T12:36:12Z</time>
      </trkpt>
      <trkpt lat="44.56262" lon="6.10916">
        <ele>759.098145</ele>
        <time>2011-03-18T12:36:17Z</time>
      </trkpt>
      <trkpt lat="44.56277" lon="6.1085">
        <ele>759.098145</ele>
        <time>2011-03-18T12:36:25Z</time>
      </trkpt>
      <trkpt lat="44.56281" lon="6.10832">
        <ele>758.136963</ele>
        <time>2011-03-18T12:36:27Z</time>
      </trkpt>
      <trkpt lat="44.56303" lon="6.10798">
        <ele>755.733643</ele>
        <time>2011-03-18T12:36:32Z</time>
      </trkpt>
      <trkpt lat="44.56321" lon="6.10782">
        <ele>755.25293</ele>
        <time>2011-03-18T12:36:36Z</time>
      </trkpt>
      <trkpt lat="44.56334" lon="6.10755">
        <ele>753.811035</ele>
        <time>2011-03-18T12:36:40Z</time>
      </trkpt>
      <trkpt lat="44.56336" lon="6.10739">
        <ele>753.811035</ele>
        <time>2011-03-18T12:36:42Z</time>
      </trkpt>
      <trkpt lat="44.56357" lon="6.10632">
        <ele>753.811035</ele>
        <time>2011-03-18T12:36:57Z</time>
      </trkpt>
      <trkpt lat="44.56364" lon="6.10609">
        <ele>756.214111</ele>
        <time>2011-03-18T12:37:01Z</time>
      </trkpt>
      <trkpt lat="44.5637" lon="6.10583">
        <ele>756.214111</ele>
        <time>2011-03-18T12:37:05Z</time>
      </trkpt>
      <trkpt lat="44.5637" lon="6.10567">
        <ele>754.291748</ele>
        <time>2011-03-18T12:37:07Z</time>
      </trkpt>
      <trkpt lat="44.56356" lon="6.1041">
        <ele>751.888428</ele>
        <time>2011-03-18T12:37:25Z</time>
      </trkpt>
      <trkpt lat="44.56348" lon="6.10313">
        <ele>750.927002</ele>
        <time>2011-03-18T12:37:37Z</time>
      </trkpt>
      <trkpt lat="44.5634" lon="6.10189">
        <ele>749.004395</ele>
        <time>2011-03-18T12:37:51Z</time>
      </trkpt>
      <trkpt lat="44.56346" lon="6.10148">
        <ele>749.004395</ele>
        <time>2011-03-18T12:37:57Z</time>
      </trkpt>
      <trkpt lat="44.56379" lon="6.10054">
        <ele>749.004395</ele>
        <time>2011-03-18T12:38:15Z</time>
      </trkpt>
      <trkpt lat="44.56404" lon="6.10055">
        <ele>748.043213</ele>
        <time>2011-03-18T12:38:20Z</time>
      </trkpt>
      <trkpt lat="44.56402" lon="6.10026">
        <ele>748.523682</ele>
        <time>2011-03-18T12:38:26Z</time>
      </trkpt>
      <trkpt lat="44.56383" lon="6.10012">
        <ele>748.523682</ele>
        <time>2011-03-18T12:38:29Z</time>
      </trkpt>
      <trkpt lat="44.56368" lon="6.09936">
        <ele>747.562256</ele>
        <time>2011-03-18T12:38:42Z</time>
      </trkpt>
      <trkpt lat="44.56365" lon="6.0987">
        <ele>746.601074</ele>
        <time>2011-03-18T12:38:55Z</time>
      </trkpt>
      <trkpt lat="44.56366" lon="6.09853">
        <ele>745.639648</ele>
        <time>2011-03-18T12:38:58Z</time>
      </trkpt>
      <trkpt lat="44.5638" lon="6.0971">
        <ele>745.158936</ele>
        <time>2011-03-18T12:39:21Z</time>
      </trkpt>
      <trkpt lat="44.56381" lon="6.09683">
        <ele>744.197754</ele>
        <time>2011-03-18T12:39:25Z</time>
      </trkpt>
      <trkpt lat="44.56377" lon="6.09619">
        <ele>745.158936</ele>
        <time>2011-03-18T12:39:35Z</time>
      </trkpt>
      <trkpt lat="44.56378" lon="6.09605">
        <ele>744.197754</ele>
        <time>2011-03-18T12:39:37Z</time>
      </trkpt>
      <trkpt lat="44.56382" lon="6.09581">
        <ele>744.678223</ele>
        <time>2011-03-18T12:39:41Z</time>
      </trkpt>
      <trkpt lat="44.56389" lon="6.09567">
        <ele>744.678223</ele>
        <time>2011-03-18T12:39:44Z</time>
      </trkpt>
      <trkpt lat="44.56386" lon="6.09529">
        <ele>744.678223</ele>
        <time>2011-03-18T12:39:50Z</time>
      </trkpt>
      <trkpt lat="44.56386" lon="6.09512">
        <ele>743.717041</ele>
        <time>2011-03-18T12:39:52Z</time>
      </trkpt>
      <trkpt lat="44.56409" lon="6.09391">
        <ele>744.678223</ele>
        <time>2011-03-18T12:40:10Z</time>
      </trkpt>
      <trkpt lat="44.5641" lon="6.09381">
        <ele>743.717041</ele>
        <time>2011-03-18T12:40:12Z</time>
      </trkpt>
      <trkpt lat="44.56407" lon="6.09331">
        <ele>742.755859</ele>
        <time>2011-03-18T12:40:21Z</time>
      </trkpt>
      <trkpt lat="44.56404" lon="6.09313">
        <ele>744.197754</ele>
        <time>2011-03-18T12:40:24Z</time>
      </trkpt>
      <trkpt lat="44.56402" lon="6.09309">
        <ele>744.197754</ele>
        <time>2011-03-18T12:40:25Z</time>
      </trkpt>
      <trkpt lat="44.56394" lon="6.09298">
        <ele>745.639648</ele>
        <time>2011-03-18T12:40:28Z</time>
      </trkpt>
      <trkpt lat="44.56369" lon="6.09252">
        <ele>743.236328</ele>
        <time>2011-03-18T12:40:37Z</time>
      </trkpt>
      <trkpt lat="44.56344" lon="6.09117">
        <ele>741.313721</ele>
        <time>2011-03-18T12:40:56Z</time>
      </trkpt>
      <trkpt lat="44.56344" lon="6.0911">
        <ele>740.833008</ele>
        <time>2011-03-18T12:40:57Z</time>
      </trkpt>
      <trkpt lat="44.56348" lon="6.09081">
        <ele>741.313721</ele>
        <time>2011-03-18T12:41:01Z</time>
      </trkpt>
      <trkpt lat="44.56351" lon="6.09067">
        <ele>740.352539</ele>
        <time>2011-03-18T12:41:03Z</time>
      </trkpt>
      <trkpt lat="44.56355" lon="6.09054">
        <ele>740.352539</ele>
        <time>2011-03-18T12:41:05Z</time>
      </trkpt>
      <trkpt lat="44.56357" lon="6.08937">
        <ele>742.275146</ele>
        <time>2011-03-18T12:41:24Z</time>
      </trkpt>
      <trkpt lat="44.56393" lon="6.08908">
        <ele>741.313721</ele>
        <time>2011-03-18T12:41:38Z</time>
      </trkpt>
      <trkpt lat="44.56396" lon="6.08906">
        <ele>741.313721</ele>
        <time>2011-03-18T12:41:39Z</time>
      </trkpt>
      <trkpt lat="44.56395" lon="6.08871">
        <ele>741.313721</ele>
        <time>2011-03-18T12:41:50Z</time>
      </trkpt>
      <trkpt lat="44.56353" lon="6.08766">
        <ele>741.794434</ele>
        <time>2011-03-18T12:42:11Z</time>
      </trkpt>
      <trkpt lat="44.56351" lon="6.08761">
        <ele>741.794434</ele>
        <time>2011-03-18T12:42:12Z</time>
      </trkpt>
      <trkpt lat="44.56324" lon="6.08698">
        <ele>742.755859</ele>
        <time>2011-03-18T12:42:26Z</time>
      </trkpt>
      <trkpt lat="44.56298" lon="6.08631">
        <ele>742.275146</ele>
        <time>2011-03-18T12:42:40Z</time>
      </trkpt>
      <trkpt lat="44.56285" lon="6.086">
        <ele>742.275146</ele>
        <time>2011-03-18T12:42:45Z</time>
      </trkpt>
      <trkpt lat="44.5626" lon="6.0854">
        <ele>742.755859</ele>
        <time>2011-03-18T12:42:59Z</time>
      </trkpt>
      <trkpt lat="44.56254" lon="6.08526">
        <ele>741.794434</ele>
        <time>2011-03-18T12:43:03Z</time>
      </trkpt>
      <trkpt lat="44.56219" lon="6.08444">
        <ele>742.275146</ele>
        <time>2011-03-18T12:43:21Z</time>
      </trkpt>
      <trkpt lat="44.56217" lon="6.0844">
        <ele>742.275146</ele>
        <time>2011-03-18T12:43:22Z</time>
      </trkpt>
      <trkpt lat="44.56188" lon="6.08431">
        <ele>740.833008</ele>
        <time>2011-03-18T12:43:26Z</time>
      </trkpt>
      <trkpt lat="44.56166" lon="6.0842">
        <ele>741.313721</ele>
        <time>2011-03-18T12:43:36Z</time>
      </trkpt>
      <trkpt lat="44.56166" lon="6.0842">
        <ele>741.313721</ele>
        <time>2011-03-18T12:43:39Z</time>
      </trkpt>
      <trkpt lat="44.56177" lon="6.08404">
        <ele>741.313721</ele>
        <time>2011-03-18T12:43:56Z</time>
      </trkpt>
      <trkpt lat="44.56177" lon="6.08404">
        <ele>742.275146</ele>
        <time>2011-03-18T12:44:03Z</time>
      </trkpt>
      <trkpt lat="44.56177" lon="6.08409">
        <ele>742.755859</ele>
        <time>2011-03-18T12:44:13Z</time>
      </trkpt>
      <trkpt lat="44.56195" lon="6.08371">
        <ele>744.197754</ele>
        <time>2011-03-18T12:44:27Z</time>
      </trkpt>
      <trkpt lat="44.56188" lon="6.08355">
        <ele>743.236328</ele>
        <time>2011-03-18T12:44:31Z</time>
      </trkpt>
      <trkpt lat="44.56188" lon="6.08355">
        <ele>743.236328</ele>
        <time>2011-03-18T12:44:33Z</time>
      </trkpt>
      <trkpt lat="44.56189" lon="6.08354">
        <ele>742.755859</ele>
        <time>2011-03-18T12:44:47Z</time>
      </trkpt>
      <trkpt lat="44.56189" lon="6.08354">
        <ele>742.755859</ele>
        <time>2011-03-18T12:45:08Z</time>
      </trkpt>
      <trkpt lat="44.56188" lon="6.08357">
        <ele>743.236328</ele>
        <time>2011-03-18T12:45:11Z</time>
      </trkpt>
      <trkpt lat="44.56183" lon="6.08345">
        <ele>742.755859</ele>
        <time>2011-03-18T12:45:14Z</time>
      </trkpt>
      <trkpt lat="44.56143" lon="6.08249">
        <ele>741.313721</ele>
        <time>2011-03-18T12:45:31Z</time>
      </trkpt>
      <trkpt lat="44.56141" lon="6.08218">
        <ele>740.833008</ele>
        <time>2011-03-18T12:45:36Z</time>
      </trkpt>
      <trkpt lat="44.5614" lon="6.08149">
        <ele>742.275146</ele>
        <time>2011-03-18T12:45:48Z</time>
      </trkpt>
      <trkpt lat="44.56125" lon="6.08103">
        <ele>741.794434</ele>
        <time>2011-03-18T12:45:59Z</time>
      </trkpt>
      <trkpt lat="44.56107" lon="6.08057">
        <ele>741.794434</ele>
        <time>2011-03-18T12:46:09Z</time>
      </trkpt>
      <trkpt lat="44.56121" lon="6.07977">
        <ele>744.197754</ele>
        <time>2011-03-18T12:46:24Z</time>
      </trkpt>
      <trkpt lat="44.56105" lon="6.07909">
        <ele>744.197754</ele>
        <time>2011-03-18T12:46:38Z</time>
      </trkpt>
      <trkpt lat="44.56094" lon="6.07873">
        <ele>744.678223</ele>
        <time>2011-03-18T12:46:49Z</time>
      </trkpt>
      <trkpt lat="44.56077" lon="6.07819">
        <ele>744.197754</ele>
        <time>2011-03-18T12:47:04Z</time>
      </trkpt>
      <trkpt lat="44.56066" lon="6.07789">
        <ele>745.639648</ele>
        <time>2011-03-18T12:47:17Z</time>
      </trkpt>
      <trkpt lat="44.56065" lon="6.07785">
        <ele>745.639648</ele>
        <time>2011-03-18T12:47:30Z</time>
      </trkpt>
      <trkpt lat="44.56048" lon="6.07732">
        <ele>744.678223</ele>
        <time>2011-03-18T12:47:43Z</time>
      </trkpt>
      <trkpt lat="44.56013" lon="6.07631">
        <ele>745.639648</ele>
        <time>2011-03-18T12:48:02Z</time>
      </trkpt>
      <trkpt lat="44.5596" lon="6.07576">
        <ele>746.601074</ele>
        <time>2011-03-18T12:48:18Z</time>
      </trkpt>
      <trkpt lat="44.55885" lon="6.07501">
        <ele>745.158936</ele>
        <time>2011-03-18T12:48:38Z</time>
      </trkpt>
      <trkpt lat="44.55892" lon="6.07507">
        <ele>745.158936</ele>
        <time>2011-03-18T12:48:46Z</time>
      </trkpt>
      <trkpt lat="44.55892" lon="6.07507">
        <ele>745.158936</ele>
        <time>2011-03-18T12:48:47Z</time>
      </trkpt>
      <trkpt lat="44.55892" lon="6.07507">
        <ele>745.639648</ele>
        <time>2011-03-18T12:49:03Z</time>
      </trkpt>
      <trkpt lat="44.55892" lon="6.07507">
        <ele>744.678223</ele>
        <time>2011-03-18T12:49:09Z</time>
      </trkpt>
    </trkseg>
  </trk>
</gpx>